<?xml version="1.0" encoding="UTF-8" standalone="no" ?>
<gpx xmlns="http://www.topografix.com/GPX/1/1" xmlns:xsi="http://www.w3.org/2001/XMLSchema-instance" xsi:schemaLocation="http://www.topografix.com/GPX/1/1 http://www.topografix.com/GPX/1/1/gpx.xsd" version="1.1" creator="VisuGPX - https://www.visugpx.com">
  <metadata>
    <name>2015 11 11 rando du mercredi</name>
    <desc><![CDATA[sous pluie fine glissante]]></desc>
  </metadata>
  <trk>
    <name><![CDATA[2015 11 11 rando du mercredi_1]]></name>
    <trkseg>
      <trkpt lat="48.85261" lon="2.36966">
        <ele>49.2</ele>
        <time>2015-11-11T20:04:44Z</time>
      </trkpt>
      <trkpt lat="48.85241" lon="2.36986">
        <ele>50.4</ele>
        <time>2015-11-11T20:04:51Z</time>
      </trkpt>
      <trkpt lat="48.85216" lon="2.37008">
        <ele>37</ele>
        <time>2015-11-11T20:04:55Z</time>
      </trkpt>
      <trkpt lat="48.85219" lon="2.36999">
        <ele>40.8</ele>
        <time>2015-11-11T20:04:56Z</time>
      </trkpt>
      <trkpt lat="48.85215" lon="2.36995">
        <ele>40.6</ele>
        <time>2015-11-11T20:04:58Z</time>
      </trkpt>
      <trkpt lat="48.85215" lon="2.36965">
        <ele>44.8</ele>
        <time>2015-11-11T20:05:06Z</time>
      </trkpt>
      <trkpt lat="48.85202" lon="2.36965">
        <ele>45.4</ele>
        <time>2015-11-11T20:05:10Z</time>
      </trkpt>
      <trkpt lat="48.85188" lon="2.36971">
        <ele>48.4</ele>
        <time>2015-11-11T20:05:14Z</time>
      </trkpt>
      <trkpt lat="48.85177" lon="2.36973">
        <ele>46.2</ele>
        <time>2015-11-11T20:05:17Z</time>
      </trkpt>
      <trkpt lat="48.85163" lon="2.3698">
        <ele>45</ele>
        <time>2015-11-11T20:05:20Z</time>
      </trkpt>
      <trkpt lat="48.85145" lon="2.36988">
        <ele>44.8</ele>
        <time>2015-11-11T20:05:24Z</time>
      </trkpt>
      <trkpt lat="48.85132" lon="2.36988">
        <ele>46</ele>
        <time>2015-11-11T20:05:27Z</time>
      </trkpt>
      <trkpt lat="48.85114" lon="2.36976">
        <ele>47.2</ele>
        <time>2015-11-11T20:05:33Z</time>
      </trkpt>
      <trkpt lat="48.8511" lon="2.36976">
        <ele>47.4</ele>
        <time>2015-11-11T20:05:34Z</time>
      </trkpt>
      <trkpt lat="48.8509" lon="2.36974">
        <ele>47.8</ele>
        <time>2015-11-11T20:05:40Z</time>
      </trkpt>
      <trkpt lat="48.85068" lon="2.36971">
        <ele>48</ele>
        <time>2015-11-11T20:05:45Z</time>
      </trkpt>
      <trkpt lat="48.85061" lon="2.36969">
        <ele>48.2</ele>
        <time>2015-11-11T20:05:47Z</time>
      </trkpt>
      <trkpt lat="48.85042" lon="2.36974">
        <ele>48.4</ele>
        <time>2015-11-11T20:05:52Z</time>
      </trkpt>
      <trkpt lat="48.85022" lon="2.36979">
        <ele>49</ele>
        <time>2015-11-11T20:05:57Z</time>
      </trkpt>
      <trkpt lat="48.85" lon="2.36981">
        <ele>50</ele>
        <time>2015-11-11T20:06:02Z</time>
      </trkpt>
      <trkpt lat="48.84982" lon="2.3698">
        <ele>50.8</ele>
        <time>2015-11-11T20:06:06Z</time>
      </trkpt>
      <trkpt lat="48.84961" lon="2.3698">
        <ele>51.6</ele>
        <time>2015-11-11T20:06:10Z</time>
      </trkpt>
      <trkpt lat="48.84943" lon="2.36991">
        <ele>51.4</ele>
        <time>2015-11-11T20:06:13Z</time>
      </trkpt>
      <trkpt lat="48.84929" lon="2.37004">
        <ele>51.4</ele>
        <time>2015-11-11T20:06:16Z</time>
      </trkpt>
      <trkpt lat="48.84923" lon="2.37014">
        <ele>51.2</ele>
        <time>2015-11-11T20:06:18Z</time>
      </trkpt>
      <trkpt lat="48.84916" lon="2.37032">
        <ele>51</ele>
        <time>2015-11-11T20:06:21Z</time>
      </trkpt>
      <trkpt lat="48.84915" lon="2.37052">
        <ele>48.8</ele>
        <time>2015-11-11T20:06:24Z</time>
      </trkpt>
      <trkpt lat="48.84906" lon="2.37079">
        <ele>44.6</ele>
        <time>2015-11-11T20:06:30Z</time>
      </trkpt>
      <trkpt lat="48.84887" lon="2.37091">
        <ele>41.8</ele>
        <time>2015-11-11T20:06:35Z</time>
      </trkpt>
      <trkpt lat="48.84868" lon="2.37098">
        <ele>39.4</ele>
        <time>2015-11-11T20:06:39Z</time>
      </trkpt>
      <trkpt lat="48.84849" lon="2.37109">
        <ele>37.2</ele>
        <time>2015-11-11T20:06:43Z</time>
      </trkpt>
      <trkpt lat="48.8483" lon="2.37121">
        <ele>35</ele>
        <time>2015-11-11T20:06:47Z</time>
      </trkpt>
      <trkpt lat="48.84811" lon="2.37133">
        <ele>32</ele>
        <time>2015-11-11T20:06:51Z</time>
      </trkpt>
      <trkpt lat="48.84789" lon="2.37143">
        <ele>30.8</ele>
        <time>2015-11-11T20:06:55Z</time>
      </trkpt>
      <trkpt lat="48.84772" lon="2.37151">
        <ele>29.8</ele>
        <time>2015-11-11T20:06:58Z</time>
      </trkpt>
      <trkpt lat="48.84754" lon="2.3716">
        <ele>28.6</ele>
        <time>2015-11-11T20:07:01Z</time>
      </trkpt>
      <trkpt lat="48.84737" lon="2.37168">
        <ele>27.6</ele>
        <time>2015-11-11T20:07:04Z</time>
      </trkpt>
      <trkpt lat="48.84714" lon="2.37179">
        <ele>27.2</ele>
        <time>2015-11-11T20:07:08Z</time>
      </trkpt>
      <trkpt lat="48.84704" lon="2.37184">
        <ele>26.6</ele>
        <time>2015-11-11T20:07:10Z</time>
      </trkpt>
      <trkpt lat="48.84683" lon="2.37194">
        <ele>25.2</ele>
        <time>2015-11-11T20:07:14Z</time>
      </trkpt>
      <trkpt lat="48.84663" lon="2.37203">
        <ele>26.4</ele>
        <time>2015-11-11T20:07:18Z</time>
      </trkpt>
      <trkpt lat="48.84643" lon="2.37207">
        <ele>27</ele>
        <time>2015-11-11T20:07:22Z</time>
      </trkpt>
      <trkpt lat="48.84639" lon="2.37209">
        <ele>26.8</ele>
        <time>2015-11-11T20:07:23Z</time>
      </trkpt>
      <trkpt lat="48.84621" lon="2.37216">
        <ele>25.8</ele>
        <time>2015-11-11T20:07:27Z</time>
      </trkpt>
      <trkpt lat="48.84616" lon="2.37219">
        <ele>25.4</ele>
        <time>2015-11-11T20:07:28Z</time>
      </trkpt>
      <trkpt lat="48.84608" lon="2.37223">
        <ele>24.8</ele>
        <time>2015-11-11T20:07:30Z</time>
      </trkpt>
      <trkpt lat="48.8459" lon="2.37231">
        <ele>23.8</ele>
        <time>2015-11-11T20:07:34Z</time>
      </trkpt>
      <trkpt lat="48.84577" lon="2.37235">
        <ele>23.2</ele>
        <time>2015-11-11T20:07:37Z</time>
      </trkpt>
      <trkpt lat="48.84563" lon="2.37218">
        <ele>24.8</ele>
        <time>2015-11-11T20:07:41Z</time>
      </trkpt>
      <trkpt lat="48.8456" lon="2.37204">
        <ele>24.6</ele>
        <time>2015-11-11T20:07:43Z</time>
      </trkpt>
      <trkpt lat="48.84551" lon="2.37179">
        <ele>26.4</ele>
        <time>2015-11-11T20:07:47Z</time>
      </trkpt>
      <trkpt lat="48.84548" lon="2.37161">
        <ele>27.8</ele>
        <time>2015-11-11T20:07:50Z</time>
      </trkpt>
      <trkpt lat="48.84546" lon="2.3713">
        <ele>28.4</ele>
        <time>2015-11-11T20:07:55Z</time>
      </trkpt>
      <trkpt lat="48.84544" lon="2.37118">
        <ele>28.6</ele>
        <time>2015-11-11T20:07:58Z</time>
      </trkpt>
      <trkpt lat="48.84543" lon="2.37114">
        <ele>28.6</ele>
        <time>2015-11-11T20:08:00Z</time>
      </trkpt>
      <trkpt lat="48.84532" lon="2.3712">
        <ele>25.8</ele>
        <time>2015-11-11T20:08:06Z</time>
      </trkpt>
      <trkpt lat="48.84529" lon="2.37123">
        <ele>25.8</ele>
        <time>2015-11-11T20:08:07Z</time>
      </trkpt>
      <trkpt lat="48.84513" lon="2.37144">
        <ele>25</ele>
        <time>2015-11-11T20:08:12Z</time>
      </trkpt>
      <trkpt lat="48.84497" lon="2.37159">
        <ele>25.2</ele>
        <time>2015-11-11T20:08:16Z</time>
      </trkpt>
      <trkpt lat="48.84485" lon="2.37168">
        <ele>27.2</ele>
        <time>2015-11-11T20:08:19Z</time>
      </trkpt>
      <trkpt lat="48.84469" lon="2.37184">
        <ele>28</ele>
        <time>2015-11-11T20:08:23Z</time>
      </trkpt>
      <trkpt lat="48.8446" lon="2.37193">
        <ele>28</ele>
        <time>2015-11-11T20:08:25Z</time>
      </trkpt>
      <trkpt lat="48.84452" lon="2.37204">
        <ele>29</ele>
        <time>2015-11-11T20:08:27Z</time>
      </trkpt>
      <trkpt lat="48.84434" lon="2.37225">
        <ele>29.4</ele>
        <time>2015-11-11T20:08:31Z</time>
      </trkpt>
      <trkpt lat="48.84421" lon="2.37247">
        <ele>32.6</ele>
        <time>2015-11-11T20:08:34Z</time>
      </trkpt>
      <trkpt lat="48.84404" lon="2.3727">
        <ele>36</ele>
        <time>2015-11-11T20:08:38Z</time>
      </trkpt>
      <trkpt lat="48.84401" lon="2.37277">
        <ele>36</ele>
        <time>2015-11-11T20:08:39Z</time>
      </trkpt>
      <trkpt lat="48.84389" lon="2.37303">
        <ele>37</ele>
        <time>2015-11-11T20:08:43Z</time>
      </trkpt>
      <trkpt lat="48.84376" lon="2.37329">
        <ele>37.6</ele>
        <time>2015-11-11T20:08:48Z</time>
      </trkpt>
      <trkpt lat="48.84365" lon="2.37355">
        <ele>37.2</ele>
        <time>2015-11-11T20:08:53Z</time>
      </trkpt>
      <trkpt lat="48.84354" lon="2.37384">
        <ele>37</ele>
        <time>2015-11-11T20:08:58Z</time>
      </trkpt>
      <trkpt lat="48.8435" lon="2.37394">
        <ele>37</ele>
        <time>2015-11-11T20:09:00Z</time>
      </trkpt>
      <trkpt lat="48.8434" lon="2.37411">
        <ele>36.2</ele>
        <time>2015-11-11T20:09:04Z</time>
      </trkpt>
      <trkpt lat="48.84335" lon="2.3742">
        <ele>35.2</ele>
        <time>2015-11-11T20:09:06Z</time>
      </trkpt>
      <trkpt lat="48.84328" lon="2.37435">
        <ele>33.8</ele>
        <time>2015-11-11T20:09:09Z</time>
      </trkpt>
      <trkpt lat="48.84317" lon="2.37462">
        <ele>29.8</ele>
        <time>2015-11-11T20:09:14Z</time>
      </trkpt>
      <trkpt lat="48.84317" lon="2.37467">
        <ele>29.4</ele>
        <time>2015-11-11T20:09:15Z</time>
      </trkpt>
      <trkpt lat="48.84302" lon="2.3749">
        <ele>29</ele>
        <time>2015-11-11T20:09:19Z</time>
      </trkpt>
      <trkpt lat="48.84297" lon="2.375">
        <ele>27.6</ele>
        <time>2015-11-11T20:09:21Z</time>
      </trkpt>
      <trkpt lat="48.84289" lon="2.3752">
        <ele>26</ele>
        <time>2015-11-11T20:09:24Z</time>
      </trkpt>
      <trkpt lat="48.84277" lon="2.37543">
        <ele>24.4</ele>
        <time>2015-11-11T20:09:27Z</time>
      </trkpt>
      <trkpt lat="48.84266" lon="2.37565">
        <ele>22.2</ele>
        <time>2015-11-11T20:09:30Z</time>
      </trkpt>
      <trkpt lat="48.84254" lon="2.37586">
        <ele>19.6</ele>
        <time>2015-11-11T20:09:33Z</time>
      </trkpt>
      <trkpt lat="48.84239" lon="2.37613">
        <ele>18</ele>
        <time>2015-11-11T20:09:37Z</time>
      </trkpt>
      <trkpt lat="48.84226" lon="2.37639">
        <ele>16.4</ele>
        <time>2015-11-11T20:09:41Z</time>
      </trkpt>
      <trkpt lat="48.84233" lon="2.37662">
        <ele>17.4</ele>
        <time>2015-11-11T20:09:46Z</time>
      </trkpt>
      <trkpt lat="48.84244" lon="2.37674">
        <ele>18.2</ele>
        <time>2015-11-11T20:09:49Z</time>
      </trkpt>
      <trkpt lat="48.84253" lon="2.37684">
        <ele>19.2</ele>
        <time>2015-11-11T20:09:53Z</time>
      </trkpt>
      <trkpt lat="48.84363" lon="2.3792">
        <ele>2.6</ele>
        <time>2015-11-11T20:10:26Z</time>
      </trkpt>
      <trkpt lat="48.84372" lon="2.37938">
        <ele>2.4</ele>
        <time>2015-11-11T20:10:29Z</time>
      </trkpt>
      <trkpt lat="48.84383" lon="2.37966">
        <ele>21.2</ele>
        <time>2015-11-11T20:10:32Z</time>
      </trkpt>
      <trkpt lat="48.84386" lon="2.37989">
        <ele>34.8</ele>
        <time>2015-11-11T20:10:35Z</time>
      </trkpt>
      <trkpt lat="48.84395" lon="2.38016">
        <ele>35.4</ele>
        <time>2015-11-11T20:10:40Z</time>
      </trkpt>
      <trkpt lat="48.84404" lon="2.38041">
        <ele>35</ele>
        <time>2015-11-11T20:10:46Z</time>
      </trkpt>
      <trkpt lat="48.8441" lon="2.38066">
        <ele>36.2</ele>
        <time>2015-11-11T20:10:51Z</time>
      </trkpt>
      <trkpt lat="48.84418" lon="2.38097">
        <ele>38.4</ele>
        <time>2015-11-11T20:10:57Z</time>
      </trkpt>
      <trkpt lat="48.84426" lon="2.38126">
        <ele>39.4</ele>
        <time>2015-11-11T20:11:03Z</time>
      </trkpt>
      <trkpt lat="48.84429" lon="2.38132">
        <ele>39.6</ele>
        <time>2015-11-11T20:11:05Z</time>
      </trkpt>
      <trkpt lat="48.84426" lon="2.38148">
        <ele>44.4</ele>
        <time>2015-11-11T20:11:18Z</time>
      </trkpt>
      <trkpt lat="48.84424" lon="2.38148">
        <ele>45.2</ele>
        <time>2015-11-11T20:11:22Z</time>
      </trkpt>
      <trkpt lat="48.84423" lon="2.38152">
        <ele>42.8</ele>
        <time>2015-11-11T20:12:02Z</time>
      </trkpt>
      <trkpt lat="48.84403" lon="2.3816">
        <ele>42.4</ele>
        <time>2015-11-11T20:12:08Z</time>
      </trkpt>
      <trkpt lat="48.84396" lon="2.38166">
        <ele>42.2</ele>
        <time>2015-11-11T20:12:10Z</time>
      </trkpt>
      <trkpt lat="48.84382" lon="2.38184">
        <ele>42</ele>
        <time>2015-11-11T20:12:15Z</time>
      </trkpt>
      <trkpt lat="48.84365" lon="2.38206">
        <ele>42.2</ele>
        <time>2015-11-11T20:12:19Z</time>
      </trkpt>
      <trkpt lat="48.84346" lon="2.38223">
        <ele>41.4</ele>
        <time>2015-11-11T20:12:23Z</time>
      </trkpt>
      <trkpt lat="48.84333" lon="2.38244">
        <ele>40.2</ele>
        <time>2015-11-11T20:12:27Z</time>
      </trkpt>
      <trkpt lat="48.84321" lon="2.38269">
        <ele>38.6</ele>
        <time>2015-11-11T20:12:31Z</time>
      </trkpt>
      <trkpt lat="48.84319" lon="2.38276">
        <ele>38.4</ele>
        <time>2015-11-11T20:12:32Z</time>
      </trkpt>
      <trkpt lat="48.84307" lon="2.38302">
        <ele>36.6</ele>
        <time>2015-11-11T20:12:36Z</time>
      </trkpt>
      <trkpt lat="48.84294" lon="2.38326">
        <ele>35.2</ele>
        <time>2015-11-11T20:12:40Z</time>
      </trkpt>
      <trkpt lat="48.84282" lon="2.38348">
        <ele>35.8</ele>
        <time>2015-11-11T20:12:44Z</time>
      </trkpt>
      <trkpt lat="48.84272" lon="2.3837">
        <ele>36.8</ele>
        <time>2015-11-11T20:12:48Z</time>
      </trkpt>
      <trkpt lat="48.84259" lon="2.38392">
        <ele>36.8</ele>
        <time>2015-11-11T20:12:52Z</time>
      </trkpt>
      <trkpt lat="48.84248" lon="2.38416">
        <ele>36.6</ele>
        <time>2015-11-11T20:12:56Z</time>
      </trkpt>
      <trkpt lat="48.84237" lon="2.38438">
        <ele>37.6</ele>
        <time>2015-11-11T20:13:00Z</time>
      </trkpt>
      <trkpt lat="48.84231" lon="2.38451">
        <ele>38.6</ele>
        <time>2015-11-11T20:13:02Z</time>
      </trkpt>
      <trkpt lat="48.84218" lon="2.38474">
        <ele>39.6</ele>
        <time>2015-11-11T20:13:06Z</time>
      </trkpt>
      <trkpt lat="48.84207" lon="2.38491">
        <ele>38.6</ele>
        <time>2015-11-11T20:13:09Z</time>
      </trkpt>
      <trkpt lat="48.8419" lon="2.3851">
        <ele>38.6</ele>
        <time>2015-11-11T20:13:13Z</time>
      </trkpt>
      <trkpt lat="48.84187" lon="2.38514">
        <ele>38.6</ele>
        <time>2015-11-11T20:13:14Z</time>
      </trkpt>
      <trkpt lat="48.84171" lon="2.3853">
        <ele>37.8</ele>
        <time>2015-11-11T20:13:18Z</time>
      </trkpt>
      <trkpt lat="48.84157" lon="2.38547">
        <ele>37.6</ele>
        <time>2015-11-11T20:13:22Z</time>
      </trkpt>
      <trkpt lat="48.84142" lon="2.38564">
        <ele>37</ele>
        <time>2015-11-11T20:13:26Z</time>
      </trkpt>
      <trkpt lat="48.84126" lon="2.38583">
        <ele>35.8</ele>
        <time>2015-11-11T20:13:30Z</time>
      </trkpt>
      <trkpt lat="48.84118" lon="2.38592">
        <ele>36.2</ele>
        <time>2015-11-11T20:13:32Z</time>
      </trkpt>
      <trkpt lat="48.841" lon="2.38604">
        <ele>36</ele>
        <time>2015-11-11T20:13:36Z</time>
      </trkpt>
      <trkpt lat="48.84091" lon="2.38611">
        <ele>35.6</ele>
        <time>2015-11-11T20:13:38Z</time>
      </trkpt>
      <trkpt lat="48.84075" lon="2.38627">
        <ele>35.4</ele>
        <time>2015-11-11T20:13:42Z</time>
      </trkpt>
      <trkpt lat="48.8406" lon="2.38644">
        <ele>35.8</ele>
        <time>2015-11-11T20:13:46Z</time>
      </trkpt>
      <trkpt lat="48.84054" lon="2.3866">
        <ele>35.6</ele>
        <time>2015-11-11T20:13:49Z</time>
      </trkpt>
      <trkpt lat="48.84038" lon="2.38678">
        <ele>34.4</ele>
        <time>2015-11-11T20:13:54Z</time>
      </trkpt>
      <trkpt lat="48.84034" lon="2.38681">
        <ele>33.8</ele>
        <time>2015-11-11T20:13:55Z</time>
      </trkpt>
      <trkpt lat="48.84023" lon="2.38689">
        <ele>33.6</ele>
        <time>2015-11-11T20:13:58Z</time>
      </trkpt>
      <trkpt lat="48.84005" lon="2.38702">
        <ele>33.6</ele>
        <time>2015-11-11T20:14:03Z</time>
      </trkpt>
      <trkpt lat="48.83989" lon="2.38716">
        <ele>33.2</ele>
        <time>2015-11-11T20:14:07Z</time>
      </trkpt>
      <trkpt lat="48.83985" lon="2.3872">
        <ele>33.2</ele>
        <time>2015-11-11T20:14:08Z</time>
      </trkpt>
      <trkpt lat="48.8397" lon="2.38735">
        <ele>32.8</ele>
        <time>2015-11-11T20:14:12Z</time>
      </trkpt>
      <trkpt lat="48.83963" lon="2.38742">
        <ele>32.4</ele>
        <time>2015-11-11T20:14:14Z</time>
      </trkpt>
      <trkpt lat="48.83948" lon="2.38758">
        <ele>32.2</ele>
        <time>2015-11-11T20:14:18Z</time>
      </trkpt>
      <trkpt lat="48.83932" lon="2.38776">
        <ele>31.2</ele>
        <time>2015-11-11T20:14:22Z</time>
      </trkpt>
      <trkpt lat="48.83929" lon="2.38782">
        <ele>30.6</ele>
        <time>2015-11-11T20:14:23Z</time>
      </trkpt>
      <trkpt lat="48.83913" lon="2.38801">
        <ele>28.4</ele>
        <time>2015-11-11T20:14:28Z</time>
      </trkpt>
      <trkpt lat="48.83894" lon="2.3882">
        <ele>26</ele>
        <time>2015-11-11T20:14:33Z</time>
      </trkpt>
      <trkpt lat="48.83883" lon="2.38849">
        <ele>11.8</ele>
        <time>2015-11-11T20:14:38Z</time>
      </trkpt>
      <trkpt lat="48.83881" lon="2.38856">
        <ele>9</ele>
        <time>2015-11-11T20:14:39Z</time>
      </trkpt>
      <trkpt lat="48.83867" lon="2.38877">
        <ele>3.4</ele>
        <time>2015-11-11T20:14:43Z</time>
      </trkpt>
      <trkpt lat="48.83847" lon="2.38897">
        <ele>1.4</ele>
        <time>2015-11-11T20:14:47Z</time>
      </trkpt>
      <trkpt lat="48.83833" lon="2.38913">
        <ele>0.2</ele>
        <time>2015-11-11T20:14:50Z</time>
      </trkpt>
      <trkpt lat="48.83825" lon="2.38924">
        <ele>39.4</ele>
        <time>2015-11-11T20:14:52Z</time>
      </trkpt>
      <trkpt lat="48.8381" lon="2.38941">
        <ele>-0.2</ele>
        <time>2015-11-11T20:14:55Z</time>
      </trkpt>
      <trkpt lat="48.83793" lon="2.38955">
        <ele>-1.2</ele>
        <time>2015-11-11T20:14:58Z</time>
      </trkpt>
      <trkpt lat="48.83787" lon="2.3896">
        <ele>-1.4</ele>
        <time>2015-11-11T20:14:59Z</time>
      </trkpt>
      <trkpt lat="48.83772" lon="2.38976">
        <ele>-1.4</ele>
        <time>2015-11-11T20:15:02Z</time>
      </trkpt>
      <trkpt lat="48.83762" lon="2.38987">
        <ele>-1.4</ele>
        <time>2015-11-11T20:15:04Z</time>
      </trkpt>
      <trkpt lat="48.83752" lon="2.38997">
        <ele>-2.2</ele>
        <time>2015-11-11T20:15:06Z</time>
      </trkpt>
      <trkpt lat="48.83742" lon="2.39005">
        <ele>-2.2</ele>
        <time>2015-11-11T20:15:08Z</time>
      </trkpt>
      <trkpt lat="48.83723" lon="2.39008">
        <ele>-0.8</ele>
        <time>2015-11-11T20:15:11Z</time>
      </trkpt>
      <trkpt lat="48.83703" lon="2.39001">
        <ele>-1.4</ele>
        <time>2015-11-11T20:15:16Z</time>
      </trkpt>
      <trkpt lat="48.83688" lon="2.3899">
        <ele>-2.6</ele>
        <time>2015-11-11T20:15:23Z</time>
      </trkpt>
      <trkpt lat="48.83689" lon="2.3899">
        <ele>-2.8</ele>
        <time>2015-11-11T20:15:24Z</time>
      </trkpt>
      <trkpt lat="48.83685" lon="2.38983">
        <ele>-2.6</ele>
        <time>2015-11-11T20:15:26Z</time>
      </trkpt>
      <trkpt lat="48.83668" lon="2.38948">
        <ele>-2</ele>
        <time>2015-11-11T20:15:30Z</time>
      </trkpt>
      <trkpt lat="48.83667" lon="2.38937">
        <ele>-2.4</ele>
        <time>2015-11-11T20:15:31Z</time>
      </trkpt>
      <trkpt lat="48.83654" lon="2.38909">
        <ele>-3</ele>
        <time>2015-11-11T20:15:33Z</time>
      </trkpt>
      <trkpt lat="48.83646" lon="2.38874">
        <ele>-4.2</ele>
        <time>2015-11-11T20:15:35Z</time>
      </trkpt>
      <trkpt lat="48.83647" lon="2.3884">
        <ele>-4.4</ele>
        <time>2015-11-11T20:15:37Z</time>
      </trkpt>
      <trkpt lat="48.83652" lon="2.38806">
        <ele>-3.2</ele>
        <time>2015-11-11T20:15:39Z</time>
      </trkpt>
      <trkpt lat="48.83653" lon="2.38792">
        <ele>-2.8</ele>
        <time>2015-11-11T20:15:40Z</time>
      </trkpt>
      <trkpt lat="48.83649" lon="2.38756">
        <ele>-2.6</ele>
        <time>2015-11-11T20:15:43Z</time>
      </trkpt>
      <trkpt lat="48.83643" lon="2.38741">
        <ele>-2.6</ele>
        <time>2015-11-11T20:15:45Z</time>
      </trkpt>
      <trkpt lat="48.83633" lon="2.38727">
        <ele>-2.8</ele>
        <time>2015-11-11T20:15:47Z</time>
      </trkpt>
      <trkpt lat="48.83621" lon="2.38706">
        <ele>-2.2</ele>
        <time>2015-11-11T20:15:50Z</time>
      </trkpt>
      <trkpt lat="48.83615" lon="2.38693">
        <ele>-2</ele>
        <time>2015-11-11T20:15:52Z</time>
      </trkpt>
      <trkpt lat="48.83596" lon="2.38673">
        <ele>33.6</ele>
        <time>2015-11-11T20:15:56Z</time>
      </trkpt>
      <trkpt lat="48.83581" lon="2.38652">
        <ele>-1.8</ele>
        <time>2015-11-11T20:16:00Z</time>
      </trkpt>
      <trkpt lat="48.83569" lon="2.38627">
        <ele>-3.6</ele>
        <time>2015-11-11T20:16:04Z</time>
      </trkpt>
      <trkpt lat="48.83563" lon="2.38618">
        <ele>-7</ele>
        <time>2015-11-11T20:16:06Z</time>
      </trkpt>
      <trkpt lat="48.83548" lon="2.38598">
        <ele>-10.2</ele>
        <time>2015-11-11T20:16:10Z</time>
      </trkpt>
      <trkpt lat="48.83532" lon="2.38576">
        <ele>-9.4</ele>
        <time>2015-11-11T20:16:15Z</time>
      </trkpt>
      <trkpt lat="48.83522" lon="2.38564">
        <ele>-11</ele>
        <time>2015-11-11T20:16:20Z</time>
      </trkpt>
      <trkpt lat="48.83521" lon="2.38558">
        <ele>-18.4</ele>
        <time>2015-11-11T20:16:23Z</time>
      </trkpt>
      <trkpt lat="48.83512" lon="2.38541">
        <ele>-26.8</ele>
        <time>2015-11-11T20:16:28Z</time>
      </trkpt>
      <trkpt lat="48.83504" lon="2.38531">
        <ele>-26.2</ele>
        <time>2015-11-11T20:16:30Z</time>
      </trkpt>
      <trkpt lat="48.83497" lon="2.3852">
        <ele>-26.6</ele>
        <time>2015-11-11T20:16:32Z</time>
      </trkpt>
      <trkpt lat="48.83486" lon="2.38497">
        <ele>-28.6</ele>
        <time>2015-11-11T20:16:36Z</time>
      </trkpt>
      <trkpt lat="48.83477" lon="2.38466">
        <ele>-29.4</ele>
        <time>2015-11-11T20:16:40Z</time>
      </trkpt>
      <trkpt lat="48.83462" lon="2.3844">
        <ele>-30.4</ele>
        <time>2015-11-11T20:16:44Z</time>
      </trkpt>
      <trkpt lat="48.83449" lon="2.3842">
        <ele>-30.4</ele>
        <time>2015-11-11T20:16:47Z</time>
      </trkpt>
      <trkpt lat="48.83437" lon="2.38399">
        <ele>-30.4</ele>
        <time>2015-11-11T20:16:50Z</time>
      </trkpt>
      <trkpt lat="48.83428" lon="2.38385">
        <ele>-30.6</ele>
        <time>2015-11-11T20:16:52Z</time>
      </trkpt>
      <trkpt lat="48.83415" lon="2.38365">
        <ele>-31</ele>
        <time>2015-11-11T20:16:55Z</time>
      </trkpt>
      <trkpt lat="48.83402" lon="2.38344">
        <ele>-31.6</ele>
        <time>2015-11-11T20:16:58Z</time>
      </trkpt>
      <trkpt lat="48.83391" lon="2.3832">
        <ele>-32.4</ele>
        <time>2015-11-11T20:17:01Z</time>
      </trkpt>
      <trkpt lat="48.83376" lon="2.38294">
        <ele>-32.8</ele>
        <time>2015-11-11T20:17:05Z</time>
      </trkpt>
      <trkpt lat="48.83372" lon="2.38284">
        <ele>-33.2</ele>
        <time>2015-11-11T20:17:07Z</time>
      </trkpt>
      <trkpt lat="48.83369" lon="2.38273">
        <ele>-34</ele>
        <time>2015-11-11T20:17:10Z</time>
      </trkpt>
      <trkpt lat="48.83369" lon="2.38267">
        <ele>-31</ele>
        <time>2015-11-11T20:17:12Z</time>
      </trkpt>
      <trkpt lat="48.83364" lon="2.38237">
        <ele>-16.2</ele>
        <time>2015-11-11T20:17:27Z</time>
      </trkpt>
      <trkpt lat="48.83351" lon="2.3821">
        <ele>-13.2</ele>
        <time>2015-11-11T20:17:33Z</time>
      </trkpt>
      <trkpt lat="48.83338" lon="2.38188">
        <ele>-17.8</ele>
        <time>2015-11-11T20:17:38Z</time>
      </trkpt>
      <trkpt lat="48.83326" lon="2.38167">
        <ele>-22.2</ele>
        <time>2015-11-11T20:17:42Z</time>
      </trkpt>
      <trkpt lat="48.83312" lon="2.38144">
        <ele>-27.2</ele>
        <time>2015-11-11T20:17:46Z</time>
      </trkpt>
      <trkpt lat="48.83299" lon="2.38119">
        <ele>-34.4</ele>
        <time>2015-11-11T20:17:50Z</time>
      </trkpt>
      <trkpt lat="48.83286" lon="2.38092">
        <ele>-35</ele>
        <time>2015-11-11T20:17:54Z</time>
      </trkpt>
      <trkpt lat="48.83271" lon="2.38065">
        <ele>-34.8</ele>
        <time>2015-11-11T20:17:58Z</time>
      </trkpt>
      <trkpt lat="48.8326" lon="2.38043">
        <ele>-36.2</ele>
        <time>2015-11-11T20:18:01Z</time>
      </trkpt>
      <trkpt lat="48.83248" lon="2.38021">
        <ele>-35.8</ele>
        <time>2015-11-11T20:18:04Z</time>
      </trkpt>
      <trkpt lat="48.83236" lon="2.38">
        <ele>-34.2</ele>
        <time>2015-11-11T20:18:07Z</time>
      </trkpt>
      <trkpt lat="48.83225" lon="2.3798">
        <ele>-34</ele>
        <time>2015-11-11T20:18:10Z</time>
      </trkpt>
      <trkpt lat="48.83212" lon="2.37959">
        <ele>-34.4</ele>
        <time>2015-11-11T20:18:13Z</time>
      </trkpt>
      <trkpt lat="48.83195" lon="2.37936">
        <ele>-30.4</ele>
        <time>2015-11-11T20:18:17Z</time>
      </trkpt>
      <trkpt lat="48.83184" lon="2.37919">
        <ele>-29.4</ele>
        <time>2015-11-11T20:18:20Z</time>
      </trkpt>
      <trkpt lat="48.83178" lon="2.37909">
        <ele>-23.8</ele>
        <time>2015-11-11T20:18:25Z</time>
      </trkpt>
      <trkpt lat="48.83166" lon="2.37931">
        <ele>-18.8</ele>
        <time>2015-11-11T20:18:32Z</time>
      </trkpt>
      <trkpt lat="48.83162" lon="2.37938">
        <ele>-16.2</ele>
        <time>2015-11-11T20:18:33Z</time>
      </trkpt>
      <trkpt lat="48.83154" lon="2.37951">
        <ele>-13.4</ele>
        <time>2015-11-11T20:18:35Z</time>
      </trkpt>
      <trkpt lat="48.83143" lon="2.37961">
        <ele>-10.2</ele>
        <time>2015-11-11T20:18:37Z</time>
      </trkpt>
      <trkpt lat="48.83126" lon="2.37975">
        <ele>-8</ele>
        <time>2015-11-11T20:18:40Z</time>
      </trkpt>
      <trkpt lat="48.83106" lon="2.37993">
        <ele>-4.6</ele>
        <time>2015-11-11T20:18:44Z</time>
      </trkpt>
      <trkpt lat="48.83089" lon="2.38005">
        <ele>-2.8</ele>
        <time>2015-11-11T20:18:47Z</time>
      </trkpt>
      <trkpt lat="48.8307" lon="2.38019">
        <ele>-1</ele>
        <time>2015-11-11T20:18:51Z</time>
      </trkpt>
      <trkpt lat="48.83061" lon="2.38025">
        <ele>0.4</ele>
        <time>2015-11-11T20:18:53Z</time>
      </trkpt>
      <trkpt lat="48.83044" lon="2.38036">
        <ele>4.4</ele>
        <time>2015-11-11T20:18:57Z</time>
      </trkpt>
      <trkpt lat="48.8304" lon="2.3804">
        <ele>4.4</ele>
        <time>2015-11-11T20:18:58Z</time>
      </trkpt>
      <trkpt lat="48.83025" lon="2.38052">
        <ele>5</ele>
        <time>2015-11-11T20:19:02Z</time>
      </trkpt>
      <trkpt lat="48.83018" lon="2.38058">
        <ele>8.2</ele>
        <time>2015-11-11T20:19:05Z</time>
      </trkpt>
      <trkpt lat="48.83001" lon="2.38059">
        <ele>9.2</ele>
        <time>2015-11-11T20:19:10Z</time>
      </trkpt>
      <trkpt lat="48.82982" lon="2.38054">
        <ele>11</ele>
        <time>2015-11-11T20:19:14Z</time>
      </trkpt>
      <trkpt lat="48.82963" lon="2.38052">
        <ele>12.4</ele>
        <time>2015-11-11T20:19:17Z</time>
      </trkpt>
      <trkpt lat="48.82946" lon="2.38055">
        <ele>13.2</ele>
        <time>2015-11-11T20:19:20Z</time>
      </trkpt>
      <trkpt lat="48.82925" lon="2.38062">
        <ele>14.6</ele>
        <time>2015-11-11T20:19:24Z</time>
      </trkpt>
      <trkpt lat="48.82906" lon="2.38072">
        <ele>14.8</ele>
        <time>2015-11-11T20:19:28Z</time>
      </trkpt>
      <trkpt lat="48.82889" lon="2.38083">
        <ele>16.2</ele>
        <time>2015-11-11T20:19:32Z</time>
      </trkpt>
      <trkpt lat="48.82874" lon="2.381">
        <ele>19</ele>
        <time>2015-11-11T20:19:38Z</time>
      </trkpt>
      <trkpt lat="48.82857" lon="2.38116">
        <ele>22.2</ele>
        <time>2015-11-11T20:19:43Z</time>
      </trkpt>
      <trkpt lat="48.8284" lon="2.38131">
        <ele>25.4</ele>
        <time>2015-11-11T20:19:49Z</time>
      </trkpt>
      <trkpt lat="48.8283" lon="2.38127">
        <ele>26.6</ele>
        <time>2015-11-11T20:19:52Z</time>
      </trkpt>
      <trkpt lat="48.82823" lon="2.38122">
        <ele>26.8</ele>
        <time>2015-11-11T20:19:54Z</time>
      </trkpt>
      <trkpt lat="48.82819" lon="2.38114">
        <ele>28.2</ele>
        <time>2015-11-11T20:19:56Z</time>
      </trkpt>
      <trkpt lat="48.8281" lon="2.38091">
        <ele>30.6</ele>
        <time>2015-11-11T20:20:01Z</time>
      </trkpt>
      <trkpt lat="48.82804" lon="2.3808">
        <ele>32.6</ele>
        <time>2015-11-11T20:20:05Z</time>
      </trkpt>
      <trkpt lat="48.82788" lon="2.38094">
        <ele>36.8</ele>
        <time>2015-11-11T20:20:11Z</time>
      </trkpt>
      <trkpt lat="48.82773" lon="2.38108">
        <ele>39.6</ele>
        <time>2015-11-11T20:20:16Z</time>
      </trkpt>
      <trkpt lat="48.82772" lon="2.38112">
        <ele>40.8</ele>
        <time>2015-11-11T20:20:18Z</time>
      </trkpt>
      <trkpt lat="48.82782" lon="2.38138">
        <ele>43</ele>
        <time>2015-11-11T20:20:25Z</time>
      </trkpt>
      <trkpt lat="48.82793" lon="2.38164">
        <ele>43.4</ele>
        <time>2015-11-11T20:20:29Z</time>
      </trkpt>
      <trkpt lat="48.82804" lon="2.38187">
        <ele>43.2</ele>
        <time>2015-11-11T20:20:32Z</time>
      </trkpt>
      <trkpt lat="48.82814" lon="2.38213">
        <ele>41.8</ele>
        <time>2015-11-11T20:20:36Z</time>
      </trkpt>
      <trkpt lat="48.8282" lon="2.38241">
        <ele>41.8</ele>
        <time>2015-11-11T20:20:41Z</time>
      </trkpt>
      <trkpt lat="48.82815" lon="2.38248">
        <ele>41.8</ele>
        <time>2015-11-11T20:20:44Z</time>
      </trkpt>
      <trkpt lat="48.82802" lon="2.38222">
        <ele>41.2</ele>
        <time>2015-11-11T20:20:48Z</time>
      </trkpt>
      <trkpt lat="48.8279" lon="2.38191">
        <ele>38.8</ele>
        <time>2015-11-11T20:20:52Z</time>
      </trkpt>
      <trkpt lat="48.82778" lon="2.38163">
        <ele>38.4</ele>
        <time>2015-11-11T20:20:55Z</time>
      </trkpt>
      <trkpt lat="48.8277" lon="2.38146">
        <ele>38.4</ele>
        <time>2015-11-11T20:20:57Z</time>
      </trkpt>
      <trkpt lat="48.82756" lon="2.38121">
        <ele>39.4</ele>
        <time>2015-11-11T20:21:00Z</time>
      </trkpt>
      <trkpt lat="48.82741" lon="2.38099">
        <ele>40.2</ele>
        <time>2015-11-11T20:21:03Z</time>
      </trkpt>
      <trkpt lat="48.82721" lon="2.38075">
        <ele>41</ele>
        <time>2015-11-11T20:21:06Z</time>
      </trkpt>
      <trkpt lat="48.82705" lon="2.38052">
        <ele>40.8</ele>
        <time>2015-11-11T20:21:09Z</time>
      </trkpt>
      <trkpt lat="48.82688" lon="2.38031">
        <ele>40.4</ele>
        <time>2015-11-11T20:21:12Z</time>
      </trkpt>
      <trkpt lat="48.8267" lon="2.38013">
        <ele>39.8</ele>
        <time>2015-11-11T20:21:15Z</time>
      </trkpt>
      <trkpt lat="48.82648" lon="2.37989">
        <ele>39</ele>
        <time>2015-11-11T20:21:19Z</time>
      </trkpt>
      <trkpt lat="48.82631" lon="2.37971">
        <ele>38.8</ele>
        <time>2015-11-11T20:21:22Z</time>
      </trkpt>
      <trkpt lat="48.8262" lon="2.37821">
        <ele>40.4</ele>
        <time>2015-11-11T20:21:34Z</time>
      </trkpt>
      <trkpt lat="48.82625" lon="2.37779">
        <ele>15.8</ele>
        <time>2015-11-11T20:21:40Z</time>
      </trkpt>
      <trkpt lat="48.82628" lon="2.37767">
        <ele>21.4</ele>
        <time>2015-11-11T20:21:43Z</time>
      </trkpt>
      <trkpt lat="48.8263" lon="2.37764">
        <ele>22.6</ele>
        <time>2015-11-11T20:21:45Z</time>
      </trkpt>
      <trkpt lat="48.82623" lon="2.3776">
        <ele>24.2</ele>
        <time>2015-11-11T20:22:21Z</time>
      </trkpt>
      <trkpt lat="48.82617" lon="2.3773">
        <ele>25.2</ele>
        <time>2015-11-11T20:22:30Z</time>
      </trkpt>
      <trkpt lat="48.82609" lon="2.37699">
        <ele>26.4</ele>
        <time>2015-11-11T20:22:35Z</time>
      </trkpt>
      <trkpt lat="48.82601" lon="2.37664">
        <ele>27.2</ele>
        <time>2015-11-11T20:22:39Z</time>
      </trkpt>
      <trkpt lat="48.82594" lon="2.37633">
        <ele>28</ele>
        <time>2015-11-11T20:22:43Z</time>
      </trkpt>
      <trkpt lat="48.82591" lon="2.37625">
        <ele>28.4</ele>
        <time>2015-11-11T20:22:44Z</time>
      </trkpt>
      <trkpt lat="48.82582" lon="2.376">
        <ele>30.2</ele>
        <time>2015-11-11T20:22:47Z</time>
      </trkpt>
      <trkpt lat="48.82575" lon="2.37574">
        <ele>31.4</ele>
        <time>2015-11-11T20:22:50Z</time>
      </trkpt>
      <trkpt lat="48.82574" lon="2.37567">
        <ele>32</ele>
        <time>2015-11-11T20:22:51Z</time>
      </trkpt>
      <trkpt lat="48.82568" lon="2.37536">
        <ele>32.6</ele>
        <time>2015-11-11T20:22:55Z</time>
      </trkpt>
      <trkpt lat="48.82567" lon="2.37529">
        <ele>32.4</ele>
        <time>2015-11-11T20:22:56Z</time>
      </trkpt>
      <trkpt lat="48.82562" lon="2.37504">
        <ele>33.8</ele>
        <time>2015-11-11T20:22:59Z</time>
      </trkpt>
      <trkpt lat="48.8256" lon="2.37491">
        <ele>35.2</ele>
        <time>2015-11-11T20:23:01Z</time>
      </trkpt>
      <trkpt lat="48.82557" lon="2.3748">
        <ele>36.8</ele>
        <time>2015-11-11T20:23:04Z</time>
      </trkpt>
      <trkpt lat="48.82555" lon="2.37473">
        <ele>37.8</ele>
        <time>2015-11-11T20:23:06Z</time>
      </trkpt>
      <trkpt lat="48.8255" lon="2.37442">
        <ele>41.8</ele>
        <time>2015-11-11T20:23:13Z</time>
      </trkpt>
      <trkpt lat="48.82549" lon="2.37438">
        <ele>41.2</ele>
        <time>2015-11-11T20:23:14Z</time>
      </trkpt>
      <trkpt lat="48.82548" lon="2.37434">
        <ele>41.8</ele>
        <time>2015-11-11T20:23:15Z</time>
      </trkpt>
      <trkpt lat="48.82543" lon="2.3741">
        <ele>45</ele>
        <time>2015-11-11T20:23:20Z</time>
      </trkpt>
      <trkpt lat="48.82538" lon="2.37395">
        <ele>48.4</ele>
        <time>2015-11-11T20:23:24Z</time>
      </trkpt>
      <trkpt lat="48.82532" lon="2.37367">
        <ele>52.4</ele>
        <time>2015-11-11T20:23:29Z</time>
      </trkpt>
      <trkpt lat="48.82525" lon="2.3734">
        <ele>56.4</ele>
        <time>2015-11-11T20:23:34Z</time>
      </trkpt>
      <trkpt lat="48.8252" lon="2.37309">
        <ele>59.8</ele>
        <time>2015-11-11T20:23:40Z</time>
      </trkpt>
      <trkpt lat="48.82513" lon="2.37283">
        <ele>61.6</ele>
        <time>2015-11-11T20:23:46Z</time>
      </trkpt>
      <trkpt lat="48.82509" lon="2.3726">
        <ele>64</ele>
        <time>2015-11-11T20:23:53Z</time>
      </trkpt>
      <trkpt lat="48.82515" lon="2.3725">
        <ele>66.6</ele>
        <time>2015-11-11T20:23:59Z</time>
      </trkpt>
      <trkpt lat="48.82507" lon="2.37243">
        <ele>69.4</ele>
        <time>2015-11-11T20:24:14Z</time>
      </trkpt>
      <trkpt lat="48.82507" lon="2.37232">
        <ele>72</ele>
        <time>2015-11-11T20:24:52Z</time>
      </trkpt>
      <trkpt lat="48.82528" lon="2.37221">
        <ele>72.8</ele>
        <time>2015-11-11T20:24:57Z</time>
      </trkpt>
      <trkpt lat="48.82536" lon="2.37198">
        <ele>73</ele>
        <time>2015-11-11T20:25:02Z</time>
      </trkpt>
      <trkpt lat="48.82521" lon="2.37194">
        <ele>73.2</ele>
        <time>2015-11-11T20:25:06Z</time>
      </trkpt>
      <trkpt lat="48.82499" lon="2.37194">
        <ele>72.6</ele>
        <time>2015-11-11T20:25:11Z</time>
      </trkpt>
      <trkpt lat="48.82481" lon="2.37199">
        <ele>72.2</ele>
        <time>2015-11-11T20:25:15Z</time>
      </trkpt>
      <trkpt lat="48.82461" lon="2.37207">
        <ele>71.8</ele>
        <time>2015-11-11T20:25:19Z</time>
      </trkpt>
      <trkpt lat="48.82439" lon="2.37215">
        <ele>71.6</ele>
        <time>2015-11-11T20:25:24Z</time>
      </trkpt>
      <trkpt lat="48.82428" lon="2.37221">
        <ele>71.2</ele>
        <time>2015-11-11T20:25:27Z</time>
      </trkpt>
      <trkpt lat="48.8241" lon="2.37237">
        <ele>71.4</ele>
        <time>2015-11-11T20:25:32Z</time>
      </trkpt>
      <trkpt lat="48.82394" lon="2.37254">
        <ele>67.6</ele>
        <time>2015-11-11T20:25:37Z</time>
      </trkpt>
      <trkpt lat="48.82377" lon="2.37257">
        <ele>67.4</ele>
        <time>2015-11-11T20:25:42Z</time>
      </trkpt>
      <trkpt lat="48.82365" lon="2.37229">
        <ele>67</ele>
        <time>2015-11-11T20:25:46Z</time>
      </trkpt>
      <trkpt lat="48.82363" lon="2.37222">
        <ele>66.8</ele>
        <time>2015-11-11T20:25:47Z</time>
      </trkpt>
      <trkpt lat="48.82355" lon="2.37193">
        <ele>64.6</ele>
        <time>2015-11-11T20:25:51Z</time>
      </trkpt>
      <trkpt lat="48.82351" lon="2.37172">
        <ele>61.8</ele>
        <time>2015-11-11T20:25:54Z</time>
      </trkpt>
      <trkpt lat="48.82343" lon="2.37145">
        <ele>61.2</ele>
        <time>2015-11-11T20:25:58Z</time>
      </trkpt>
      <trkpt lat="48.82337" lon="2.37119">
        <ele>60</ele>
        <time>2015-11-11T20:26:02Z</time>
      </trkpt>
      <trkpt lat="48.8233" lon="2.3709">
        <ele>58</ele>
        <time>2015-11-11T20:26:07Z</time>
      </trkpt>
      <trkpt lat="48.82325" lon="2.3707">
        <ele>56.6</ele>
        <time>2015-11-11T20:26:10Z</time>
      </trkpt>
      <trkpt lat="48.82321" lon="2.37047">
        <ele>55.4</ele>
        <time>2015-11-11T20:26:13Z</time>
      </trkpt>
      <trkpt lat="48.82316" lon="2.37014">
        <ele>53.4</ele>
        <time>2015-11-11T20:26:17Z</time>
      </trkpt>
      <trkpt lat="48.8231" lon="2.36983">
        <ele>51.6</ele>
        <time>2015-11-11T20:26:21Z</time>
      </trkpt>
      <trkpt lat="48.82304" lon="2.36952">
        <ele>50.4</ele>
        <time>2015-11-11T20:26:25Z</time>
      </trkpt>
      <trkpt lat="48.82299" lon="2.3692">
        <ele>49.4</ele>
        <time>2015-11-11T20:26:29Z</time>
      </trkpt>
      <trkpt lat="48.82294" lon="2.36905">
        <ele>52.2</ele>
        <time>2015-11-11T20:26:31Z</time>
      </trkpt>
      <trkpt lat="48.82294" lon="2.36875">
        <ele>54.4</ele>
        <time>2015-11-11T20:26:35Z</time>
      </trkpt>
      <trkpt lat="48.82303" lon="2.36866">
        <ele>53.8</ele>
        <time>2015-11-11T20:26:37Z</time>
      </trkpt>
      <trkpt lat="48.82324" lon="2.3685">
        <ele>53.8</ele>
        <time>2015-11-11T20:26:41Z</time>
      </trkpt>
      <trkpt lat="48.82334" lon="2.36841">
        <ele>56.4</ele>
        <time>2015-11-11T20:26:43Z</time>
      </trkpt>
      <trkpt lat="48.8235" lon="2.36828">
        <ele>65.4</ele>
        <time>2015-11-11T20:26:46Z</time>
      </trkpt>
      <trkpt lat="48.82369" lon="2.36815">
        <ele>72.4</ele>
        <time>2015-11-11T20:26:49Z</time>
      </trkpt>
      <trkpt lat="48.82388" lon="2.36808">
        <ele>76</ele>
        <time>2015-11-11T20:26:52Z</time>
      </trkpt>
      <trkpt lat="48.82407" lon="2.368">
        <ele>78.6</ele>
        <time>2015-11-11T20:26:55Z</time>
      </trkpt>
      <trkpt lat="48.82427" lon="2.36789">
        <ele>81.4</ele>
        <time>2015-11-11T20:26:58Z</time>
      </trkpt>
      <trkpt lat="48.82438" lon="2.36781">
        <ele>83.6</ele>
        <time>2015-11-11T20:27:00Z</time>
      </trkpt>
      <trkpt lat="48.82457" lon="2.36766">
        <ele>86.8</ele>
        <time>2015-11-11T20:27:03Z</time>
      </trkpt>
      <trkpt lat="48.82462" lon="2.36763">
        <ele>87.8</ele>
        <time>2015-11-11T20:27:04Z</time>
      </trkpt>
      <trkpt lat="48.82481" lon="2.36754">
        <ele>90.8</ele>
        <time>2015-11-11T20:27:07Z</time>
      </trkpt>
      <trkpt lat="48.82499" lon="2.36745">
        <ele>94.2</ele>
        <time>2015-11-11T20:27:10Z</time>
      </trkpt>
      <trkpt lat="48.82518" lon="2.36733">
        <ele>96.4</ele>
        <time>2015-11-11T20:27:13Z</time>
      </trkpt>
      <trkpt lat="48.82537" lon="2.36719">
        <ele>96.8</ele>
        <time>2015-11-11T20:27:16Z</time>
      </trkpt>
      <trkpt lat="48.82556" lon="2.36707">
        <ele>95.8</ele>
        <time>2015-11-11T20:27:19Z</time>
      </trkpt>
      <trkpt lat="48.82575" lon="2.36699">
        <ele>95.4</ele>
        <time>2015-11-11T20:27:22Z</time>
      </trkpt>
      <trkpt lat="48.82593" lon="2.36689">
        <ele>95.6</ele>
        <time>2015-11-11T20:27:25Z</time>
      </trkpt>
      <trkpt lat="48.82612" lon="2.36683">
        <ele>93</ele>
        <time>2015-11-11T20:27:28Z</time>
      </trkpt>
      <trkpt lat="48.82634" lon="2.36673">
        <ele>92.6</ele>
        <time>2015-11-11T20:27:32Z</time>
      </trkpt>
      <trkpt lat="48.82656" lon="2.36661">
        <ele>92</ele>
        <time>2015-11-11T20:27:36Z</time>
      </trkpt>
      <trkpt lat="48.82674" lon="2.36654">
        <ele>84.2</ele>
        <time>2015-11-11T20:27:39Z</time>
      </trkpt>
      <trkpt lat="48.82694" lon="2.36644">
        <ele>77.6</ele>
        <time>2015-11-11T20:27:43Z</time>
      </trkpt>
      <trkpt lat="48.82699" lon="2.36619">
        <ele>73</ele>
        <time>2015-11-11T20:27:48Z</time>
      </trkpt>
      <trkpt lat="48.82696" lon="2.36592">
        <ele>71</ele>
        <time>2015-11-11T20:27:52Z</time>
      </trkpt>
      <trkpt lat="48.8269" lon="2.36559">
        <ele>70</ele>
        <time>2015-11-11T20:27:56Z</time>
      </trkpt>
      <trkpt lat="48.82686" lon="2.36532">
        <ele>70.2</ele>
        <time>2015-11-11T20:27:59Z</time>
      </trkpt>
      <trkpt lat="48.82684" lon="2.36505">
        <ele>70.8</ele>
        <time>2015-11-11T20:28:02Z</time>
      </trkpt>
      <trkpt lat="48.82681" lon="2.36477">
        <ele>71.2</ele>
        <time>2015-11-11T20:28:05Z</time>
      </trkpt>
      <trkpt lat="48.82677" lon="2.36443">
        <ele>69.4</ele>
        <time>2015-11-11T20:28:09Z</time>
      </trkpt>
      <trkpt lat="48.82671" lon="2.36415">
        <ele>69</ele>
        <time>2015-11-11T20:28:13Z</time>
      </trkpt>
      <trkpt lat="48.82671" lon="2.36396">
        <ele>67.2</ele>
        <time>2015-11-11T20:28:16Z</time>
      </trkpt>
      <trkpt lat="48.82672" lon="2.36384">
        <ele>65.8</ele>
        <time>2015-11-11T20:28:18Z</time>
      </trkpt>
      <trkpt lat="48.82666" lon="2.36356">
        <ele>63.8</ele>
        <time>2015-11-11T20:28:23Z</time>
      </trkpt>
      <trkpt lat="48.82665" lon="2.36351">
        <ele>63.6</ele>
        <time>2015-11-11T20:28:24Z</time>
      </trkpt>
      <trkpt lat="48.8266" lon="2.36332">
        <ele>63.6</ele>
        <time>2015-11-11T20:28:27Z</time>
      </trkpt>
      <trkpt lat="48.82657" lon="2.3631">
        <ele>63</ele>
        <time>2015-11-11T20:28:30Z</time>
      </trkpt>
      <trkpt lat="48.82654" lon="2.36287">
        <ele>61.6</ele>
        <time>2015-11-11T20:28:33Z</time>
      </trkpt>
      <trkpt lat="48.82651" lon="2.36257">
        <ele>60.6</ele>
        <time>2015-11-11T20:28:37Z</time>
      </trkpt>
      <trkpt lat="48.82646" lon="2.36227">
        <ele>59.8</ele>
        <time>2015-11-11T20:28:41Z</time>
      </trkpt>
      <trkpt lat="48.82642" lon="2.36195">
        <ele>60</ele>
        <time>2015-11-11T20:28:45Z</time>
      </trkpt>
      <trkpt lat="48.82638" lon="2.36165">
        <ele>60</ele>
        <time>2015-11-11T20:28:49Z</time>
      </trkpt>
      <trkpt lat="48.82635" lon="2.36143">
        <ele>60</ele>
        <time>2015-11-11T20:28:52Z</time>
      </trkpt>
      <trkpt lat="48.82635" lon="2.36114">
        <ele>60.4</ele>
        <time>2015-11-11T20:28:56Z</time>
      </trkpt>
      <trkpt lat="48.82632" lon="2.36098">
        <ele>60.6</ele>
        <time>2015-11-11T20:28:58Z</time>
      </trkpt>
      <trkpt lat="48.82629" lon="2.3607">
        <ele>60.4</ele>
        <time>2015-11-11T20:29:02Z</time>
      </trkpt>
      <trkpt lat="48.82626" lon="2.36041">
        <ele>52.4</ele>
        <time>2015-11-11T20:29:07Z</time>
      </trkpt>
      <trkpt lat="48.82624" lon="2.36024">
        <ele>48.6</ele>
        <time>2015-11-11T20:29:10Z</time>
      </trkpt>
      <trkpt lat="48.82623" lon="2.36005">
        <ele>46.2</ele>
        <time>2015-11-11T20:29:13Z</time>
      </trkpt>
      <trkpt lat="48.82626" lon="2.35978">
        <ele>44.4</ele>
        <time>2015-11-11T20:29:18Z</time>
      </trkpt>
      <trkpt lat="48.82625" lon="2.35958">
        <ele>43.6</ele>
        <time>2015-11-11T20:29:21Z</time>
      </trkpt>
      <trkpt lat="48.82622" lon="2.35925">
        <ele>42.4</ele>
        <time>2015-11-11T20:29:26Z</time>
      </trkpt>
      <trkpt lat="48.82624" lon="2.35897">
        <ele>41.2</ele>
        <time>2015-11-11T20:29:31Z</time>
      </trkpt>
      <trkpt lat="48.82624" lon="2.35892">
        <ele>41.4</ele>
        <time>2015-11-11T20:29:32Z</time>
      </trkpt>
      <trkpt lat="48.82624" lon="2.35863">
        <ele>42.4</ele>
        <time>2015-11-11T20:29:37Z</time>
      </trkpt>
      <trkpt lat="48.82624" lon="2.35851">
        <ele>42.4</ele>
        <time>2015-11-11T20:29:39Z</time>
      </trkpt>
      <trkpt lat="48.82625" lon="2.35818">
        <ele>43.6</ele>
        <time>2015-11-11T20:29:44Z</time>
      </trkpt>
      <trkpt lat="48.82625" lon="2.35799">
        <ele>43.8</ele>
        <time>2015-11-11T20:29:47Z</time>
      </trkpt>
      <trkpt lat="48.82625" lon="2.35778">
        <ele>45</ele>
        <time>2015-11-11T20:29:51Z</time>
      </trkpt>
      <trkpt lat="48.82625" lon="2.35773">
        <ele>45</ele>
        <time>2015-11-11T20:29:52Z</time>
      </trkpt>
      <trkpt lat="48.82625" lon="2.35764">
        <ele>45.6</ele>
        <time>2015-11-11T20:29:54Z</time>
      </trkpt>
      <trkpt lat="48.82624" lon="2.35757">
        <ele>46.2</ele>
        <time>2015-11-11T20:29:56Z</time>
      </trkpt>
      <trkpt lat="48.82622" lon="2.35748">
        <ele>47.6</ele>
        <time>2015-11-11T20:29:59Z</time>
      </trkpt>
      <trkpt lat="48.82622" lon="2.35743">
        <ele>48.8</ele>
        <time>2015-11-11T20:30:02Z</time>
      </trkpt>
      <trkpt lat="48.82619" lon="2.35715">
        <ele>55.2</ele>
        <time>2015-11-11T20:30:35Z</time>
      </trkpt>
      <trkpt lat="48.82617" lon="2.35686">
        <ele>55</ele>
        <time>2015-11-11T20:30:40Z</time>
      </trkpt>
      <trkpt lat="48.82613" lon="2.35654">
        <ele>55</ele>
        <time>2015-11-11T20:30:45Z</time>
      </trkpt>
      <trkpt lat="48.82611" lon="2.35625">
        <ele>54.6</ele>
        <time>2015-11-11T20:30:49Z</time>
      </trkpt>
      <trkpt lat="48.8261" lon="2.35596">
        <ele>54.2</ele>
        <time>2015-11-11T20:30:53Z</time>
      </trkpt>
      <trkpt lat="48.82611" lon="2.35565">
        <ele>54.6</ele>
        <time>2015-11-11T20:30:57Z</time>
      </trkpt>
      <trkpt lat="48.8261" lon="2.35529">
        <ele>54.6</ele>
        <time>2015-11-11T20:31:01Z</time>
      </trkpt>
      <trkpt lat="48.82611" lon="2.35501">
        <ele>54.8</ele>
        <time>2015-11-11T20:31:04Z</time>
      </trkpt>
      <trkpt lat="48.82614" lon="2.35473">
        <ele>54.8</ele>
        <time>2015-11-11T20:31:07Z</time>
      </trkpt>
      <trkpt lat="48.82614" lon="2.35455">
        <ele>55.2</ele>
        <time>2015-11-11T20:31:09Z</time>
      </trkpt>
      <trkpt lat="48.82617" lon="2.35426">
        <ele>52.4</ele>
        <time>2015-11-11T20:31:13Z</time>
      </trkpt>
      <trkpt lat="48.8261" lon="2.35386">
        <ele>50.6</ele>
        <time>2015-11-11T20:31:17Z</time>
      </trkpt>
      <trkpt lat="48.82609" lon="2.35353">
        <ele>50.2</ele>
        <time>2015-11-11T20:31:21Z</time>
      </trkpt>
      <trkpt lat="48.82608" lon="2.3532">
        <ele>49.8</ele>
        <time>2015-11-11T20:31:25Z</time>
      </trkpt>
      <trkpt lat="48.82607" lon="2.35286">
        <ele>50</ele>
        <time>2015-11-11T20:31:29Z</time>
      </trkpt>
      <trkpt lat="48.82606" lon="2.35259">
        <ele>50</ele>
        <time>2015-11-11T20:31:32Z</time>
      </trkpt>
      <trkpt lat="48.82606" lon="2.35232">
        <ele>49.8</ele>
        <time>2015-11-11T20:31:35Z</time>
      </trkpt>
      <trkpt lat="48.82605" lon="2.35203">
        <ele>49.4</ele>
        <time>2015-11-11T20:31:38Z</time>
      </trkpt>
      <trkpt lat="48.82602" lon="2.35175">
        <ele>48.6</ele>
        <time>2015-11-11T20:31:41Z</time>
      </trkpt>
      <trkpt lat="48.82601" lon="2.35142">
        <ele>47.8</ele>
        <time>2015-11-11T20:31:45Z</time>
      </trkpt>
      <trkpt lat="48.82601" lon="2.35113">
        <ele>45.8</ele>
        <time>2015-11-11T20:31:49Z</time>
      </trkpt>
      <trkpt lat="48.826" lon="2.35088">
        <ele>44.8</ele>
        <time>2015-11-11T20:31:52Z</time>
      </trkpt>
      <trkpt lat="48.82592" lon="2.35057">
        <ele>43.2</ele>
        <time>2015-11-11T20:31:57Z</time>
      </trkpt>
      <trkpt lat="48.82581" lon="2.35035">
        <ele>42.4</ele>
        <time>2015-11-11T20:32:01Z</time>
      </trkpt>
      <trkpt lat="48.82573" lon="2.35025">
        <ele>42.8</ele>
        <time>2015-11-11T20:32:03Z</time>
      </trkpt>
      <trkpt lat="48.82568" lon="2.3502">
        <ele>43</ele>
        <time>2015-11-11T20:32:04Z</time>
      </trkpt>
      <trkpt lat="48.82547" lon="2.35004">
        <ele>44.4</ele>
        <time>2015-11-11T20:32:08Z</time>
      </trkpt>
      <trkpt lat="48.8253" lon="2.34991">
        <ele>45.6</ele>
        <time>2015-11-11T20:32:11Z</time>
      </trkpt>
      <trkpt lat="48.82514" lon="2.34976">
        <ele>47.2</ele>
        <time>2015-11-11T20:32:14Z</time>
      </trkpt>
      <trkpt lat="48.82508" lon="2.34972">
        <ele>47.8</ele>
        <time>2015-11-11T20:32:15Z</time>
      </trkpt>
      <trkpt lat="48.82492" lon="2.34957">
        <ele>48.8</ele>
        <time>2015-11-11T20:32:18Z</time>
      </trkpt>
      <trkpt lat="48.82475" lon="2.34942">
        <ele>49.2</ele>
        <time>2015-11-11T20:32:21Z</time>
      </trkpt>
      <trkpt lat="48.82458" lon="2.34926">
        <ele>48.4</ele>
        <time>2015-11-11T20:32:24Z</time>
      </trkpt>
      <trkpt lat="48.82442" lon="2.34911">
        <ele>47</ele>
        <time>2015-11-11T20:32:27Z</time>
      </trkpt>
      <trkpt lat="48.82426" lon="2.34896">
        <ele>47.6</ele>
        <time>2015-11-11T20:32:30Z</time>
      </trkpt>
      <trkpt lat="48.82409" lon="2.3488">
        <ele>47.2</ele>
        <time>2015-11-11T20:32:33Z</time>
      </trkpt>
      <trkpt lat="48.82393" lon="2.34862">
        <ele>46.8</ele>
        <time>2015-11-11T20:32:36Z</time>
      </trkpt>
      <trkpt lat="48.82376" lon="2.34844">
        <ele>45.2</ele>
        <time>2015-11-11T20:32:39Z</time>
      </trkpt>
      <trkpt lat="48.82359" lon="2.34826">
        <ele>44.6</ele>
        <time>2015-11-11T20:32:42Z</time>
      </trkpt>
      <trkpt lat="48.82343" lon="2.34808">
        <ele>44.2</ele>
        <time>2015-11-11T20:32:45Z</time>
      </trkpt>
      <trkpt lat="48.82327" lon="2.34793">
        <ele>46.6</ele>
        <time>2015-11-11T20:32:48Z</time>
      </trkpt>
      <trkpt lat="48.82311" lon="2.34778">
        <ele>46.8</ele>
        <time>2015-11-11T20:32:51Z</time>
      </trkpt>
      <trkpt lat="48.82295" lon="2.34761">
        <ele>47.4</ele>
        <time>2015-11-11T20:32:54Z</time>
      </trkpt>
      <trkpt lat="48.82279" lon="2.34744">
        <ele>49.4</ele>
        <time>2015-11-11T20:32:57Z</time>
      </trkpt>
      <trkpt lat="48.82274" lon="2.34738">
        <ele>49.4</ele>
        <time>2015-11-11T20:32:58Z</time>
      </trkpt>
      <trkpt lat="48.8226" lon="2.3472">
        <ele>48.2</ele>
        <time>2015-11-11T20:33:01Z</time>
      </trkpt>
      <trkpt lat="48.82252" lon="2.34709">
        <ele>47.8</ele>
        <time>2015-11-11T20:33:03Z</time>
      </trkpt>
      <trkpt lat="48.82244" lon="2.34681">
        <ele>48</ele>
        <time>2015-11-11T20:33:07Z</time>
      </trkpt>
      <trkpt lat="48.82244" lon="2.34673">
        <ele>47.4</ele>
        <time>2015-11-11T20:33:08Z</time>
      </trkpt>
      <trkpt lat="48.82245" lon="2.34652">
        <ele>46.2</ele>
        <time>2015-11-11T20:33:11Z</time>
      </trkpt>
      <trkpt lat="48.82257" lon="2.34626">
        <ele>46.4</ele>
        <time>2015-11-11T20:33:16Z</time>
      </trkpt>
      <trkpt lat="48.82272" lon="2.34609">
        <ele>44.8</ele>
        <time>2015-11-11T20:33:20Z</time>
      </trkpt>
      <trkpt lat="48.82288" lon="2.34589">
        <ele>44</ele>
        <time>2015-11-11T20:33:24Z</time>
      </trkpt>
      <trkpt lat="48.82296" lon="2.34578">
        <ele>43.8</ele>
        <time>2015-11-11T20:33:26Z</time>
      </trkpt>
      <trkpt lat="48.82311" lon="2.34554">
        <ele>43.8</ele>
        <time>2015-11-11T20:33:30Z</time>
      </trkpt>
      <trkpt lat="48.82325" lon="2.3453">
        <ele>44.2</ele>
        <time>2015-11-11T20:33:34Z</time>
      </trkpt>
      <trkpt lat="48.82344" lon="2.3451">
        <ele>45.6</ele>
        <time>2015-11-11T20:33:38Z</time>
      </trkpt>
      <trkpt lat="48.82361" lon="2.34496">
        <ele>45</ele>
        <time>2015-11-11T20:33:41Z</time>
      </trkpt>
      <trkpt lat="48.82366" lon="2.34491">
        <ele>45.2</ele>
        <time>2015-11-11T20:33:42Z</time>
      </trkpt>
      <trkpt lat="48.82385" lon="2.34468">
        <ele>46</ele>
        <time>2015-11-11T20:33:46Z</time>
      </trkpt>
      <trkpt lat="48.82397" lon="2.34455">
        <ele>46.6</ele>
        <time>2015-11-11T20:33:49Z</time>
      </trkpt>
      <trkpt lat="48.82418" lon="2.3444">
        <ele>45.8</ele>
        <time>2015-11-11T20:33:53Z</time>
      </trkpt>
      <trkpt lat="48.82433" lon="2.34425">
        <ele>45.6</ele>
        <time>2015-11-11T20:33:56Z</time>
      </trkpt>
      <trkpt lat="48.82444" lon="2.34411">
        <ele>45.4</ele>
        <time>2015-11-11T20:33:59Z</time>
      </trkpt>
      <trkpt lat="48.82462" lon="2.3439">
        <ele>45.8</ele>
        <time>2015-11-11T20:34:03Z</time>
      </trkpt>
      <trkpt lat="48.82467" lon="2.34386">
        <ele>45.8</ele>
        <time>2015-11-11T20:34:04Z</time>
      </trkpt>
      <trkpt lat="48.82481" lon="2.34366">
        <ele>46.2</ele>
        <time>2015-11-11T20:34:08Z</time>
      </trkpt>
      <trkpt lat="48.82495" lon="2.34346">
        <ele>46.6</ele>
        <time>2015-11-11T20:34:12Z</time>
      </trkpt>
      <trkpt lat="48.82505" lon="2.34329">
        <ele>46.2</ele>
        <time>2015-11-11T20:34:15Z</time>
      </trkpt>
      <trkpt lat="48.82525" lon="2.34308">
        <ele>45.8</ele>
        <time>2015-11-11T20:34:19Z</time>
      </trkpt>
      <trkpt lat="48.82542" lon="2.34286">
        <ele>46.4</ele>
        <time>2015-11-11T20:34:23Z</time>
      </trkpt>
      <trkpt lat="48.82559" lon="2.34264">
        <ele>47.8</ele>
        <time>2015-11-11T20:34:27Z</time>
      </trkpt>
      <trkpt lat="48.82574" lon="2.3425">
        <ele>48.4</ele>
        <time>2015-11-11T20:34:30Z</time>
      </trkpt>
      <trkpt lat="48.82589" lon="2.34231">
        <ele>47</ele>
        <time>2015-11-11T20:34:33Z</time>
      </trkpt>
      <trkpt lat="48.82601" lon="2.34216">
        <ele>47.8</ele>
        <time>2015-11-11T20:34:36Z</time>
      </trkpt>
      <trkpt lat="48.82616" lon="2.34201">
        <ele>47.8</ele>
        <time>2015-11-11T20:34:40Z</time>
      </trkpt>
      <trkpt lat="48.82629" lon="2.34186">
        <ele>46.6</ele>
        <time>2015-11-11T20:34:45Z</time>
      </trkpt>
      <trkpt lat="48.82641" lon="2.34175">
        <ele>52.2</ele>
        <time>2015-11-11T20:35:16Z</time>
      </trkpt>
      <trkpt lat="48.82649" lon="2.34167">
        <ele>52</ele>
        <time>2015-11-11T20:35:20Z</time>
      </trkpt>
      <trkpt lat="48.82652" lon="2.34137">
        <ele>51.6</ele>
        <time>2015-11-11T20:35:27Z</time>
      </trkpt>
      <trkpt lat="48.82657" lon="2.34109">
        <ele>51.4</ele>
        <time>2015-11-11T20:35:32Z</time>
      </trkpt>
      <trkpt lat="48.82662" lon="2.34082">
        <ele>50.2</ele>
        <time>2015-11-11T20:35:37Z</time>
      </trkpt>
      <trkpt lat="48.82665" lon="2.34053">
        <ele>49.8</ele>
        <time>2015-11-11T20:35:41Z</time>
      </trkpt>
      <trkpt lat="48.82667" lon="2.34023">
        <ele>53.6</ele>
        <time>2015-11-11T20:35:46Z</time>
      </trkpt>
      <trkpt lat="48.8267" lon="2.33993">
        <ele>48.2</ele>
        <time>2015-11-11T20:35:51Z</time>
      </trkpt>
      <trkpt lat="48.82676" lon="2.33965">
        <ele>45</ele>
        <time>2015-11-11T20:35:56Z</time>
      </trkpt>
      <trkpt lat="48.82683" lon="2.33938">
        <ele>42.8</ele>
        <time>2015-11-11T20:36:01Z</time>
      </trkpt>
      <trkpt lat="48.82688" lon="2.33912">
        <ele>42.2</ele>
        <time>2015-11-11T20:36:06Z</time>
      </trkpt>
      <trkpt lat="48.82691" lon="2.3388">
        <ele>40.6</ele>
        <time>2015-11-11T20:36:12Z</time>
      </trkpt>
      <trkpt lat="48.82694" lon="2.3385">
        <ele>38.6</ele>
        <time>2015-11-11T20:36:18Z</time>
      </trkpt>
      <trkpt lat="48.82699" lon="2.33818">
        <ele>38</ele>
        <time>2015-11-11T20:36:24Z</time>
      </trkpt>
      <trkpt lat="48.82703" lon="2.33788">
        <ele>37.2</ele>
        <time>2015-11-11T20:36:30Z</time>
      </trkpt>
      <trkpt lat="48.8271" lon="2.33763">
        <ele>38</ele>
        <time>2015-11-11T20:36:36Z</time>
      </trkpt>
      <trkpt lat="48.82715" lon="2.33735">
        <ele>38.6</ele>
        <time>2015-11-11T20:36:42Z</time>
      </trkpt>
      <trkpt lat="48.82725" lon="2.3371">
        <ele>42</ele>
        <time>2015-11-11T20:36:48Z</time>
      </trkpt>
      <trkpt lat="48.82731" lon="2.33682">
        <ele>44.4</ele>
        <time>2015-11-11T20:36:55Z</time>
      </trkpt>
      <trkpt lat="48.82736" lon="2.33654">
        <ele>45.6</ele>
        <time>2015-11-11T20:37:01Z</time>
      </trkpt>
      <trkpt lat="48.82735" lon="2.33623">
        <ele>44.8</ele>
        <time>2015-11-11T20:37:08Z</time>
      </trkpt>
      <trkpt lat="48.82737" lon="2.33595">
        <ele>44.2</ele>
        <time>2015-11-11T20:37:14Z</time>
      </trkpt>
      <trkpt lat="48.82741" lon="2.33564">
        <ele>44.8</ele>
        <time>2015-11-11T20:37:20Z</time>
      </trkpt>
      <trkpt lat="48.82745" lon="2.33534">
        <ele>43.8</ele>
        <time>2015-11-11T20:37:27Z</time>
      </trkpt>
      <trkpt lat="48.82748" lon="2.33522">
        <ele>39.4</ele>
        <time>2015-11-11T20:37:32Z</time>
      </trkpt>
      <trkpt lat="48.82762" lon="2.33505">
        <ele>40.6</ele>
        <time>2015-11-11T20:37:58Z</time>
      </trkpt>
      <trkpt lat="48.82781" lon="2.33497">
        <ele>41.8</ele>
        <time>2015-11-11T20:38:04Z</time>
      </trkpt>
      <trkpt lat="48.82801" lon="2.33487">
        <ele>44.2</ele>
        <time>2015-11-11T20:38:10Z</time>
      </trkpt>
      <trkpt lat="48.82819" lon="2.33478">
        <ele>46.6</ele>
        <time>2015-11-11T20:38:15Z</time>
      </trkpt>
      <trkpt lat="48.82838" lon="2.33467">
        <ele>50</ele>
        <time>2015-11-11T20:38:20Z</time>
      </trkpt>
      <trkpt lat="48.82856" lon="2.33458">
        <ele>55.8</ele>
        <time>2015-11-11T20:38:25Z</time>
      </trkpt>
      <trkpt lat="48.82875" lon="2.33451">
        <ele>59.4</ele>
        <time>2015-11-11T20:38:29Z</time>
      </trkpt>
      <trkpt lat="48.82893" lon="2.3344">
        <ele>66.2</ele>
        <time>2015-11-11T20:38:33Z</time>
      </trkpt>
      <trkpt lat="48.8291" lon="2.3343">
        <ele>71</ele>
        <time>2015-11-11T20:38:37Z</time>
      </trkpt>
      <trkpt lat="48.82928" lon="2.33422">
        <ele>73.4</ele>
        <time>2015-11-11T20:38:41Z</time>
      </trkpt>
      <trkpt lat="48.82946" lon="2.33415">
        <ele>73.6</ele>
        <time>2015-11-11T20:38:45Z</time>
      </trkpt>
      <trkpt lat="48.82965" lon="2.33406">
        <ele>74.8</ele>
        <time>2015-11-11T20:38:49Z</time>
      </trkpt>
      <trkpt lat="48.82969" lon="2.33405">
        <ele>75.4</ele>
        <time>2015-11-11T20:38:50Z</time>
      </trkpt>
      <trkpt lat="48.82983" lon="2.334">
        <ele>74.4</ele>
        <time>2015-11-11T20:38:53Z</time>
      </trkpt>
      <trkpt lat="48.83003" lon="2.33396">
        <ele>73.6</ele>
        <time>2015-11-11T20:38:57Z</time>
      </trkpt>
      <trkpt lat="48.83022" lon="2.33393">
        <ele>72</ele>
        <time>2015-11-11T20:39:01Z</time>
      </trkpt>
      <trkpt lat="48.83038" lon="2.3339">
        <ele>69.6</ele>
        <time>2015-11-11T20:39:04Z</time>
      </trkpt>
      <trkpt lat="48.83057" lon="2.33384">
        <ele>68.6</ele>
        <time>2015-11-11T20:39:08Z</time>
      </trkpt>
      <trkpt lat="48.83069" lon="2.33379">
        <ele>67.6</ele>
        <time>2015-11-11T20:39:11Z</time>
      </trkpt>
      <trkpt lat="48.83083" lon="2.33375">
        <ele>66</ele>
        <time>2015-11-11T20:39:14Z</time>
      </trkpt>
      <trkpt lat="48.83095" lon="2.33372">
        <ele>62.8</ele>
        <time>2015-11-11T20:39:17Z</time>
      </trkpt>
      <trkpt lat="48.83107" lon="2.33365">
        <ele>61</ele>
        <time>2015-11-11T20:39:21Z</time>
      </trkpt>
      <trkpt lat="48.83127" lon="2.33355">
        <ele>62.2</ele>
        <time>2015-11-11T20:39:26Z</time>
      </trkpt>
      <trkpt lat="48.83146" lon="2.33343">
        <ele>67.2</ele>
        <time>2015-11-11T20:39:31Z</time>
      </trkpt>
      <trkpt lat="48.8315" lon="2.33341">
        <ele>68.2</ele>
        <time>2015-11-11T20:39:32Z</time>
      </trkpt>
      <trkpt lat="48.83162" lon="2.33337">
        <ele>69.4</ele>
        <time>2015-11-11T20:39:35Z</time>
      </trkpt>
      <trkpt lat="48.8318" lon="2.33331">
        <ele>71.4</ele>
        <time>2015-11-11T20:39:39Z</time>
      </trkpt>
      <trkpt lat="48.832" lon="2.33327">
        <ele>76.2</ele>
        <time>2015-11-11T20:39:43Z</time>
      </trkpt>
      <trkpt lat="48.83222" lon="2.33323">
        <ele>76.6</ele>
        <time>2015-11-11T20:39:47Z</time>
      </trkpt>
      <trkpt lat="48.83241" lon="2.33318">
        <ele>69.6</ele>
        <time>2015-11-11T20:39:51Z</time>
      </trkpt>
      <trkpt lat="48.83262" lon="2.33311">
        <ele>68.6</ele>
        <time>2015-11-11T20:39:55Z</time>
      </trkpt>
      <trkpt lat="48.8328" lon="2.33305">
        <ele>66.4</ele>
        <time>2015-11-11T20:39:59Z</time>
      </trkpt>
      <trkpt lat="48.83297" lon="2.33301">
        <ele>67.4</ele>
        <time>2015-11-11T20:40:04Z</time>
      </trkpt>
      <trkpt lat="48.83308" lon="2.33307">
        <ele>68.6</ele>
        <time>2015-11-11T20:40:10Z</time>
      </trkpt>
      <trkpt lat="48.83309" lon="2.33308">
        <ele>68.8</ele>
        <time>2015-11-11T20:40:11Z</time>
      </trkpt>
      <trkpt lat="48.83312" lon="2.33312">
        <ele>69.2</ele>
        <time>2015-11-11T20:40:13Z</time>
      </trkpt>
      <trkpt lat="48.83318" lon="2.33319">
        <ele>71</ele>
        <time>2015-11-11T20:40:20Z</time>
      </trkpt>
      <trkpt lat="48.83333" lon="2.33328">
        <ele>69.2</ele>
        <time>2015-11-11T20:40:43Z</time>
      </trkpt>
      <trkpt lat="48.83352" lon="2.33341">
        <ele>67.8</ele>
        <time>2015-11-11T20:40:50Z</time>
      </trkpt>
      <trkpt lat="48.83369" lon="2.33353">
        <ele>66</ele>
        <time>2015-11-11T20:40:57Z</time>
      </trkpt>
      <trkpt lat="48.83388" lon="2.33354">
        <ele>65.2</ele>
        <time>2015-11-11T20:41:03Z</time>
      </trkpt>
      <trkpt lat="48.83408" lon="2.33347">
        <ele>64.4</ele>
        <time>2015-11-11T20:41:09Z</time>
      </trkpt>
      <trkpt lat="48.83422" lon="2.33327">
        <ele>65.2</ele>
        <time>2015-11-11T20:41:15Z</time>
      </trkpt>
      <trkpt lat="48.8343" lon="2.33302">
        <ele>68.2</ele>
        <time>2015-11-11T20:41:24Z</time>
      </trkpt>
      <trkpt lat="48.83437" lon="2.33295">
        <ele>69.8</ele>
        <time>2015-11-11T20:41:28Z</time>
      </trkpt>
      <trkpt lat="48.83456" lon="2.33287">
        <ele>71.4</ele>
        <time>2015-11-11T20:41:37Z</time>
      </trkpt>
      <trkpt lat="48.83469" lon="2.33267">
        <ele>69.8</ele>
        <time>2015-11-11T20:41:47Z</time>
      </trkpt>
      <trkpt lat="48.83483" lon="2.33246">
        <ele>68</ele>
        <time>2015-11-11T20:41:54Z</time>
      </trkpt>
      <trkpt lat="48.83503" lon="2.33236">
        <ele>64.6</ele>
        <time>2015-11-11T20:42:00Z</time>
      </trkpt>
      <trkpt lat="48.83513" lon="2.33228">
        <ele>64.2</ele>
        <time>2015-11-11T20:42:04Z</time>
      </trkpt>
      <trkpt lat="48.83533" lon="2.33218">
        <ele>66</ele>
        <time>2015-11-11T20:42:09Z</time>
      </trkpt>
      <trkpt lat="48.83545" lon="2.33209">
        <ele>67.6</ele>
        <time>2015-11-11T20:42:12Z</time>
      </trkpt>
      <trkpt lat="48.83563" lon="2.33201">
        <ele>69</ele>
        <time>2015-11-11T20:42:16Z</time>
      </trkpt>
      <trkpt lat="48.83581" lon="2.3319">
        <ele>70.4</ele>
        <time>2015-11-11T20:42:21Z</time>
      </trkpt>
      <trkpt lat="48.83583" lon="2.33186">
        <ele>70</ele>
        <time>2015-11-11T20:42:22Z</time>
      </trkpt>
      <trkpt lat="48.836" lon="2.33173">
        <ele>71.2</ele>
        <time>2015-11-11T20:42:28Z</time>
      </trkpt>
      <trkpt lat="48.83622" lon="2.33168">
        <ele>69.4</ele>
        <time>2015-11-11T20:42:33Z</time>
      </trkpt>
      <trkpt lat="48.83641" lon="2.33161">
        <ele>69</ele>
        <time>2015-11-11T20:42:37Z</time>
      </trkpt>
      <trkpt lat="48.8366" lon="2.33154">
        <ele>70.2</ele>
        <time>2015-11-11T20:42:41Z</time>
      </trkpt>
      <trkpt lat="48.8368" lon="2.33147">
        <ele>69.6</ele>
        <time>2015-11-11T20:42:45Z</time>
      </trkpt>
      <trkpt lat="48.837" lon="2.3314">
        <ele>69.6</ele>
        <time>2015-11-11T20:42:49Z</time>
      </trkpt>
      <trkpt lat="48.8372" lon="2.33133">
        <ele>69.4</ele>
        <time>2015-11-11T20:42:53Z</time>
      </trkpt>
      <trkpt lat="48.83741" lon="2.33126">
        <ele>68.2</ele>
        <time>2015-11-11T20:42:57Z</time>
      </trkpt>
      <trkpt lat="48.83761" lon="2.33119">
        <ele>68.6</ele>
        <time>2015-11-11T20:43:01Z</time>
      </trkpt>
      <trkpt lat="48.83782" lon="2.33113">
        <ele>67.8</ele>
        <time>2015-11-11T20:43:05Z</time>
      </trkpt>
      <trkpt lat="48.83803" lon="2.33106">
        <ele>67</ele>
        <time>2015-11-11T20:43:09Z</time>
      </trkpt>
      <trkpt lat="48.83825" lon="2.33098">
        <ele>65</ele>
        <time>2015-11-11T20:43:13Z</time>
      </trkpt>
      <trkpt lat="48.83845" lon="2.33089">
        <ele>67.4</ele>
        <time>2015-11-11T20:43:17Z</time>
      </trkpt>
      <trkpt lat="48.83867" lon="2.3308">
        <ele>67.2</ele>
        <time>2015-11-11T20:43:21Z</time>
      </trkpt>
      <trkpt lat="48.83889" lon="2.33072">
        <ele>66.6</ele>
        <time>2015-11-11T20:43:25Z</time>
      </trkpt>
      <trkpt lat="48.83911" lon="2.33062">
        <ele>67.8</ele>
        <time>2015-11-11T20:43:29Z</time>
      </trkpt>
      <trkpt lat="48.8393" lon="2.33055">
        <ele>66</ele>
        <time>2015-11-11T20:43:33Z</time>
      </trkpt>
      <trkpt lat="48.83948" lon="2.3305">
        <ele>65</ele>
        <time>2015-11-11T20:43:40Z</time>
      </trkpt>
      <trkpt lat="48.83951" lon="2.3305">
        <ele>65</ele>
        <time>2015-11-11T20:43:42Z</time>
      </trkpt>
      <trkpt lat="48.83956" lon="2.33053">
        <ele>66.2</ele>
        <time>2015-11-11T20:43:48Z</time>
      </trkpt>
      <trkpt lat="48.83973" lon="2.33035">
        <ele>71</ele>
        <time>2015-11-11T20:44:04Z</time>
      </trkpt>
      <trkpt lat="48.83991" lon="2.33022">
        <ele>77</ele>
        <time>2015-11-11T20:44:11Z</time>
      </trkpt>
      <trkpt lat="48.84009" lon="2.33015">
        <ele>80.8</ele>
        <time>2015-11-11T20:44:17Z</time>
      </trkpt>
      <trkpt lat="48.84028" lon="2.33006">
        <ele>83.8</ele>
        <time>2015-11-11T20:44:23Z</time>
      </trkpt>
      <trkpt lat="48.84048" lon="2.32996">
        <ele>86</ele>
        <time>2015-11-11T20:44:28Z</time>
      </trkpt>
      <trkpt lat="48.84066" lon="2.32992">
        <ele>84.4</ele>
        <time>2015-11-11T20:44:32Z</time>
      </trkpt>
      <trkpt lat="48.84084" lon="2.32986">
        <ele>83.6</ele>
        <time>2015-11-11T20:44:36Z</time>
      </trkpt>
      <trkpt lat="48.84102" lon="2.32979">
        <ele>83.4</ele>
        <time>2015-11-11T20:44:40Z</time>
      </trkpt>
      <trkpt lat="48.84124" lon="2.32972">
        <ele>83</ele>
        <time>2015-11-11T20:44:45Z</time>
      </trkpt>
      <trkpt lat="48.84145" lon="2.32966">
        <ele>82.4</ele>
        <time>2015-11-11T20:44:50Z</time>
      </trkpt>
      <trkpt lat="48.8416" lon="2.3296">
        <ele>81</ele>
        <time>2015-11-11T20:44:54Z</time>
      </trkpt>
      <trkpt lat="48.84166" lon="2.3296">
        <ele>81.2</ele>
        <time>2015-11-11T20:44:56Z</time>
      </trkpt>
      <trkpt lat="48.84173" lon="2.32964">
        <ele>77</ele>
        <time>2015-11-11T20:45:00Z</time>
      </trkpt>
      <trkpt lat="48.84185" lon="2.32978">
        <ele>73.8</ele>
        <time>2015-11-11T20:45:06Z</time>
      </trkpt>
      <trkpt lat="48.84197" lon="2.32999">
        <ele>68</ele>
        <time>2015-11-11T20:45:12Z</time>
      </trkpt>
      <trkpt lat="48.84204" lon="2.33024">
        <ele>64.6</ele>
        <time>2015-11-11T20:45:18Z</time>
      </trkpt>
      <trkpt lat="48.84214" lon="2.33047">
        <ele>61.6</ele>
        <time>2015-11-11T20:45:23Z</time>
      </trkpt>
      <trkpt lat="48.84225" lon="2.3307">
        <ele>58.4</ele>
        <time>2015-11-11T20:45:28Z</time>
      </trkpt>
      <trkpt lat="48.84237" lon="2.33097">
        <ele>55</ele>
        <time>2015-11-11T20:45:33Z</time>
      </trkpt>
      <trkpt lat="48.84247" lon="2.33123">
        <ele>50.6</ele>
        <time>2015-11-11T20:45:38Z</time>
      </trkpt>
      <trkpt lat="48.84256" lon="2.33148">
        <ele>46.8</ele>
        <time>2015-11-11T20:45:43Z</time>
      </trkpt>
      <trkpt lat="48.84255" lon="2.33166">
        <ele>44.4</ele>
        <time>2015-11-11T20:45:48Z</time>
      </trkpt>
      <trkpt lat="48.8424" lon="2.33186">
        <ele>43.2</ele>
        <time>2015-11-11T20:45:55Z</time>
      </trkpt>
      <trkpt lat="48.84223" lon="2.332">
        <ele>41.6</ele>
        <time>2015-11-11T20:46:02Z</time>
      </trkpt>
      <trkpt lat="48.84207" lon="2.33213">
        <ele>39.8</ele>
        <time>2015-11-11T20:46:07Z</time>
      </trkpt>
      <trkpt lat="48.84188" lon="2.33231">
        <ele>39.6</ele>
        <time>2015-11-11T20:46:12Z</time>
      </trkpt>
      <trkpt lat="48.84171" lon="2.33249">
        <ele>38</ele>
        <time>2015-11-11T20:46:17Z</time>
      </trkpt>
      <trkpt lat="48.84158" lon="2.33271">
        <ele>36</ele>
        <time>2015-11-11T20:46:23Z</time>
      </trkpt>
      <trkpt lat="48.8415" lon="2.33299">
        <ele>33.4</ele>
        <time>2015-11-11T20:46:28Z</time>
      </trkpt>
      <trkpt lat="48.84158" lon="2.33326">
        <ele>32.2</ele>
        <time>2015-11-11T20:46:34Z</time>
      </trkpt>
      <trkpt lat="48.84167" lon="2.3335">
        <ele>31.6</ele>
        <time>2015-11-11T20:46:40Z</time>
      </trkpt>
      <trkpt lat="48.8418" lon="2.33371">
        <ele>31</ele>
        <time>2015-11-11T20:46:46Z</time>
      </trkpt>
      <trkpt lat="48.84193" lon="2.33393">
        <ele>30.2</ele>
        <time>2015-11-11T20:46:51Z</time>
      </trkpt>
      <trkpt lat="48.84207" lon="2.33415">
        <ele>28.6</ele>
        <time>2015-11-11T20:46:56Z</time>
      </trkpt>
      <trkpt lat="48.84219" lon="2.33438">
        <ele>27.8</ele>
        <time>2015-11-11T20:47:00Z</time>
      </trkpt>
      <trkpt lat="48.84233" lon="2.33461">
        <ele>28</ele>
        <time>2015-11-11T20:47:06Z</time>
      </trkpt>
      <trkpt lat="48.8424" lon="2.33475">
        <ele>30</ele>
        <time>2015-11-11T20:47:11Z</time>
      </trkpt>
      <trkpt lat="48.84256" lon="2.33461">
        <ele>33.8</ele>
        <time>2015-11-11T20:47:23Z</time>
      </trkpt>
      <trkpt lat="48.84258" lon="2.33455">
        <ele>34</ele>
        <time>2015-11-11T20:47:25Z</time>
      </trkpt>
      <trkpt lat="48.84275" lon="2.3344">
        <ele>34.4</ele>
        <time>2015-11-11T20:47:30Z</time>
      </trkpt>
      <trkpt lat="48.84286" lon="2.3343">
        <ele>34.6</ele>
        <time>2015-11-11T20:47:33Z</time>
      </trkpt>
      <trkpt lat="48.84293" lon="2.33423">
        <ele>34.2</ele>
        <time>2015-11-11T20:47:35Z</time>
      </trkpt>
      <trkpt lat="48.8431" lon="2.33402">
        <ele>34.2</ele>
        <time>2015-11-11T20:47:40Z</time>
      </trkpt>
      <trkpt lat="48.84327" lon="2.3338">
        <ele>33.2</ele>
        <time>2015-11-11T20:47:45Z</time>
      </trkpt>
      <trkpt lat="48.8434" lon="2.33351">
        <ele>33</ele>
        <time>2015-11-11T20:47:50Z</time>
      </trkpt>
      <trkpt lat="48.84358" lon="2.33331">
        <ele>32</ele>
        <time>2015-11-11T20:47:55Z</time>
      </trkpt>
      <trkpt lat="48.84376" lon="2.33315">
        <ele>30</ele>
        <time>2015-11-11T20:48:00Z</time>
      </trkpt>
      <trkpt lat="48.84394" lon="2.333">
        <ele>30.2</ele>
        <time>2015-11-11T20:48:04Z</time>
      </trkpt>
      <trkpt lat="48.84424" lon="2.33284">
        <ele>33</ele>
        <time>2015-11-11T20:48:09Z</time>
      </trkpt>
      <trkpt lat="48.8444" lon="2.33267">
        <ele>33.4</ele>
        <time>2015-11-11T20:48:13Z</time>
      </trkpt>
      <trkpt lat="48.84454" lon="2.33245">
        <ele>32.8</ele>
        <time>2015-11-11T20:48:18Z</time>
      </trkpt>
      <trkpt lat="48.84459" lon="2.33239">
        <ele>32.2</ele>
        <time>2015-11-11T20:48:20Z</time>
      </trkpt>
      <trkpt lat="48.8447" lon="2.3323">
        <ele>31.4</ele>
        <time>2015-11-11T20:48:23Z</time>
      </trkpt>
      <trkpt lat="48.84491" lon="2.33226">
        <ele>35.4</ele>
        <time>2015-11-11T20:48:26Z</time>
      </trkpt>
      <trkpt lat="48.84501" lon="2.33225">
        <ele>37.4</ele>
        <time>2015-11-11T20:48:28Z</time>
      </trkpt>
      <trkpt lat="48.84521" lon="2.33224">
        <ele>40.8</ele>
        <time>2015-11-11T20:48:32Z</time>
      </trkpt>
      <trkpt lat="48.84535" lon="2.33225">
        <ele>43</ele>
        <time>2015-11-11T20:48:35Z</time>
      </trkpt>
      <trkpt lat="48.84558" lon="2.33228">
        <ele>45</ele>
        <time>2015-11-11T20:48:39Z</time>
      </trkpt>
      <trkpt lat="48.84581" lon="2.3323">
        <ele>46.4</ele>
        <time>2015-11-11T20:48:43Z</time>
      </trkpt>
      <trkpt lat="48.84604" lon="2.33234">
        <ele>47.6</ele>
        <time>2015-11-11T20:48:47Z</time>
      </trkpt>
      <trkpt lat="48.84627" lon="2.33238">
        <ele>48.8</ele>
        <time>2015-11-11T20:48:51Z</time>
      </trkpt>
      <trkpt lat="48.84651" lon="2.33241">
        <ele>47</ele>
        <time>2015-11-11T20:48:55Z</time>
      </trkpt>
      <trkpt lat="48.84674" lon="2.33238">
        <ele>43.6</ele>
        <time>2015-11-11T20:48:59Z</time>
      </trkpt>
      <trkpt lat="48.84697" lon="2.33236">
        <ele>40.8</ele>
        <time>2015-11-11T20:49:03Z</time>
      </trkpt>
      <trkpt lat="48.84717" lon="2.33238">
        <ele>40</ele>
        <time>2015-11-11T20:49:07Z</time>
      </trkpt>
      <trkpt lat="48.84737" lon="2.33239">
        <ele>40.8</ele>
        <time>2015-11-11T20:49:11Z</time>
      </trkpt>
      <trkpt lat="48.84747" lon="2.3324">
        <ele>40.8</ele>
        <time>2015-11-11T20:49:13Z</time>
      </trkpt>
      <trkpt lat="48.84767" lon="2.33241">
        <ele>42</ele>
        <time>2015-11-11T20:49:17Z</time>
      </trkpt>
      <trkpt lat="48.84786" lon="2.33242">
        <ele>43.4</ele>
        <time>2015-11-11T20:49:21Z</time>
      </trkpt>
      <trkpt lat="48.84806" lon="2.3324">
        <ele>44</ele>
        <time>2015-11-11T20:49:25Z</time>
      </trkpt>
      <trkpt lat="48.84826" lon="2.3324">
        <ele>44.2</ele>
        <time>2015-11-11T20:49:29Z</time>
      </trkpt>
      <trkpt lat="48.84843" lon="2.33242">
        <ele>45.2</ele>
        <time>2015-11-11T20:49:33Z</time>
      </trkpt>
      <trkpt lat="48.84855" lon="2.33248">
        <ele>42.6</ele>
        <time>2015-11-11T20:49:36Z</time>
      </trkpt>
      <trkpt lat="48.84866" lon="2.33262">
        <ele>41.2</ele>
        <time>2015-11-11T20:49:40Z</time>
      </trkpt>
      <trkpt lat="48.84878" lon="2.33267">
        <ele>39.4</ele>
        <time>2015-11-11T20:49:44Z</time>
      </trkpt>
      <trkpt lat="48.84898" lon="2.3327">
        <ele>39.4</ele>
        <time>2015-11-11T20:49:49Z</time>
      </trkpt>
      <trkpt lat="48.84916" lon="2.33269">
        <ele>40.8</ele>
        <time>2015-11-11T20:49:53Z</time>
      </trkpt>
      <trkpt lat="48.84939" lon="2.33266">
        <ele>42</ele>
        <time>2015-11-11T20:49:57Z</time>
      </trkpt>
      <trkpt lat="48.84946" lon="2.33264">
        <ele>41.2</ele>
        <time>2015-11-11T20:49:58Z</time>
      </trkpt>
      <trkpt lat="48.84969" lon="2.33263">
        <ele>42.8</ele>
        <time>2015-11-11T20:50:02Z</time>
      </trkpt>
      <trkpt lat="48.84991" lon="2.33263">
        <ele>42</ele>
        <time>2015-11-11T20:50:06Z</time>
      </trkpt>
      <trkpt lat="48.85014" lon="2.3326">
        <ele>40.8</ele>
        <time>2015-11-11T20:50:10Z</time>
      </trkpt>
      <trkpt lat="48.85024" lon="2.33261">
        <ele>40.4</ele>
        <time>2015-11-11T20:50:12Z</time>
      </trkpt>
      <trkpt lat="48.85045" lon="2.33268">
        <ele>39.2</ele>
        <time>2015-11-11T20:50:16Z</time>
      </trkpt>
      <trkpt lat="48.85065" lon="2.33275">
        <ele>37.4</ele>
        <time>2015-11-11T20:50:20Z</time>
      </trkpt>
      <trkpt lat="48.85085" lon="2.33281">
        <ele>37.4</ele>
        <time>2015-11-11T20:50:24Z</time>
      </trkpt>
      <trkpt lat="48.85104" lon="2.33286">
        <ele>37</ele>
        <time>2015-11-11T20:50:28Z</time>
      </trkpt>
      <trkpt lat="48.85123" lon="2.33284">
        <ele>35.2</ele>
        <time>2015-11-11T20:50:32Z</time>
      </trkpt>
      <trkpt lat="48.85134" lon="2.33262">
        <ele>33.6</ele>
        <time>2015-11-11T20:50:37Z</time>
      </trkpt>
      <trkpt lat="48.85139" lon="2.33243">
        <ele>30.2</ele>
        <time>2015-11-11T20:50:40Z</time>
      </trkpt>
      <trkpt lat="48.85143" lon="2.33218">
        <ele>25.8</ele>
        <time>2015-11-11T20:50:44Z</time>
      </trkpt>
      <trkpt lat="48.85147" lon="2.33192">
        <ele>24.2</ele>
        <time>2015-11-11T20:50:48Z</time>
      </trkpt>
      <trkpt lat="48.85154" lon="2.33161">
        <ele>20.2</ele>
        <time>2015-11-11T20:50:53Z</time>
      </trkpt>
      <trkpt lat="48.85161" lon="2.33137">
        <ele>17.8</ele>
        <time>2015-11-11T20:50:57Z</time>
      </trkpt>
      <trkpt lat="48.85172" lon="2.33113">
        <ele>16.8</ele>
        <time>2015-11-11T20:51:01Z</time>
      </trkpt>
      <trkpt lat="48.85183" lon="2.33088">
        <ele>14.6</ele>
        <time>2015-11-11T20:51:05Z</time>
      </trkpt>
      <trkpt lat="48.85192" lon="2.33063">
        <ele>13</ele>
        <time>2015-11-11T20:51:09Z</time>
      </trkpt>
      <trkpt lat="48.85199" lon="2.33038">
        <ele>11.6</ele>
        <time>2015-11-11T20:51:13Z</time>
      </trkpt>
      <trkpt lat="48.85207" lon="2.33012">
        <ele>10.2</ele>
        <time>2015-11-11T20:51:18Z</time>
      </trkpt>
      <trkpt lat="48.85211" lon="2.33002">
        <ele>9.8</ele>
        <time>2015-11-11T20:51:20Z</time>
      </trkpt>
      <trkpt lat="48.85213" lon="2.3299">
        <ele>9.8</ele>
        <time>2015-11-11T20:51:22Z</time>
      </trkpt>
      <trkpt lat="48.85213" lon="2.32962">
        <ele>10.4</ele>
        <time>2015-11-11T20:51:26Z</time>
      </trkpt>
      <trkpt lat="48.85213" lon="2.32954">
        <ele>10.2</ele>
        <time>2015-11-11T20:51:27Z</time>
      </trkpt>
      <trkpt lat="48.85209" lon="2.32926">
        <ele>10</ele>
        <time>2015-11-11T20:51:31Z</time>
      </trkpt>
      <trkpt lat="48.85208" lon="2.32919">
        <ele>9.8</ele>
        <time>2015-11-11T20:51:32Z</time>
      </trkpt>
      <trkpt lat="48.85204" lon="2.32905">
        <ele>10.4</ele>
        <time>2015-11-11T20:51:34Z</time>
      </trkpt>
      <trkpt lat="48.85198" lon="2.32877">
        <ele>12.8</ele>
        <time>2015-11-11T20:51:38Z</time>
      </trkpt>
      <trkpt lat="48.85196" lon="2.3287">
        <ele>13.2</ele>
        <time>2015-11-11T20:51:39Z</time>
      </trkpt>
      <trkpt lat="48.8519" lon="2.32844">
        <ele>17.2</ele>
        <time>2015-11-11T20:51:43Z</time>
      </trkpt>
      <trkpt lat="48.85182" lon="2.32818">
        <ele>20.8</ele>
        <time>2015-11-11T20:51:47Z</time>
      </trkpt>
      <trkpt lat="48.85177" lon="2.32798">
        <ele>23</ele>
        <time>2015-11-11T20:51:50Z</time>
      </trkpt>
      <trkpt lat="48.85172" lon="2.3277">
        <ele>25.6</ele>
        <time>2015-11-11T20:51:54Z</time>
      </trkpt>
      <trkpt lat="48.8517" lon="2.32756">
        <ele>26.8</ele>
        <time>2015-11-11T20:51:56Z</time>
      </trkpt>
      <trkpt lat="48.8517" lon="2.32728">
        <ele>29</ele>
        <time>2015-11-11T20:52:00Z</time>
      </trkpt>
      <trkpt lat="48.85172" lon="2.32703">
        <ele>29.6</ele>
        <time>2015-11-11T20:52:04Z</time>
      </trkpt>
      <trkpt lat="48.85172" lon="2.32672">
        <ele>31.6</ele>
        <time>2015-11-11T20:52:09Z</time>
      </trkpt>
      <trkpt lat="48.85173" lon="2.32666">
        <ele>30.8</ele>
        <time>2015-11-11T20:52:10Z</time>
      </trkpt>
      <trkpt lat="48.85174" lon="2.32643">
        <ele>31.8</ele>
        <time>2015-11-11T20:52:13Z</time>
      </trkpt>
      <trkpt lat="48.85174" lon="2.32612">
        <ele>32.6</ele>
        <time>2015-11-11T20:52:17Z</time>
      </trkpt>
      <trkpt lat="48.85174" lon="2.32605">
        <ele>32.6</ele>
        <time>2015-11-11T20:52:18Z</time>
      </trkpt>
      <trkpt lat="48.85174" lon="2.32577">
        <ele>32</ele>
        <time>2015-11-11T20:52:22Z</time>
      </trkpt>
      <trkpt lat="48.85174" lon="2.32558">
        <ele>31.2</ele>
        <time>2015-11-11T20:52:25Z</time>
      </trkpt>
      <trkpt lat="48.85173" lon="2.3253">
        <ele>31.2</ele>
        <time>2015-11-11T20:52:29Z</time>
      </trkpt>
      <trkpt lat="48.85173" lon="2.32502">
        <ele>31.8</ele>
        <time>2015-11-11T20:52:33Z</time>
      </trkpt>
      <trkpt lat="48.8517" lon="2.32468">
        <ele>32.8</ele>
        <time>2015-11-11T20:52:38Z</time>
      </trkpt>
      <trkpt lat="48.85169" lon="2.32454">
        <ele>33</ele>
        <time>2015-11-11T20:52:40Z</time>
      </trkpt>
      <trkpt lat="48.85166" lon="2.32425">
        <ele>33.8</ele>
        <time>2015-11-11T20:52:44Z</time>
      </trkpt>
      <trkpt lat="48.85163" lon="2.32397">
        <ele>34.2</ele>
        <time>2015-11-11T20:52:48Z</time>
      </trkpt>
      <trkpt lat="48.85163" lon="2.32391">
        <ele>34.4</ele>
        <time>2015-11-11T20:52:49Z</time>
      </trkpt>
      <trkpt lat="48.85167" lon="2.32364">
        <ele>35</ele>
        <time>2015-11-11T20:52:55Z</time>
      </trkpt>
      <trkpt lat="48.85168" lon="2.32359">
        <ele>34.6</ele>
        <time>2015-11-11T20:52:56Z</time>
      </trkpt>
      <trkpt lat="48.85173" lon="2.3233">
        <ele>32.6</ele>
        <time>2015-11-11T20:53:01Z</time>
      </trkpt>
      <trkpt lat="48.85175" lon="2.323">
        <ele>29.8</ele>
        <time>2015-11-11T20:53:05Z</time>
      </trkpt>
      <trkpt lat="48.85174" lon="2.32268">
        <ele>29</ele>
        <time>2015-11-11T20:53:09Z</time>
      </trkpt>
      <trkpt lat="48.85174" lon="2.32233">
        <ele>27.8</ele>
        <time>2015-11-11T20:53:13Z</time>
      </trkpt>
      <trkpt lat="48.85173" lon="2.32216">
        <ele>27.2</ele>
        <time>2015-11-11T20:53:15Z</time>
      </trkpt>
      <trkpt lat="48.8517" lon="2.32184">
        <ele>27.2</ele>
        <time>2015-11-11T20:53:19Z</time>
      </trkpt>
      <trkpt lat="48.8517" lon="2.32151">
        <ele>27.2</ele>
        <time>2015-11-11T20:53:23Z</time>
      </trkpt>
      <trkpt lat="48.85171" lon="2.32115">
        <ele>27.6</ele>
        <time>2015-11-11T20:53:27Z</time>
      </trkpt>
      <trkpt lat="48.85171" lon="2.32088">
        <ele>27.4</ele>
        <time>2015-11-11T20:53:30Z</time>
      </trkpt>
      <trkpt lat="48.85172" lon="2.32055">
        <ele>26.6</ele>
        <time>2015-11-11T20:53:34Z</time>
      </trkpt>
      <trkpt lat="48.85171" lon="2.32024">
        <ele>26.4</ele>
        <time>2015-11-11T20:53:38Z</time>
      </trkpt>
      <trkpt lat="48.85171" lon="2.3199">
        <ele>27</ele>
        <time>2015-11-11T20:53:42Z</time>
      </trkpt>
      <trkpt lat="48.8517" lon="2.31958">
        <ele>27.2</ele>
        <time>2015-11-11T20:53:46Z</time>
      </trkpt>
      <trkpt lat="48.85172" lon="2.31934">
        <ele>27.6</ele>
        <time>2015-11-11T20:53:49Z</time>
      </trkpt>
      <trkpt lat="48.85171" lon="2.31909">
        <ele>27.8</ele>
        <time>2015-11-11T20:53:53Z</time>
      </trkpt>
      <trkpt lat="48.85178" lon="2.31884">
        <ele>27.2</ele>
        <time>2015-11-11T20:53:57Z</time>
      </trkpt>
      <trkpt lat="48.85184" lon="2.31857">
        <ele>26</ele>
        <time>2015-11-11T20:54:01Z</time>
      </trkpt>
      <trkpt lat="48.85186" lon="2.31842">
        <ele>25.4</ele>
        <time>2015-11-11T20:54:03Z</time>
      </trkpt>
      <trkpt lat="48.85189" lon="2.31812">
        <ele>24.2</ele>
        <time>2015-11-11T20:54:07Z</time>
      </trkpt>
      <trkpt lat="48.85192" lon="2.31783">
        <ele>23.2</ele>
        <time>2015-11-11T20:54:11Z</time>
      </trkpt>
      <trkpt lat="48.85196" lon="2.31756">
        <ele>21.8</ele>
        <time>2015-11-11T20:54:15Z</time>
      </trkpt>
      <trkpt lat="48.85197" lon="2.31749">
        <ele>21.4</ele>
        <time>2015-11-11T20:54:16Z</time>
      </trkpt>
      <trkpt lat="48.85197" lon="2.31721">
        <ele>21.4</ele>
        <time>2015-11-11T20:54:20Z</time>
      </trkpt>
      <trkpt lat="48.85197" lon="2.31699">
        <ele>21</ele>
        <time>2015-11-11T20:54:23Z</time>
      </trkpt>
      <trkpt lat="48.85196" lon="2.31671">
        <ele>20.8</ele>
        <time>2015-11-11T20:54:27Z</time>
      </trkpt>
      <trkpt lat="48.85193" lon="2.31651">
        <ele>20.4</ele>
        <time>2015-11-11T20:54:30Z</time>
      </trkpt>
      <trkpt lat="48.85192" lon="2.31619">
        <ele>19.8</ele>
        <time>2015-11-11T20:54:34Z</time>
      </trkpt>
      <trkpt lat="48.85193" lon="2.31596">
        <ele>20.2</ele>
        <time>2015-11-11T20:54:37Z</time>
      </trkpt>
      <trkpt lat="48.85195" lon="2.3158">
        <ele>19.8</ele>
        <time>2015-11-11T20:54:39Z</time>
      </trkpt>
      <trkpt lat="48.85196" lon="2.31552">
        <ele>18.8</ele>
        <time>2015-11-11T20:54:43Z</time>
      </trkpt>
      <trkpt lat="48.85196" lon="2.3153">
        <ele>18.8</ele>
        <time>2015-11-11T20:54:46Z</time>
      </trkpt>
      <trkpt lat="48.85196" lon="2.31499">
        <ele>17.8</ele>
        <time>2015-11-11T20:54:51Z</time>
      </trkpt>
      <trkpt lat="48.85195" lon="2.31493">
        <ele>18.2</ele>
        <time>2015-11-11T20:54:52Z</time>
      </trkpt>
      <trkpt lat="48.8519" lon="2.31462">
        <ele>22</ele>
        <time>2015-11-11T20:55:03Z</time>
      </trkpt>
      <trkpt lat="48.85188" lon="2.31451">
        <ele>23.2</ele>
        <time>2015-11-11T20:55:06Z</time>
      </trkpt>
      <trkpt lat="48.85184" lon="2.31428">
        <ele>23.6</ele>
        <time>2015-11-11T20:55:11Z</time>
      </trkpt>
      <trkpt lat="48.85181" lon="2.31395">
        <ele>23</ele>
        <time>2015-11-11T20:55:17Z</time>
      </trkpt>
      <trkpt lat="48.85179" lon="2.31363">
        <ele>22.6</ele>
        <time>2015-11-11T20:55:22Z</time>
      </trkpt>
      <trkpt lat="48.85178" lon="2.31336">
        <ele>22</ele>
        <time>2015-11-11T20:55:26Z</time>
      </trkpt>
      <trkpt lat="48.85177" lon="2.31308">
        <ele>22</ele>
        <time>2015-11-11T20:55:30Z</time>
      </trkpt>
      <trkpt lat="48.85178" lon="2.31276">
        <ele>26</ele>
        <time>2015-11-11T20:55:35Z</time>
      </trkpt>
      <trkpt lat="48.85168" lon="2.31251">
        <ele>28</ele>
        <time>2015-11-11T20:55:39Z</time>
      </trkpt>
      <trkpt lat="48.85163" lon="2.31218">
        <ele>28.6</ele>
        <time>2015-11-11T20:55:44Z</time>
      </trkpt>
      <trkpt lat="48.8516" lon="2.31188">
        <ele>29.2</ele>
        <time>2015-11-11T20:55:49Z</time>
      </trkpt>
      <trkpt lat="48.85156" lon="2.31158">
        <ele>29.2</ele>
        <time>2015-11-11T20:55:54Z</time>
      </trkpt>
      <trkpt lat="48.85155" lon="2.31125">
        <ele>29.6</ele>
        <time>2015-11-11T20:55:59Z</time>
      </trkpt>
      <trkpt lat="48.85152" lon="2.31096">
        <ele>30.2</ele>
        <time>2015-11-11T20:56:03Z</time>
      </trkpt>
      <trkpt lat="48.85151" lon="2.31066">
        <ele>31.6</ele>
        <time>2015-11-11T20:56:07Z</time>
      </trkpt>
      <trkpt lat="48.85152" lon="2.31059">
        <ele>31.6</ele>
        <time>2015-11-11T20:56:08Z</time>
      </trkpt>
      <trkpt lat="48.85161" lon="2.31037">
        <ele>30.6</ele>
        <time>2015-11-11T20:56:12Z</time>
      </trkpt>
      <trkpt lat="48.85165" lon="2.31032">
        <ele>30.4</ele>
        <time>2015-11-11T20:56:13Z</time>
      </trkpt>
      <trkpt lat="48.85169" lon="2.31023">
        <ele>30.6</ele>
        <time>2015-11-11T20:56:15Z</time>
      </trkpt>
      <trkpt lat="48.85181" lon="2.30999">
        <ele>31.4</ele>
        <time>2015-11-11T20:56:20Z</time>
      </trkpt>
      <trkpt lat="48.85183" lon="2.30994">
        <ele>31.8</ele>
        <time>2015-11-11T20:56:21Z</time>
      </trkpt>
      <trkpt lat="48.8519" lon="2.30981">
        <ele>33.4</ele>
        <time>2015-11-11T20:56:24Z</time>
      </trkpt>
      <trkpt lat="48.85195" lon="2.30972">
        <ele>33.8</ele>
        <time>2015-11-11T20:56:26Z</time>
      </trkpt>
      <trkpt lat="48.85203" lon="2.30957">
        <ele>34</ele>
        <time>2015-11-11T20:56:29Z</time>
      </trkpt>
      <trkpt lat="48.85211" lon="2.30942">
        <ele>34</ele>
        <time>2015-11-11T20:56:32Z</time>
      </trkpt>
      <trkpt lat="48.85223" lon="2.30922">
        <ele>34.2</ele>
        <time>2015-11-11T20:56:36Z</time>
      </trkpt>
      <trkpt lat="48.85224" lon="2.30901">
        <ele>44.4</ele>
        <time>2015-11-11T20:56:40Z</time>
      </trkpt>
      <trkpt lat="48.85228" lon="2.30885">
        <ele>48</ele>
        <time>2015-11-11T20:56:43Z</time>
      </trkpt>
      <trkpt lat="48.85239" lon="2.30864">
        <ele>53.6</ele>
        <time>2015-11-11T20:56:47Z</time>
      </trkpt>
      <trkpt lat="48.85252" lon="2.30848">
        <ele>57.4</ele>
        <time>2015-11-11T20:56:51Z</time>
      </trkpt>
      <trkpt lat="48.85268" lon="2.3083">
        <ele>59.6</ele>
        <time>2015-11-11T20:56:55Z</time>
      </trkpt>
      <trkpt lat="48.85272" lon="2.30825">
        <ele>60</ele>
        <time>2015-11-11T20:56:56Z</time>
      </trkpt>
      <trkpt lat="48.85285" lon="2.30805">
        <ele>61.6</ele>
        <time>2015-11-11T20:57:00Z</time>
      </trkpt>
      <trkpt lat="48.85292" lon="2.30795">
        <ele>62.6</ele>
        <time>2015-11-11T20:57:02Z</time>
      </trkpt>
      <trkpt lat="48.85304" lon="2.30775">
        <ele>66</ele>
        <time>2015-11-11T20:57:06Z</time>
      </trkpt>
      <trkpt lat="48.85319" lon="2.30756">
        <ele>67.6</ele>
        <time>2015-11-11T20:57:10Z</time>
      </trkpt>
      <trkpt lat="48.85333" lon="2.30737">
        <ele>69.2</ele>
        <time>2015-11-11T20:57:14Z</time>
      </trkpt>
      <trkpt lat="48.85348" lon="2.30717">
        <ele>70.2</ele>
        <time>2015-11-11T20:57:18Z</time>
      </trkpt>
      <trkpt lat="48.8536" lon="2.30703">
        <ele>70.4</ele>
        <time>2015-11-11T20:57:21Z</time>
      </trkpt>
      <trkpt lat="48.85376" lon="2.30683">
        <ele>70.2</ele>
        <time>2015-11-11T20:57:26Z</time>
      </trkpt>
      <trkpt lat="48.85383" lon="2.30674">
        <ele>70.4</ele>
        <time>2015-11-11T20:57:29Z</time>
      </trkpt>
      <trkpt lat="48.85388" lon="2.30671">
        <ele>70.6</ele>
        <time>2015-11-11T20:57:35Z</time>
      </trkpt>
      <trkpt lat="48.85389" lon="2.30671">
        <ele>70</ele>
        <time>2015-11-11T20:57:36Z</time>
      </trkpt>
      <trkpt lat="48.85393" lon="2.30668">
        <ele>70.8</ele>
        <time>2015-11-11T20:57:40Z</time>
      </trkpt>
      <trkpt lat="48.85407" lon="2.30646">
        <ele>74</ele>
        <time>2015-11-11T20:57:50Z</time>
      </trkpt>
      <trkpt lat="48.85421" lon="2.30627">
        <ele>75</ele>
        <time>2015-11-11T20:57:57Z</time>
      </trkpt>
      <trkpt lat="48.85436" lon="2.30607">
        <ele>75</ele>
        <time>2015-11-11T20:58:03Z</time>
      </trkpt>
      <trkpt lat="48.85451" lon="2.30585">
        <ele>73.8</ele>
        <time>2015-11-11T20:58:10Z</time>
      </trkpt>
      <trkpt lat="48.85462" lon="2.30562">
        <ele>71.4</ele>
        <time>2015-11-11T20:58:16Z</time>
      </trkpt>
      <trkpt lat="48.85479" lon="2.30545">
        <ele>71.2</ele>
        <time>2015-11-11T20:58:22Z</time>
      </trkpt>
      <trkpt lat="48.85498" lon="2.30534">
        <ele>71.8</ele>
        <time>2015-11-11T20:58:26Z</time>
      </trkpt>
      <trkpt lat="48.85518" lon="2.3052">
        <ele>73.8</ele>
        <time>2015-11-11T20:58:30Z</time>
      </trkpt>
      <trkpt lat="48.8554" lon="2.30506">
        <ele>75</ele>
        <time>2015-11-11T20:58:34Z</time>
      </trkpt>
      <trkpt lat="48.85557" lon="2.30493">
        <ele>74.6</ele>
        <time>2015-11-11T20:58:37Z</time>
      </trkpt>
      <trkpt lat="48.85578" lon="2.30479">
        <ele>75.2</ele>
        <time>2015-11-11T20:58:41Z</time>
      </trkpt>
      <trkpt lat="48.85599" lon="2.30468">
        <ele>76</ele>
        <time>2015-11-11T20:58:45Z</time>
      </trkpt>
      <trkpt lat="48.8562" lon="2.30457">
        <ele>73.2</ele>
        <time>2015-11-11T20:58:49Z</time>
      </trkpt>
      <trkpt lat="48.85642" lon="2.30447">
        <ele>74.8</ele>
        <time>2015-11-11T20:58:53Z</time>
      </trkpt>
      <trkpt lat="48.85662" lon="2.30437">
        <ele>75.2</ele>
        <time>2015-11-11T20:58:57Z</time>
      </trkpt>
      <trkpt lat="48.8568" lon="2.30428">
        <ele>74.6</ele>
        <time>2015-11-11T20:59:01Z</time>
      </trkpt>
      <trkpt lat="48.857" lon="2.30418">
        <ele>75.2</ele>
        <time>2015-11-11T20:59:06Z</time>
      </trkpt>
      <trkpt lat="48.85719" lon="2.30409">
        <ele>76.8</ele>
        <time>2015-11-11T20:59:10Z</time>
      </trkpt>
      <trkpt lat="48.85739" lon="2.30398">
        <ele>78.6</ele>
        <time>2015-11-11T20:59:14Z</time>
      </trkpt>
      <trkpt lat="48.85758" lon="2.30389">
        <ele>82.8</ele>
        <time>2015-11-11T20:59:18Z</time>
      </trkpt>
      <trkpt lat="48.85776" lon="2.30379">
        <ele>84.2</ele>
        <time>2015-11-11T20:59:21Z</time>
      </trkpt>
      <trkpt lat="48.85798" lon="2.30369">
        <ele>85.2</ele>
        <time>2015-11-11T20:59:25Z</time>
      </trkpt>
      <trkpt lat="48.8582" lon="2.30362">
        <ele>83.8</ele>
        <time>2015-11-11T20:59:29Z</time>
      </trkpt>
      <trkpt lat="48.85826" lon="2.30361">
        <ele>84</ele>
        <time>2015-11-11T20:59:30Z</time>
      </trkpt>
      <trkpt lat="48.85847" lon="2.30355">
        <ele>81.6</ele>
        <time>2015-11-11T20:59:34Z</time>
      </trkpt>
      <trkpt lat="48.8587" lon="2.30345">
        <ele>78.2</ele>
        <time>2015-11-11T20:59:38Z</time>
      </trkpt>
      <trkpt lat="48.85893" lon="2.30334">
        <ele>72.6</ele>
        <time>2015-11-11T20:59:42Z</time>
      </trkpt>
      <trkpt lat="48.85911" lon="2.30325">
        <ele>71</ele>
        <time>2015-11-11T20:59:45Z</time>
      </trkpt>
      <trkpt lat="48.85929" lon="2.30315">
        <ele>69</ele>
        <time>2015-11-11T20:59:48Z</time>
      </trkpt>
      <trkpt lat="48.85946" lon="2.30306">
        <ele>68</ele>
        <time>2015-11-11T20:59:51Z</time>
      </trkpt>
      <trkpt lat="48.85964" lon="2.30298">
        <ele>68.2</ele>
        <time>2015-11-11T20:59:54Z</time>
      </trkpt>
      <trkpt lat="48.85986" lon="2.30286">
        <ele>67.6</ele>
        <time>2015-11-11T20:59:58Z</time>
      </trkpt>
      <trkpt lat="48.86004" lon="2.30277">
        <ele>67.8</ele>
        <time>2015-11-11T21:00:01Z</time>
      </trkpt>
      <trkpt lat="48.86015" lon="2.30272">
        <ele>69</ele>
        <time>2015-11-11T21:00:03Z</time>
      </trkpt>
      <trkpt lat="48.86036" lon="2.30259">
        <ele>69.8</ele>
        <time>2015-11-11T21:00:07Z</time>
      </trkpt>
      <trkpt lat="48.86058" lon="2.30247">
        <ele>74</ele>
        <time>2015-11-11T21:00:11Z</time>
      </trkpt>
      <trkpt lat="48.86076" lon="2.30237">
        <ele>74.6</ele>
        <time>2015-11-11T21:00:14Z</time>
      </trkpt>
      <trkpt lat="48.86098" lon="2.30227">
        <ele>75</ele>
        <time>2015-11-11T21:00:18Z</time>
      </trkpt>
      <trkpt lat="48.86119" lon="2.30215">
        <ele>75.2</ele>
        <time>2015-11-11T21:00:22Z</time>
      </trkpt>
      <trkpt lat="48.86138" lon="2.30204">
        <ele>76</ele>
        <time>2015-11-11T21:00:26Z</time>
      </trkpt>
      <trkpt lat="48.86143" lon="2.30203">
        <ele>76</ele>
        <time>2015-11-11T21:00:27Z</time>
      </trkpt>
      <trkpt lat="48.86164" lon="2.30198">
        <ele>75.4</ele>
        <time>2015-11-11T21:00:32Z</time>
      </trkpt>
      <trkpt lat="48.86183" lon="2.30195">
        <ele>73.8</ele>
        <time>2015-11-11T21:00:37Z</time>
      </trkpt>
      <trkpt lat="48.86202" lon="2.30201">
        <ele>60.6</ele>
        <time>2015-11-11T21:00:44Z</time>
      </trkpt>
      <trkpt lat="48.86207" lon="2.30202">
        <ele>56.2</ele>
        <time>2015-11-11T21:00:46Z</time>
      </trkpt>
      <trkpt lat="48.8621" lon="2.30205">
        <ele>50.8</ele>
        <time>2015-11-11T21:00:50Z</time>
      </trkpt>
      <trkpt lat="48.8622" lon="2.30206">
        <ele>48.8</ele>
        <time>2015-11-11T21:01:00Z</time>
      </trkpt>
      <trkpt lat="48.86222" lon="2.30234">
        <ele>47</ele>
        <time>2015-11-11T21:01:08Z</time>
      </trkpt>
      <trkpt lat="48.86222" lon="2.30262">
        <ele>46.4</ele>
        <time>2015-11-11T21:01:13Z</time>
      </trkpt>
      <trkpt lat="48.86225" lon="2.30293">
        <ele>45.8</ele>
        <time>2015-11-11T21:01:18Z</time>
      </trkpt>
      <trkpt lat="48.86228" lon="2.30322">
        <ele>44.8</ele>
        <time>2015-11-11T21:01:23Z</time>
      </trkpt>
      <trkpt lat="48.86235" lon="2.30348">
        <ele>45</ele>
        <time>2015-11-11T21:01:27Z</time>
      </trkpt>
      <trkpt lat="48.86239" lon="2.30376">
        <ele>45.4</ele>
        <time>2015-11-11T21:01:31Z</time>
      </trkpt>
      <trkpt lat="48.86242" lon="2.30406">
        <ele>45.2</ele>
        <time>2015-11-11T21:01:36Z</time>
      </trkpt>
      <trkpt lat="48.86245" lon="2.30438">
        <ele>46.8</ele>
        <time>2015-11-11T21:01:41Z</time>
      </trkpt>
      <trkpt lat="48.86246" lon="2.30466">
        <ele>48</ele>
        <time>2015-11-11T21:01:45Z</time>
      </trkpt>
      <trkpt lat="48.86248" lon="2.30495">
        <ele>48.8</ele>
        <time>2015-11-11T21:01:49Z</time>
      </trkpt>
      <trkpt lat="48.8625" lon="2.30501">
        <ele>49</ele>
        <time>2015-11-11T21:01:50Z</time>
      </trkpt>
      <trkpt lat="48.86252" lon="2.30522">
        <ele>49</ele>
        <time>2015-11-11T21:01:53Z</time>
      </trkpt>
      <trkpt lat="48.86246" lon="2.3055">
        <ele>45</ele>
        <time>2015-11-11T21:01:57Z</time>
      </trkpt>
      <trkpt lat="48.86243" lon="2.30583">
        <ele>43.2</ele>
        <time>2015-11-11T21:02:02Z</time>
      </trkpt>
      <trkpt lat="48.86244" lon="2.30616">
        <ele>43</ele>
        <time>2015-11-11T21:02:07Z</time>
      </trkpt>
      <trkpt lat="48.86243" lon="2.30628">
        <ele>43.2</ele>
        <time>2015-11-11T21:02:09Z</time>
      </trkpt>
      <trkpt lat="48.86241" lon="2.30656">
        <ele>41.8</ele>
        <time>2015-11-11T21:02:13Z</time>
      </trkpt>
      <trkpt lat="48.86243" lon="2.30688">
        <ele>43</ele>
        <time>2015-11-11T21:02:18Z</time>
      </trkpt>
      <trkpt lat="48.86243" lon="2.307">
        <ele>43.4</ele>
        <time>2015-11-11T21:02:20Z</time>
      </trkpt>
      <trkpt lat="48.86241" lon="2.30732">
        <ele>44.4</ele>
        <time>2015-11-11T21:02:25Z</time>
      </trkpt>
      <trkpt lat="48.86239" lon="2.30764">
        <ele>42.8</ele>
        <time>2015-11-11T21:02:30Z</time>
      </trkpt>
      <trkpt lat="48.86241" lon="2.30785">
        <ele>42.8</ele>
        <time>2015-11-11T21:02:33Z</time>
      </trkpt>
      <trkpt lat="48.86244" lon="2.30819">
        <ele>41.6</ele>
        <time>2015-11-11T21:02:38Z</time>
      </trkpt>
      <trkpt lat="48.86242" lon="2.30826">
        <ele>39.4</ele>
        <time>2015-11-11T21:02:39Z</time>
      </trkpt>
      <trkpt lat="48.86245" lon="2.30855">
        <ele>37.6</ele>
        <time>2015-11-11T21:02:43Z</time>
      </trkpt>
      <trkpt lat="48.86246" lon="2.30884">
        <ele>37.2</ele>
        <time>2015-11-11T21:02:47Z</time>
      </trkpt>
      <trkpt lat="48.86246" lon="2.30915">
        <ele>37.4</ele>
        <time>2015-11-11T21:02:51Z</time>
      </trkpt>
      <trkpt lat="48.86246" lon="2.30935">
        <ele>37</ele>
        <time>2015-11-11T21:02:54Z</time>
      </trkpt>
      <trkpt lat="48.86244" lon="2.30965">
        <ele>36.2</ele>
        <time>2015-11-11T21:02:59Z</time>
      </trkpt>
      <trkpt lat="48.86243" lon="2.30976">
        <ele>35.6</ele>
        <time>2015-11-11T21:03:01Z</time>
      </trkpt>
      <trkpt lat="48.86244" lon="2.30992">
        <ele>34.6</ele>
        <time>2015-11-11T21:03:04Z</time>
      </trkpt>
      <trkpt lat="48.86245" lon="2.31008">
        <ele>33</ele>
        <time>2015-11-11T21:03:08Z</time>
      </trkpt>
      <trkpt lat="48.86244" lon="2.31021">
        <ele>33</ele>
        <time>2015-11-11T21:03:12Z</time>
      </trkpt>
      <trkpt lat="48.8625" lon="2.31036">
        <ele>35</ele>
        <time>2015-11-11T21:04:09Z</time>
      </trkpt>
      <trkpt lat="48.86253" lon="2.31039">
        <ele>35</ele>
        <time>2015-11-11T21:04:12Z</time>
      </trkpt>
      <trkpt lat="48.86257" lon="2.31054">
        <ele>35</ele>
        <time>2015-11-11T21:04:16Z</time>
      </trkpt>
      <trkpt lat="48.8626" lon="2.31084">
        <ele>36.2</ele>
        <time>2015-11-11T21:04:22Z</time>
      </trkpt>
      <trkpt lat="48.86264" lon="2.31113">
        <ele>37.6</ele>
        <time>2015-11-11T21:04:27Z</time>
      </trkpt>
      <trkpt lat="48.86272" lon="2.31145">
        <ele>41</ele>
        <time>2015-11-11T21:04:32Z</time>
      </trkpt>
      <trkpt lat="48.86275" lon="2.31172">
        <ele>42</ele>
        <time>2015-11-11T21:04:36Z</time>
      </trkpt>
      <trkpt lat="48.86277" lon="2.31204">
        <ele>44.4</ele>
        <time>2015-11-11T21:04:40Z</time>
      </trkpt>
      <trkpt lat="48.86277" lon="2.31235">
        <ele>45.2</ele>
        <time>2015-11-11T21:04:44Z</time>
      </trkpt>
      <trkpt lat="48.86275" lon="2.31264">
        <ele>45.8</ele>
        <time>2015-11-11T21:04:48Z</time>
      </trkpt>
      <trkpt lat="48.86275" lon="2.31278">
        <ele>46</ele>
        <time>2015-11-11T21:04:50Z</time>
      </trkpt>
      <trkpt lat="48.86272" lon="2.31296">
        <ele>45.8</ele>
        <time>2015-11-11T21:04:53Z</time>
      </trkpt>
      <trkpt lat="48.86271" lon="2.31313">
        <ele>46.2</ele>
        <time>2015-11-11T21:04:56Z</time>
      </trkpt>
      <trkpt lat="48.86275" lon="2.31332">
        <ele>41.6</ele>
        <time>2015-11-11T21:05:01Z</time>
      </trkpt>
      <trkpt lat="48.86278" lon="2.31361">
        <ele>38.6</ele>
        <time>2015-11-11T21:05:07Z</time>
      </trkpt>
      <trkpt lat="48.8628" lon="2.31391">
        <ele>36.8</ele>
        <time>2015-11-11T21:05:12Z</time>
      </trkpt>
      <trkpt lat="48.86283" lon="2.31425">
        <ele>35</ele>
        <time>2015-11-11T21:05:17Z</time>
      </trkpt>
      <trkpt lat="48.86285" lon="2.31455">
        <ele>33.4</ele>
        <time>2015-11-11T21:05:21Z</time>
      </trkpt>
      <trkpt lat="48.86285" lon="2.31485">
        <ele>30.8</ele>
        <time>2015-11-11T21:05:25Z</time>
      </trkpt>
      <trkpt lat="48.86284" lon="2.31516">
        <ele>28.4</ele>
        <time>2015-11-11T21:05:29Z</time>
      </trkpt>
      <trkpt lat="48.86284" lon="2.31545">
        <ele>27</ele>
        <time>2015-11-11T21:05:33Z</time>
      </trkpt>
      <trkpt lat="48.86284" lon="2.31575">
        <ele>26.2</ele>
        <time>2015-11-11T21:05:37Z</time>
      </trkpt>
      <trkpt lat="48.86284" lon="2.31607">
        <ele>25.8</ele>
        <time>2015-11-11T21:05:41Z</time>
      </trkpt>
      <trkpt lat="48.86283" lon="2.31637">
        <ele>25.6</ele>
        <time>2015-11-11T21:05:45Z</time>
      </trkpt>
      <trkpt lat="48.86281" lon="2.31667">
        <ele>25.2</ele>
        <time>2015-11-11T21:05:49Z</time>
      </trkpt>
      <trkpt lat="48.8628" lon="2.31697">
        <ele>25</ele>
        <time>2015-11-11T21:05:53Z</time>
      </trkpt>
      <trkpt lat="48.86278" lon="2.3173">
        <ele>25.4</ele>
        <time>2015-11-11T21:05:58Z</time>
      </trkpt>
      <trkpt lat="48.86277" lon="2.31756">
        <ele>25.8</ele>
        <time>2015-11-11T21:06:02Z</time>
      </trkpt>
      <trkpt lat="48.86276" lon="2.31788">
        <ele>26.6</ele>
        <time>2015-11-11T21:06:07Z</time>
      </trkpt>
      <trkpt lat="48.86271" lon="2.31818">
        <ele>26.8</ele>
        <time>2015-11-11T21:06:12Z</time>
      </trkpt>
      <trkpt lat="48.86263" lon="2.31846">
        <ele>26.6</ele>
        <time>2015-11-11T21:06:17Z</time>
      </trkpt>
      <trkpt lat="48.86255" lon="2.31874">
        <ele>26.2</ele>
        <time>2015-11-11T21:06:22Z</time>
      </trkpt>
      <trkpt lat="48.86249" lon="2.3189">
        <ele>26.4</ele>
        <time>2015-11-11T21:06:25Z</time>
      </trkpt>
      <trkpt lat="48.86246" lon="2.31901">
        <ele>26.8</ele>
        <time>2015-11-11T21:06:27Z</time>
      </trkpt>
      <trkpt lat="48.86239" lon="2.31915">
        <ele>26.4</ele>
        <time>2015-11-11T21:06:30Z</time>
      </trkpt>
      <trkpt lat="48.86233" lon="2.3193">
        <ele>25.2</ele>
        <time>2015-11-11T21:06:34Z</time>
      </trkpt>
      <trkpt lat="48.86231" lon="2.31934">
        <ele>25.4</ele>
        <time>2015-11-11T21:06:36Z</time>
      </trkpt>
      <trkpt lat="48.86224" lon="2.31943">
        <ele>26.4</ele>
        <time>2015-11-11T21:06:41Z</time>
      </trkpt>
      <trkpt lat="48.86214" lon="2.31955">
        <ele>30.4</ele>
        <time>2015-11-11T21:07:21Z</time>
      </trkpt>
      <trkpt lat="48.862" lon="2.31977">
        <ele>30.8</ele>
        <time>2015-11-11T21:07:28Z</time>
      </trkpt>
      <trkpt lat="48.86184" lon="2.31996">
        <ele>31.2</ele>
        <time>2015-11-11T21:07:34Z</time>
      </trkpt>
      <trkpt lat="48.86167" lon="2.32019">
        <ele>32.2</ele>
        <time>2015-11-11T21:07:39Z</time>
      </trkpt>
      <trkpt lat="48.86151" lon="2.32036">
        <ele>33</ele>
        <time>2015-11-11T21:07:43Z</time>
      </trkpt>
      <trkpt lat="48.86134" lon="2.32056">
        <ele>33.8</ele>
        <time>2015-11-11T21:07:48Z</time>
      </trkpt>
      <trkpt lat="48.86125" lon="2.3208">
        <ele>34.8</ele>
        <time>2015-11-11T21:07:53Z</time>
      </trkpt>
      <trkpt lat="48.86111" lon="2.32103">
        <ele>36.4</ele>
        <time>2015-11-11T21:07:58Z</time>
      </trkpt>
      <trkpt lat="48.86096" lon="2.3212">
        <ele>37.8</ele>
        <time>2015-11-11T21:08:02Z</time>
      </trkpt>
      <trkpt lat="48.86079" lon="2.32136">
        <ele>39.2</ele>
        <time>2015-11-11T21:08:06Z</time>
      </trkpt>
      <trkpt lat="48.8607" lon="2.32144">
        <ele>40</ele>
        <time>2015-11-11T21:08:08Z</time>
      </trkpt>
      <trkpt lat="48.86052" lon="2.32159">
        <ele>41.6</ele>
        <time>2015-11-11T21:08:12Z</time>
      </trkpt>
      <trkpt lat="48.86035" lon="2.32176">
        <ele>43</ele>
        <time>2015-11-11T21:08:16Z</time>
      </trkpt>
      <trkpt lat="48.86023" lon="2.32189">
        <ele>44.8</ele>
        <time>2015-11-11T21:08:20Z</time>
      </trkpt>
      <trkpt lat="48.86006" lon="2.32204">
        <ele>48.8</ele>
        <time>2015-11-11T21:08:24Z</time>
      </trkpt>
      <trkpt lat="48.8599" lon="2.3222">
        <ele>50.6</ele>
        <time>2015-11-11T21:08:28Z</time>
      </trkpt>
      <trkpt lat="48.85975" lon="2.32236">
        <ele>52.6</ele>
        <time>2015-11-11T21:08:32Z</time>
      </trkpt>
      <trkpt lat="48.8596" lon="2.32247">
        <ele>53.8</ele>
        <time>2015-11-11T21:08:35Z</time>
      </trkpt>
      <trkpt lat="48.85943" lon="2.32259">
        <ele>54.2</ele>
        <time>2015-11-11T21:08:38Z</time>
      </trkpt>
      <trkpt lat="48.85925" lon="2.32272">
        <ele>53.8</ele>
        <time>2015-11-11T21:08:41Z</time>
      </trkpt>
      <trkpt lat="48.85909" lon="2.32287">
        <ele>54.6</ele>
        <time>2015-11-11T21:08:45Z</time>
      </trkpt>
      <trkpt lat="48.85893" lon="2.32303">
        <ele>55.8</ele>
        <time>2015-11-11T21:08:48Z</time>
      </trkpt>
      <trkpt lat="48.85877" lon="2.32317">
        <ele>55.8</ele>
        <time>2015-11-11T21:08:51Z</time>
      </trkpt>
      <trkpt lat="48.85857" lon="2.32334">
        <ele>55.8</ele>
        <time>2015-11-11T21:08:55Z</time>
      </trkpt>
      <trkpt lat="48.85841" lon="2.32341">
        <ele>54</ele>
        <time>2015-11-11T21:08:57Z</time>
      </trkpt>
      <trkpt lat="48.8582" lon="2.32353">
        <ele>51.8</ele>
        <time>2015-11-11T21:09:00Z</time>
      </trkpt>
      <trkpt lat="48.85801" lon="2.32363">
        <ele>50.8</ele>
        <time>2015-11-11T21:09:03Z</time>
      </trkpt>
      <trkpt lat="48.85788" lon="2.32375">
        <ele>50.8</ele>
        <time>2015-11-11T21:09:06Z</time>
      </trkpt>
      <trkpt lat="48.85773" lon="2.32391">
        <ele>50.2</ele>
        <time>2015-11-11T21:09:10Z</time>
      </trkpt>
      <trkpt lat="48.85761" lon="2.32406">
        <ele>50.6</ele>
        <time>2015-11-11T21:09:14Z</time>
      </trkpt>
      <trkpt lat="48.85746" lon="2.32422">
        <ele>53.6</ele>
        <time>2015-11-11T21:09:18Z</time>
      </trkpt>
      <trkpt lat="48.85723" lon="2.3244">
        <ele>54</ele>
        <time>2015-11-11T21:09:22Z</time>
      </trkpt>
      <trkpt lat="48.85705" lon="2.32459">
        <ele>54.6</ele>
        <time>2015-11-11T21:09:26Z</time>
      </trkpt>
      <trkpt lat="48.85699" lon="2.32469">
        <ele>54.6</ele>
        <time>2015-11-11T21:09:28Z</time>
      </trkpt>
      <trkpt lat="48.85685" lon="2.32494">
        <ele>54.2</ele>
        <time>2015-11-11T21:09:33Z</time>
      </trkpt>
      <trkpt lat="48.85676" lon="2.32509">
        <ele>54.4</ele>
        <time>2015-11-11T21:09:36Z</time>
      </trkpt>
      <trkpt lat="48.85661" lon="2.32531">
        <ele>55</ele>
        <time>2015-11-11T21:09:40Z</time>
      </trkpt>
      <trkpt lat="48.85646" lon="2.32554">
        <ele>54.8</ele>
        <time>2015-11-11T21:09:45Z</time>
      </trkpt>
      <trkpt lat="48.85629" lon="2.32566">
        <ele>50.8</ele>
        <time>2015-11-11T21:09:49Z</time>
      </trkpt>
      <trkpt lat="48.85621" lon="2.32577">
        <ele>47.4</ele>
        <time>2015-11-11T21:09:52Z</time>
      </trkpt>
      <trkpt lat="48.85612" lon="2.32587">
        <ele>45.4</ele>
        <time>2015-11-11T21:09:57Z</time>
      </trkpt>
      <trkpt lat="48.8561" lon="2.32589">
        <ele>45</ele>
        <time>2015-11-11T21:09:59Z</time>
      </trkpt>
      <trkpt lat="48.85608" lon="2.32593">
        <ele>44.4</ele>
        <time>2015-11-11T21:10:03Z</time>
      </trkpt>
      <trkpt lat="48.85607" lon="2.32594">
        <ele>44</ele>
        <time>2015-11-11T21:10:04Z</time>
      </trkpt>
      <trkpt lat="48.85623" lon="2.32608">
        <ele>45.8</ele>
        <time>2015-11-11T21:10:25Z</time>
      </trkpt>
      <trkpt lat="48.85637" lon="2.32631">
        <ele>46.2</ele>
        <time>2015-11-11T21:10:30Z</time>
      </trkpt>
      <trkpt lat="48.8565" lon="2.32656">
        <ele>46.8</ele>
        <time>2015-11-11T21:10:35Z</time>
      </trkpt>
      <trkpt lat="48.85661" lon="2.3268">
        <ele>46.6</ele>
        <time>2015-11-11T21:10:39Z</time>
      </trkpt>
      <trkpt lat="48.85672" lon="2.32705">
        <ele>45.4</ele>
        <time>2015-11-11T21:10:43Z</time>
      </trkpt>
      <trkpt lat="48.85676" lon="2.32731">
        <ele>42</ele>
        <time>2015-11-11T21:10:47Z</time>
      </trkpt>
      <trkpt lat="48.85683" lon="2.3276">
        <ele>39.2</ele>
        <time>2015-11-11T21:10:51Z</time>
      </trkpt>
      <trkpt lat="48.85692" lon="2.32786">
        <ele>38.4</ele>
        <time>2015-11-11T21:10:55Z</time>
      </trkpt>
      <trkpt lat="48.85702" lon="2.32811">
        <ele>39.2</ele>
        <time>2015-11-11T21:10:59Z</time>
      </trkpt>
      <trkpt lat="48.85715" lon="2.32836">
        <ele>40.2</ele>
        <time>2015-11-11T21:11:04Z</time>
      </trkpt>
      <trkpt lat="48.85717" lon="2.32846">
        <ele>40.8</ele>
        <time>2015-11-11T21:11:06Z</time>
      </trkpt>
      <trkpt lat="48.85728" lon="2.3286">
        <ele>43.6</ele>
        <time>2015-11-11T21:11:13Z</time>
      </trkpt>
      <trkpt lat="48.8573" lon="2.32865">
        <ele>44.4</ele>
        <time>2015-11-11T21:11:15Z</time>
      </trkpt>
      <trkpt lat="48.85735" lon="2.32882">
        <ele>45.8</ele>
        <time>2015-11-11T21:11:21Z</time>
      </trkpt>
      <trkpt lat="48.85752" lon="2.32898">
        <ele>47.2</ele>
        <time>2015-11-11T21:11:30Z</time>
      </trkpt>
      <trkpt lat="48.8577" lon="2.32909">
        <ele>48.4</ele>
        <time>2015-11-11T21:11:36Z</time>
      </trkpt>
      <trkpt lat="48.85777" lon="2.32918">
        <ele>49.2</ele>
        <time>2015-11-11T21:11:39Z</time>
      </trkpt>
      <trkpt lat="48.85779" lon="2.32928">
        <ele>49</ele>
        <time>2015-11-11T21:11:42Z</time>
      </trkpt>
      <trkpt lat="48.85774" lon="2.32952">
        <ele>50.2</ele>
        <time>2015-11-11T21:11:49Z</time>
      </trkpt>
      <trkpt lat="48.85759" lon="2.32973">
        <ele>50.6</ele>
        <time>2015-11-11T21:11:54Z</time>
      </trkpt>
      <trkpt lat="48.85754" lon="2.33003">
        <ele>51.2</ele>
        <time>2015-11-11T21:11:59Z</time>
      </trkpt>
      <trkpt lat="48.85747" lon="2.33034">
        <ele>50.6</ele>
        <time>2015-11-11T21:12:04Z</time>
      </trkpt>
      <trkpt lat="48.85738" lon="2.33063">
        <ele>51.8</ele>
        <time>2015-11-11T21:12:09Z</time>
      </trkpt>
      <trkpt lat="48.85724" lon="2.33089">
        <ele>52.4</ele>
        <time>2015-11-11T21:12:14Z</time>
      </trkpt>
      <trkpt lat="48.85711" lon="2.33114">
        <ele>52</ele>
        <time>2015-11-11T21:12:18Z</time>
      </trkpt>
      <trkpt lat="48.85703" lon="2.33142">
        <ele>51.6</ele>
        <time>2015-11-11T21:12:22Z</time>
      </trkpt>
      <trkpt lat="48.85696" lon="2.33154">
        <ele>51.2</ele>
        <time>2015-11-11T21:12:24Z</time>
      </trkpt>
      <trkpt lat="48.85686" lon="2.33162">
        <ele>51.2</ele>
        <time>2015-11-11T21:12:26Z</time>
      </trkpt>
      <trkpt lat="48.85683" lon="2.33195">
        <ele>52.8</ele>
        <time>2015-11-11T21:12:32Z</time>
      </trkpt>
      <trkpt lat="48.85689" lon="2.33209">
        <ele>54</ele>
        <time>2015-11-11T21:12:35Z</time>
      </trkpt>
      <trkpt lat="48.85676" lon="2.33206">
        <ele>54.8</ele>
        <time>2015-11-11T21:12:40Z</time>
      </trkpt>
      <trkpt lat="48.85656" lon="2.33196">
        <ele>55</ele>
        <time>2015-11-11T21:12:46Z</time>
      </trkpt>
      <trkpt lat="48.85648" lon="2.33192">
        <ele>55.2</ele>
        <time>2015-11-11T21:12:48Z</time>
      </trkpt>
      <trkpt lat="48.8563" lon="2.33178">
        <ele>55.4</ele>
        <time>2015-11-11T21:12:55Z</time>
      </trkpt>
      <trkpt lat="48.85611" lon="2.3317">
        <ele>55.8</ele>
        <time>2015-11-11T21:13:01Z</time>
      </trkpt>
      <trkpt lat="48.85593" lon="2.33159">
        <ele>55.6</ele>
        <time>2015-11-11T21:13:07Z</time>
      </trkpt>
      <trkpt lat="48.85576" lon="2.33151">
        <ele>55.6</ele>
        <time>2015-11-11T21:13:12Z</time>
      </trkpt>
      <trkpt lat="48.85557" lon="2.33134">
        <ele>56.2</ele>
        <time>2015-11-11T21:13:18Z</time>
      </trkpt>
      <trkpt lat="48.85541" lon="2.33121">
        <ele>57.4</ele>
        <time>2015-11-11T21:13:23Z</time>
      </trkpt>
      <trkpt lat="48.85522" lon="2.33112">
        <ele>57.4</ele>
        <time>2015-11-11T21:13:28Z</time>
      </trkpt>
      <trkpt lat="48.85505" lon="2.33094">
        <ele>56.6</ele>
        <time>2015-11-11T21:13:34Z</time>
      </trkpt>
      <trkpt lat="48.85488" lon="2.3308">
        <ele>53.6</ele>
        <time>2015-11-11T21:13:41Z</time>
      </trkpt>
      <trkpt lat="48.85469" lon="2.33074">
        <ele>51</ele>
        <time>2015-11-11T21:13:48Z</time>
      </trkpt>
      <trkpt lat="48.85456" lon="2.33055">
        <ele>47.8</ele>
        <time>2015-11-11T21:13:57Z</time>
      </trkpt>
      <trkpt lat="48.85452" lon="2.33047">
        <ele>46.8</ele>
        <time>2015-11-11T21:14:01Z</time>
      </trkpt>
      <trkpt lat="48.85433" lon="2.33036">
        <ele>45.8</ele>
        <time>2015-11-11T21:14:10Z</time>
      </trkpt>
      <trkpt lat="48.85413" lon="2.33025">
        <ele>44.6</ele>
        <time>2015-11-11T21:14:16Z</time>
      </trkpt>
      <trkpt lat="48.85396" lon="2.33016">
        <ele>43.8</ele>
        <time>2015-11-11T21:14:20Z</time>
      </trkpt>
      <trkpt lat="48.85377" lon="2.33003">
        <ele>42.6</ele>
        <time>2015-11-11T21:14:24Z</time>
      </trkpt>
      <trkpt lat="48.85357" lon="2.32992">
        <ele>40.8</ele>
        <time>2015-11-11T21:14:29Z</time>
      </trkpt>
      <trkpt lat="48.85337" lon="2.32979">
        <ele>39</ele>
        <time>2015-11-11T21:14:33Z</time>
      </trkpt>
      <trkpt lat="48.8532" lon="2.3297">
        <ele>37.6</ele>
        <time>2015-11-11T21:14:37Z</time>
      </trkpt>
      <trkpt lat="48.85301" lon="2.32961">
        <ele>36</ele>
        <time>2015-11-11T21:14:41Z</time>
      </trkpt>
      <trkpt lat="48.85282" lon="2.32951">
        <ele>33.6</ele>
        <time>2015-11-11T21:14:48Z</time>
      </trkpt>
      <trkpt lat="48.85269" lon="2.32931">
        <ele>32.8</ele>
        <time>2015-11-11T21:14:53Z</time>
      </trkpt>
      <trkpt lat="48.85254" lon="2.3291">
        <ele>32</ele>
        <time>2015-11-11T21:14:59Z</time>
      </trkpt>
      <trkpt lat="48.85236" lon="2.32897">
        <ele>31</ele>
        <time>2015-11-11T21:15:03Z</time>
      </trkpt>
      <trkpt lat="48.85218" lon="2.32887">
        <ele>30.2</ele>
        <time>2015-11-11T21:15:07Z</time>
      </trkpt>
      <trkpt lat="48.852" lon="2.32873">
        <ele>29.4</ele>
        <time>2015-11-11T21:15:13Z</time>
      </trkpt>
      <trkpt lat="48.852" lon="2.32868">
        <ele>29.4</ele>
        <time>2015-11-11T21:15:15Z</time>
      </trkpt>
      <trkpt lat="48.85202" lon="2.32888">
        <ele>30.2</ele>
        <time>2015-11-11T21:15:22Z</time>
      </trkpt>
      <trkpt lat="48.85206" lon="2.3292">
        <ele>31.8</ele>
        <time>2015-11-11T21:15:28Z</time>
      </trkpt>
      <trkpt lat="48.85208" lon="2.32947">
        <ele>33</ele>
        <time>2015-11-11T21:15:33Z</time>
      </trkpt>
      <trkpt lat="48.85213" lon="2.32976">
        <ele>33.2</ele>
        <time>2015-11-11T21:15:39Z</time>
      </trkpt>
      <trkpt lat="48.85221" lon="2.33006">
        <ele>33.2</ele>
        <time>2015-11-11T21:15:45Z</time>
      </trkpt>
      <trkpt lat="48.85224" lon="2.33037">
        <ele>34</ele>
        <time>2015-11-11T21:15:50Z</time>
      </trkpt>
      <trkpt lat="48.85229" lon="2.33066">
        <ele>35</ele>
        <time>2015-11-11T21:15:54Z</time>
      </trkpt>
      <trkpt lat="48.85236" lon="2.33097">
        <ele>41.8</ele>
        <time>2015-11-11T21:15:58Z</time>
      </trkpt>
      <trkpt lat="48.85242" lon="2.33127">
        <ele>42.8</ele>
        <time>2015-11-11T21:16:02Z</time>
      </trkpt>
      <trkpt lat="48.85248" lon="2.33157">
        <ele>44</ele>
        <time>2015-11-11T21:16:06Z</time>
      </trkpt>
      <trkpt lat="48.8525" lon="2.33191">
        <ele>43.2</ele>
        <time>2015-11-11T21:16:11Z</time>
      </trkpt>
      <trkpt lat="48.85253" lon="2.33209">
        <ele>41.6</ele>
        <time>2015-11-11T21:16:14Z</time>
      </trkpt>
      <trkpt lat="48.85256" lon="2.33228">
        <ele>40</ele>
        <time>2015-11-11T21:16:17Z</time>
      </trkpt>
      <trkpt lat="48.85259" lon="2.33249">
        <ele>39</ele>
        <time>2015-11-11T21:16:20Z</time>
      </trkpt>
      <trkpt lat="48.85263" lon="2.33276">
        <ele>38</ele>
        <time>2015-11-11T21:16:24Z</time>
      </trkpt>
      <trkpt lat="48.85264" lon="2.33281">
        <ele>37.8</ele>
        <time>2015-11-11T21:16:25Z</time>
      </trkpt>
      <trkpt lat="48.85265" lon="2.3329">
        <ele>37.4</ele>
        <time>2015-11-11T21:16:27Z</time>
      </trkpt>
      <trkpt lat="48.85271" lon="2.33322">
        <ele>38.2</ele>
        <time>2015-11-11T21:16:33Z</time>
      </trkpt>
      <trkpt lat="48.85271" lon="2.33327">
        <ele>38.4</ele>
        <time>2015-11-11T21:16:34Z</time>
      </trkpt>
      <trkpt lat="48.85269" lon="2.33356">
        <ele>38.6</ele>
        <time>2015-11-11T21:16:39Z</time>
      </trkpt>
      <trkpt lat="48.8527" lon="2.33363">
        <ele>37.8</ele>
        <time>2015-11-11T21:16:40Z</time>
      </trkpt>
      <trkpt lat="48.85271" lon="2.33383">
        <ele>36.6</ele>
        <time>2015-11-11T21:16:43Z</time>
      </trkpt>
      <trkpt lat="48.85276" lon="2.3341">
        <ele>35.2</ele>
        <time>2015-11-11T21:16:47Z</time>
      </trkpt>
      <trkpt lat="48.8528" lon="2.33437">
        <ele>34.8</ele>
        <time>2015-11-11T21:16:51Z</time>
      </trkpt>
      <trkpt lat="48.8528" lon="2.33444">
        <ele>34.8</ele>
        <time>2015-11-11T21:16:52Z</time>
      </trkpt>
      <trkpt lat="48.85282" lon="2.33458">
        <ele>34.2</ele>
        <time>2015-11-11T21:16:54Z</time>
      </trkpt>
      <trkpt lat="48.85288" lon="2.33486">
        <ele>33.8</ele>
        <time>2015-11-11T21:16:58Z</time>
      </trkpt>
      <trkpt lat="48.85292" lon="2.33508">
        <ele>33.6</ele>
        <time>2015-11-11T21:17:01Z</time>
      </trkpt>
      <trkpt lat="48.85298" lon="2.33535">
        <ele>32.8</ele>
        <time>2015-11-11T21:17:05Z</time>
      </trkpt>
      <trkpt lat="48.85302" lon="2.33553">
        <ele>33.4</ele>
        <time>2015-11-11T21:17:08Z</time>
      </trkpt>
      <trkpt lat="48.85311" lon="2.33571">
        <ele>33.2</ele>
        <time>2015-11-11T21:17:13Z</time>
      </trkpt>
      <trkpt lat="48.85315" lon="2.33585">
        <ele>34.6</ele>
        <time>2015-11-11T21:17:19Z</time>
      </trkpt>
      <trkpt lat="48.85308" lon="2.33617">
        <ele>40</ele>
        <time>2015-11-11T21:17:45Z</time>
      </trkpt>
      <trkpt lat="48.85302" lon="2.33643">
        <ele>41.4</ele>
        <time>2015-11-11T21:17:49Z</time>
      </trkpt>
      <trkpt lat="48.85293" lon="2.33672">
        <ele>42.6</ele>
        <time>2015-11-11T21:17:53Z</time>
      </trkpt>
      <trkpt lat="48.85282" lon="2.33703">
        <ele>44</ele>
        <time>2015-11-11T21:17:57Z</time>
      </trkpt>
      <trkpt lat="48.85274" lon="2.33736">
        <ele>45.2</ele>
        <time>2015-11-11T21:18:01Z</time>
      </trkpt>
      <trkpt lat="48.85268" lon="2.33762">
        <ele>45.6</ele>
        <time>2015-11-11T21:18:04Z</time>
      </trkpt>
      <trkpt lat="48.85261" lon="2.33789">
        <ele>45.6</ele>
        <time>2015-11-11T21:18:07Z</time>
      </trkpt>
      <trkpt lat="48.85252" lon="2.33821">
        <ele>46</ele>
        <time>2015-11-11T21:18:11Z</time>
      </trkpt>
      <trkpt lat="48.85246" lon="2.33847">
        <ele>46</ele>
        <time>2015-11-11T21:18:15Z</time>
      </trkpt>
      <trkpt lat="48.85243" lon="2.33858">
        <ele>45.6</ele>
        <time>2015-11-11T21:18:18Z</time>
      </trkpt>
      <trkpt lat="48.85244" lon="2.33863">
        <ele>45.6</ele>
        <time>2015-11-11T21:18:22Z</time>
      </trkpt>
      <trkpt lat="48.85245" lon="2.33867">
        <ele>45.4</ele>
        <time>2015-11-11T21:18:24Z</time>
      </trkpt>
      <trkpt lat="48.8524" lon="2.33894">
        <ele>46.2</ele>
        <time>2015-11-11T21:18:30Z</time>
      </trkpt>
      <trkpt lat="48.85234" lon="2.33921">
        <ele>47.2</ele>
        <time>2015-11-11T21:18:34Z</time>
      </trkpt>
      <trkpt lat="48.85228" lon="2.33951">
        <ele>47.6</ele>
        <time>2015-11-11T21:18:38Z</time>
      </trkpt>
      <trkpt lat="48.85221" lon="2.33982">
        <ele>49</ele>
        <time>2015-11-11T21:18:42Z</time>
      </trkpt>
      <trkpt lat="48.85217" lon="2.34015">
        <ele>48.8</ele>
        <time>2015-11-11T21:18:46Z</time>
      </trkpt>
      <trkpt lat="48.85212" lon="2.34047">
        <ele>50</ele>
        <time>2015-11-11T21:18:50Z</time>
      </trkpt>
      <trkpt lat="48.85206" lon="2.34077">
        <ele>51</ele>
        <time>2015-11-11T21:18:54Z</time>
      </trkpt>
      <trkpt lat="48.85201" lon="2.34107">
        <ele>52</ele>
        <time>2015-11-11T21:18:58Z</time>
      </trkpt>
      <trkpt lat="48.85194" lon="2.34136">
        <ele>53</ele>
        <time>2015-11-11T21:19:02Z</time>
      </trkpt>
      <trkpt lat="48.85186" lon="2.34169">
        <ele>54.4</ele>
        <time>2015-11-11T21:19:06Z</time>
      </trkpt>
      <trkpt lat="48.85177" lon="2.34201">
        <ele>56</ele>
        <time>2015-11-11T21:19:10Z</time>
      </trkpt>
      <trkpt lat="48.8517" lon="2.34232">
        <ele>57</ele>
        <time>2015-11-11T21:19:14Z</time>
      </trkpt>
      <trkpt lat="48.85167" lon="2.34247">
        <ele>57.8</ele>
        <time>2015-11-11T21:19:16Z</time>
      </trkpt>
      <trkpt lat="48.85159" lon="2.34279">
        <ele>59.4</ele>
        <time>2015-11-11T21:19:20Z</time>
      </trkpt>
      <trkpt lat="48.85151" lon="2.3431">
        <ele>60.4</ele>
        <time>2015-11-11T21:19:24Z</time>
      </trkpt>
      <trkpt lat="48.85143" lon="2.3434">
        <ele>60.8</ele>
        <time>2015-11-11T21:19:28Z</time>
      </trkpt>
      <trkpt lat="48.85132" lon="2.34373">
        <ele>61.4</ele>
        <time>2015-11-11T21:19:32Z</time>
      </trkpt>
      <trkpt lat="48.85122" lon="2.34404">
        <ele>61.4</ele>
        <time>2015-11-11T21:19:36Z</time>
      </trkpt>
      <trkpt lat="48.85113" lon="2.34432">
        <ele>60.6</ele>
        <time>2015-11-11T21:19:39Z</time>
      </trkpt>
      <trkpt lat="48.85105" lon="2.3446">
        <ele>60.8</ele>
        <time>2015-11-11T21:19:42Z</time>
      </trkpt>
      <trkpt lat="48.85097" lon="2.34487">
        <ele>60</ele>
        <time>2015-11-11T21:19:45Z</time>
      </trkpt>
      <trkpt lat="48.85091" lon="2.34514">
        <ele>58</ele>
        <time>2015-11-11T21:19:48Z</time>
      </trkpt>
      <trkpt lat="48.85087" lon="2.34546">
        <ele>52.2</ele>
        <time>2015-11-11T21:19:52Z</time>
      </trkpt>
      <trkpt lat="48.85087" lon="2.34564">
        <ele>50.4</ele>
        <time>2015-11-11T21:19:55Z</time>
      </trkpt>
      <trkpt lat="48.85094" lon="2.34582">
        <ele>47.8</ele>
        <time>2015-11-11T21:19:59Z</time>
      </trkpt>
      <trkpt lat="48.85098" lon="2.3459">
        <ele>46.8</ele>
        <time>2015-11-11T21:20:01Z</time>
      </trkpt>
      <trkpt lat="48.85107" lon="2.34619">
        <ele>44</ele>
        <time>2015-11-11T21:20:07Z</time>
      </trkpt>
      <trkpt lat="48.85118" lon="2.34645">
        <ele>42.4</ele>
        <time>2015-11-11T21:20:12Z</time>
      </trkpt>
      <trkpt lat="48.85132" lon="2.34666">
        <ele>41.6</ele>
        <time>2015-11-11T21:20:16Z</time>
      </trkpt>
      <trkpt lat="48.85145" lon="2.34689">
        <ele>40.6</ele>
        <time>2015-11-11T21:20:20Z</time>
      </trkpt>
      <trkpt lat="48.85155" lon="2.34716">
        <ele>39.8</ele>
        <time>2015-11-11T21:20:24Z</time>
      </trkpt>
      <trkpt lat="48.85165" lon="2.34741">
        <ele>39.4</ele>
        <time>2015-11-11T21:20:28Z</time>
      </trkpt>
      <trkpt lat="48.85176" lon="2.34769">
        <ele>39.2</ele>
        <time>2015-11-11T21:20:33Z</time>
      </trkpt>
      <trkpt lat="48.85185" lon="2.34782">
        <ele>38.6</ele>
        <time>2015-11-11T21:20:36Z</time>
      </trkpt>
      <trkpt lat="48.85192" lon="2.34788">
        <ele>38</ele>
        <time>2015-11-11T21:20:38Z</time>
      </trkpt>
      <trkpt lat="48.85202" lon="2.34796">
        <ele>37.6</ele>
        <time>2015-11-11T21:20:41Z</time>
      </trkpt>
      <trkpt lat="48.85218" lon="2.34808">
        <ele>38.2</ele>
        <time>2015-11-11T21:20:46Z</time>
      </trkpt>
      <trkpt lat="48.8523" lon="2.34818">
        <ele>34.6</ele>
        <time>2015-11-11T21:20:51Z</time>
      </trkpt>
      <trkpt lat="48.85247" lon="2.34832">
        <ele>34.8</ele>
        <time>2015-11-11T21:20:59Z</time>
      </trkpt>
      <trkpt lat="48.85264" lon="2.34846">
        <ele>35.4</ele>
        <time>2015-11-11T21:21:05Z</time>
      </trkpt>
      <trkpt lat="48.85279" lon="2.34863">
        <ele>36.4</ele>
        <time>2015-11-11T21:21:11Z</time>
      </trkpt>
      <trkpt lat="48.85299" lon="2.34877">
        <ele>35.4</ele>
        <time>2015-11-11T21:21:17Z</time>
      </trkpt>
      <trkpt lat="48.85315" lon="2.3489">
        <ele>33.4</ele>
        <time>2015-11-11T21:21:22Z</time>
      </trkpt>
      <trkpt lat="48.85332" lon="2.34901">
        <ele>32.8</ele>
        <time>2015-11-11T21:21:28Z</time>
      </trkpt>
      <trkpt lat="48.85351" lon="2.34912">
        <ele>33.2</ele>
        <time>2015-11-11T21:21:34Z</time>
      </trkpt>
      <trkpt lat="48.85357" lon="2.34915">
        <ele>33.2</ele>
        <time>2015-11-11T21:21:37Z</time>
      </trkpt>
      <trkpt lat="48.85376" lon="2.34928">
        <ele>33.8</ele>
        <time>2015-11-11T21:21:43Z</time>
      </trkpt>
      <trkpt lat="48.85393" lon="2.3494">
        <ele>34.6</ele>
        <time>2015-11-11T21:21:48Z</time>
      </trkpt>
      <trkpt lat="48.85412" lon="2.34953">
        <ele>35.8</ele>
        <time>2015-11-11T21:21:53Z</time>
      </trkpt>
      <trkpt lat="48.85428" lon="2.34966">
        <ele>37.6</ele>
        <time>2015-11-11T21:21:58Z</time>
      </trkpt>
      <trkpt lat="48.85446" lon="2.34976">
        <ele>39</ele>
        <time>2015-11-11T21:22:02Z</time>
      </trkpt>
      <trkpt lat="48.85465" lon="2.3499">
        <ele>41</ele>
        <time>2015-11-11T21:22:07Z</time>
      </trkpt>
      <trkpt lat="48.85483" lon="2.35002">
        <ele>43.2</ele>
        <time>2015-11-11T21:22:12Z</time>
      </trkpt>
      <trkpt lat="48.85501" lon="2.35021">
        <ele>40.6</ele>
        <time>2015-11-11T21:22:17Z</time>
      </trkpt>
      <trkpt lat="48.85521" lon="2.35034">
        <ele>38.8</ele>
        <time>2015-11-11T21:22:22Z</time>
      </trkpt>
      <trkpt lat="48.8554" lon="2.35048">
        <ele>36.4</ele>
        <time>2015-11-11T21:22:27Z</time>
      </trkpt>
      <trkpt lat="48.85557" lon="2.35059">
        <ele>37.2</ele>
        <time>2015-11-11T21:22:31Z</time>
      </trkpt>
      <trkpt lat="48.85576" lon="2.35072">
        <ele>37</ele>
        <time>2015-11-11T21:22:36Z</time>
      </trkpt>
      <trkpt lat="48.85584" lon="2.35078">
        <ele>37</ele>
        <time>2015-11-11T21:22:39Z</time>
      </trkpt>
      <trkpt lat="48.85592" lon="2.3508">
        <ele>36.6</ele>
        <time>2015-11-11T21:22:44Z</time>
      </trkpt>
      <trkpt lat="48.85594" lon="2.35079">
        <ele>35.8</ele>
        <time>2015-11-11T21:22:48Z</time>
      </trkpt>
      <trkpt lat="48.8561" lon="2.35078">
        <ele>35.2</ele>
        <time>2015-11-11T21:23:10Z</time>
      </trkpt>
      <trkpt lat="48.85628" lon="2.35084">
        <ele>34.4</ele>
        <time>2015-11-11T21:23:14Z</time>
      </trkpt>
      <trkpt lat="48.85645" lon="2.35092">
        <ele>33.6</ele>
        <time>2015-11-11T21:23:18Z</time>
      </trkpt>
      <trkpt lat="48.85665" lon="2.351">
        <ele>31.4</ele>
        <time>2015-11-11T21:23:23Z</time>
      </trkpt>
      <trkpt lat="48.85683" lon="2.35087">
        <ele>30</ele>
        <time>2015-11-11T21:23:28Z</time>
      </trkpt>
      <trkpt lat="48.85693" lon="2.35061">
        <ele>29</ele>
        <time>2015-11-11T21:23:33Z</time>
      </trkpt>
      <trkpt lat="48.85703" lon="2.35033">
        <ele>28.8</ele>
        <time>2015-11-11T21:23:38Z</time>
      </trkpt>
      <trkpt lat="48.85707" lon="2.35004">
        <ele>28</ele>
        <time>2015-11-11T21:23:44Z</time>
      </trkpt>
      <trkpt lat="48.85711" lon="2.34974">
        <ele>28.4</ele>
        <time>2015-11-11T21:23:51Z</time>
      </trkpt>
      <trkpt lat="48.85718" lon="2.34952">
        <ele>28.4</ele>
        <time>2015-11-11T21:24:02Z</time>
      </trkpt>
      <trkpt lat="48.85735" lon="2.3493">
        <ele>32.8</ele>
        <time>2015-11-11T21:24:29Z</time>
      </trkpt>
      <trkpt lat="48.85742" lon="2.34903">
        <ele>32.4</ele>
        <time>2015-11-11T21:24:35Z</time>
      </trkpt>
      <trkpt lat="48.8575" lon="2.34876">
        <ele>32.2</ele>
        <time>2015-11-11T21:24:40Z</time>
      </trkpt>
      <trkpt lat="48.85758" lon="2.34847">
        <ele>30.4</ele>
        <time>2015-11-11T21:24:45Z</time>
      </trkpt>
      <trkpt lat="48.85768" lon="2.34818">
        <ele>29.4</ele>
        <time>2015-11-11T21:24:50Z</time>
      </trkpt>
      <trkpt lat="48.85775" lon="2.34792">
        <ele>30.2</ele>
        <time>2015-11-11T21:24:54Z</time>
      </trkpt>
      <trkpt lat="48.85783" lon="2.34762">
        <ele>29.6</ele>
        <time>2015-11-11T21:24:59Z</time>
      </trkpt>
      <trkpt lat="48.85797" lon="2.34736">
        <ele>28.8</ele>
        <time>2015-11-11T21:25:04Z</time>
      </trkpt>
      <trkpt lat="48.85815" lon="2.34733">
        <ele>28.8</ele>
        <time>2015-11-11T21:25:08Z</time>
      </trkpt>
      <trkpt lat="48.85833" lon="2.34734">
        <ele>31</ele>
        <time>2015-11-11T21:25:12Z</time>
      </trkpt>
      <trkpt lat="48.85852" lon="2.34737">
        <ele>39.8</ele>
        <time>2015-11-11T21:25:17Z</time>
      </trkpt>
      <trkpt lat="48.8586" lon="2.34738">
        <ele>42</ele>
        <time>2015-11-11T21:25:19Z</time>
      </trkpt>
      <trkpt lat="48.85869" lon="2.3474">
        <ele>42.4</ele>
        <time>2015-11-11T21:25:21Z</time>
      </trkpt>
      <trkpt lat="48.85878" lon="2.3474">
        <ele>42.8</ele>
        <time>2015-11-11T21:25:23Z</time>
      </trkpt>
      <trkpt lat="48.85888" lon="2.3474">
        <ele>43.8</ele>
        <time>2015-11-11T21:25:26Z</time>
      </trkpt>
      <trkpt lat="48.85896" lon="2.34737">
        <ele>44.6</ele>
        <time>2015-11-11T21:25:28Z</time>
      </trkpt>
      <trkpt lat="48.85914" lon="2.34721">
        <ele>45.8</ele>
        <time>2015-11-11T21:25:33Z</time>
      </trkpt>
      <trkpt lat="48.85931" lon="2.34707">
        <ele>48.6</ele>
        <time>2015-11-11T21:25:38Z</time>
      </trkpt>
      <trkpt lat="48.85937" lon="2.34703">
        <ele>49</ele>
        <time>2015-11-11T21:25:40Z</time>
      </trkpt>
      <trkpt lat="48.85955" lon="2.34691">
        <ele>50.4</ele>
        <time>2015-11-11T21:25:47Z</time>
      </trkpt>
      <trkpt lat="48.85974" lon="2.3468">
        <ele>51</ele>
        <time>2015-11-11T21:25:53Z</time>
      </trkpt>
      <trkpt lat="48.85991" lon="2.34664">
        <ele>52</ele>
        <time>2015-11-11T21:25:59Z</time>
      </trkpt>
      <trkpt lat="48.86007" lon="2.34653">
        <ele>52.4</ele>
        <time>2015-11-11T21:26:04Z</time>
      </trkpt>
      <trkpt lat="48.86026" lon="2.34643">
        <ele>54</ele>
        <time>2015-11-11T21:26:10Z</time>
      </trkpt>
      <trkpt lat="48.86046" lon="2.34629">
        <ele>55.6</ele>
        <time>2015-11-11T21:26:16Z</time>
      </trkpt>
      <trkpt lat="48.86067" lon="2.34616">
        <ele>55.8</ele>
        <time>2015-11-11T21:26:20Z</time>
      </trkpt>
      <trkpt lat="48.86085" lon="2.34605">
        <ele>56</ele>
        <time>2015-11-11T21:26:23Z</time>
      </trkpt>
      <trkpt lat="48.86096" lon="2.34581">
        <ele>54.6</ele>
        <time>2015-11-11T21:26:28Z</time>
      </trkpt>
      <trkpt lat="48.86101" lon="2.34567">
        <ele>53.4</ele>
        <time>2015-11-11T21:26:31Z</time>
      </trkpt>
      <trkpt lat="48.86103" lon="2.34552">
        <ele>52.4</ele>
        <time>2015-11-11T21:26:34Z</time>
      </trkpt>
      <trkpt lat="48.86109" lon="2.34521">
        <ele>51.2</ele>
        <time>2015-11-11T21:26:39Z</time>
      </trkpt>
      <trkpt lat="48.86114" lon="2.34499">
        <ele>50.2</ele>
        <time>2015-11-11T21:26:43Z</time>
      </trkpt>
      <trkpt lat="48.86128" lon="2.34499">
        <ele>49</ele>
        <time>2015-11-11T21:26:48Z</time>
      </trkpt>
      <trkpt lat="48.86147" lon="2.345">
        <ele>46.6</ele>
        <time>2015-11-11T21:26:54Z</time>
      </trkpt>
      <trkpt lat="48.86169" lon="2.34488">
        <ele>44.8</ele>
        <time>2015-11-11T21:26:58Z</time>
      </trkpt>
      <trkpt lat="48.86183" lon="2.34468">
        <ele>41.4</ele>
        <time>2015-11-11T21:27:02Z</time>
      </trkpt>
      <trkpt lat="48.86186" lon="2.34434">
        <ele>35.2</ele>
        <time>2015-11-11T21:27:07Z</time>
      </trkpt>
      <trkpt lat="48.86196" lon="2.34407">
        <ele>31.4</ele>
        <time>2015-11-11T21:27:11Z</time>
      </trkpt>
      <trkpt lat="48.86198" lon="2.344">
        <ele>30.4</ele>
        <time>2015-11-11T21:27:12Z</time>
      </trkpt>
      <trkpt lat="48.86202" lon="2.3438">
        <ele>27.6</ele>
        <time>2015-11-11T21:27:15Z</time>
      </trkpt>
      <trkpt lat="48.86204" lon="2.34349">
        <ele>25.4</ele>
        <time>2015-11-11T21:27:19Z</time>
      </trkpt>
      <trkpt lat="48.86205" lon="2.34335">
        <ele>24.2</ele>
        <time>2015-11-11T21:27:21Z</time>
      </trkpt>
      <trkpt lat="48.8621" lon="2.34315">
        <ele>22.8</ele>
        <time>2015-11-11T21:27:24Z</time>
      </trkpt>
      <trkpt lat="48.86218" lon="2.34286">
        <ele>21.4</ele>
        <time>2015-11-11T21:27:28Z</time>
      </trkpt>
      <trkpt lat="48.86226" lon="2.34257">
        <ele>21.2</ele>
        <time>2015-11-11T21:27:32Z</time>
      </trkpt>
      <trkpt lat="48.86231" lon="2.3423">
        <ele>21</ele>
        <time>2015-11-11T21:27:36Z</time>
      </trkpt>
      <trkpt lat="48.86242" lon="2.34201">
        <ele>23.2</ele>
        <time>2015-11-11T21:27:41Z</time>
      </trkpt>
      <trkpt lat="48.86248" lon="2.34189">
        <ele>23.4</ele>
        <time>2015-11-11T21:27:44Z</time>
      </trkpt>
      <trkpt lat="48.86248" lon="2.3418">
        <ele>26.6</ele>
        <time>2015-11-11T21:27:50Z</time>
      </trkpt>
      <trkpt lat="48.86247" lon="2.3418">
        <ele>27</ele>
        <time>2015-11-11T21:27:51Z</time>
      </trkpt>
      <trkpt lat="48.8626" lon="2.3418">
        <ele>35</ele>
        <time>2015-11-11T21:28:06Z</time>
      </trkpt>
      <trkpt lat="48.8628" lon="2.34189">
        <ele>39</ele>
        <time>2015-11-11T21:28:12Z</time>
      </trkpt>
      <trkpt lat="48.863" lon="2.34199">
        <ele>40.4</ele>
        <time>2015-11-11T21:28:17Z</time>
      </trkpt>
      <trkpt lat="48.8632" lon="2.34204">
        <ele>42.4</ele>
        <time>2015-11-11T21:28:22Z</time>
      </trkpt>
      <trkpt lat="48.86338" lon="2.34213">
        <ele>43.6</ele>
        <time>2015-11-11T21:28:27Z</time>
      </trkpt>
      <trkpt lat="48.86355" lon="2.34224">
        <ele>44</ele>
        <time>2015-11-11T21:28:32Z</time>
      </trkpt>
      <trkpt lat="48.86374" lon="2.34233">
        <ele>45.6</ele>
        <time>2015-11-11T21:28:37Z</time>
      </trkpt>
      <trkpt lat="48.86395" lon="2.34244">
        <ele>47.2</ele>
        <time>2015-11-11T21:28:41Z</time>
      </trkpt>
      <trkpt lat="48.86413" lon="2.34251">
        <ele>48.8</ele>
        <time>2015-11-11T21:28:45Z</time>
      </trkpt>
      <trkpt lat="48.86422" lon="2.34253">
        <ele>50.4</ele>
        <time>2015-11-11T21:28:47Z</time>
      </trkpt>
      <trkpt lat="48.86443" lon="2.34264">
        <ele>52.2</ele>
        <time>2015-11-11T21:28:51Z</time>
      </trkpt>
      <trkpt lat="48.86461" lon="2.34274">
        <ele>53.4</ele>
        <time>2015-11-11T21:28:55Z</time>
      </trkpt>
      <trkpt lat="48.86465" lon="2.34276">
        <ele>53.6</ele>
        <time>2015-11-11T21:28:56Z</time>
      </trkpt>
      <trkpt lat="48.86483" lon="2.34283">
        <ele>56.6</ele>
        <time>2015-11-11T21:29:01Z</time>
      </trkpt>
      <trkpt lat="48.86497" lon="2.34287">
        <ele>57.2</ele>
        <time>2015-11-11T21:29:05Z</time>
      </trkpt>
      <trkpt lat="48.86513" lon="2.343">
        <ele>60</ele>
        <time>2015-11-11T21:29:16Z</time>
      </trkpt>
      <trkpt lat="48.86525" lon="2.34306">
        <ele>65</ele>
        <time>2015-11-11T21:29:36Z</time>
      </trkpt>
      <trkpt lat="48.86528" lon="2.34307">
        <ele>65.2</ele>
        <time>2015-11-11T21:29:38Z</time>
      </trkpt>
      <trkpt lat="48.86547" lon="2.34316">
        <ele>66.4</ele>
        <time>2015-11-11T21:29:44Z</time>
      </trkpt>
      <trkpt lat="48.86567" lon="2.3433">
        <ele>65</ele>
        <time>2015-11-11T21:29:50Z</time>
      </trkpt>
      <trkpt lat="48.86584" lon="2.34341">
        <ele>65.2</ele>
        <time>2015-11-11T21:29:56Z</time>
      </trkpt>
      <trkpt lat="48.86603" lon="2.34349">
        <ele>65.2</ele>
        <time>2015-11-11T21:30:03Z</time>
      </trkpt>
      <trkpt lat="48.86622" lon="2.34356">
        <ele>65</ele>
        <time>2015-11-11T21:30:08Z</time>
      </trkpt>
      <trkpt lat="48.86639" lon="2.34369">
        <ele>63.6</ele>
        <time>2015-11-11T21:30:13Z</time>
      </trkpt>
      <trkpt lat="48.86658" lon="2.3439">
        <ele>63.4</ele>
        <time>2015-11-11T21:30:18Z</time>
      </trkpt>
      <trkpt lat="48.86675" lon="2.34414">
        <ele>55.6</ele>
        <time>2015-11-11T21:30:21Z</time>
      </trkpt>
      <trkpt lat="48.86687" lon="2.34435">
        <ele>48.6</ele>
        <time>2015-11-11T21:30:24Z</time>
      </trkpt>
      <trkpt lat="48.86695" lon="2.34455">
        <ele>45.4</ele>
        <time>2015-11-11T21:30:27Z</time>
      </trkpt>
      <trkpt lat="48.86708" lon="2.34477">
        <ele>41.6</ele>
        <time>2015-11-11T21:30:31Z</time>
      </trkpt>
      <trkpt lat="48.86721" lon="2.34504">
        <ele>37.2</ele>
        <time>2015-11-11T21:30:36Z</time>
      </trkpt>
      <trkpt lat="48.86724" lon="2.34516">
        <ele>34.6</ele>
        <time>2015-11-11T21:30:38Z</time>
      </trkpt>
      <trkpt lat="48.86732" lon="2.34531">
        <ele>33.2</ele>
        <time>2015-11-11T21:30:41Z</time>
      </trkpt>
      <trkpt lat="48.86747" lon="2.34551">
        <ele>32.6</ele>
        <time>2015-11-11T21:30:45Z</time>
      </trkpt>
      <trkpt lat="48.86751" lon="2.34556">
        <ele>33.2</ele>
        <time>2015-11-11T21:30:46Z</time>
      </trkpt>
      <trkpt lat="48.86758" lon="2.34572">
        <ele>33.6</ele>
        <time>2015-11-11T21:30:49Z</time>
      </trkpt>
      <trkpt lat="48.86765" lon="2.34592">
        <ele>35</ele>
        <time>2015-11-11T21:30:53Z</time>
      </trkpt>
      <trkpt lat="48.86762" lon="2.34615">
        <ele>35.4</ele>
        <time>2015-11-11T21:30:59Z</time>
      </trkpt>
      <trkpt lat="48.8676" lon="2.34643">
        <ele>38.4</ele>
        <time>2015-11-11T21:31:13Z</time>
      </trkpt>
      <trkpt lat="48.86767" lon="2.34669">
        <ele>38.8</ele>
        <time>2015-11-11T21:31:18Z</time>
      </trkpt>
      <trkpt lat="48.86778" lon="2.34696">
        <ele>39.4</ele>
        <time>2015-11-11T21:31:23Z</time>
      </trkpt>
      <trkpt lat="48.86789" lon="2.3472">
        <ele>41.4</ele>
        <time>2015-11-11T21:31:27Z</time>
      </trkpt>
      <trkpt lat="48.86789" lon="2.34727">
        <ele>41.6</ele>
        <time>2015-11-11T21:31:28Z</time>
      </trkpt>
      <trkpt lat="48.86796" lon="2.34752">
        <ele>42.4</ele>
        <time>2015-11-11T21:31:32Z</time>
      </trkpt>
      <trkpt lat="48.86806" lon="2.34782">
        <ele>42.6</ele>
        <time>2015-11-11T21:31:37Z</time>
      </trkpt>
      <trkpt lat="48.86818" lon="2.34808">
        <ele>41.8</ele>
        <time>2015-11-11T21:31:42Z</time>
      </trkpt>
      <trkpt lat="48.86823" lon="2.34837">
        <ele>41.2</ele>
        <time>2015-11-11T21:31:47Z</time>
      </trkpt>
      <trkpt lat="48.86835" lon="2.34861">
        <ele>40.4</ele>
        <time>2015-11-11T21:31:52Z</time>
      </trkpt>
      <trkpt lat="48.86836" lon="2.34867">
        <ele>40.4</ele>
        <time>2015-11-11T21:31:53Z</time>
      </trkpt>
      <trkpt lat="48.8684" lon="2.3488">
        <ele>39.6</ele>
        <time>2015-11-11T21:31:55Z</time>
      </trkpt>
      <trkpt lat="48.86853" lon="2.34902">
        <ele>38.4</ele>
        <time>2015-11-11T21:31:59Z</time>
      </trkpt>
      <trkpt lat="48.8686" lon="2.34918">
        <ele>35.6</ele>
        <time>2015-11-11T21:32:02Z</time>
      </trkpt>
      <trkpt lat="48.86872" lon="2.34941">
        <ele>34</ele>
        <time>2015-11-11T21:32:06Z</time>
      </trkpt>
      <trkpt lat="48.86874" lon="2.34948">
        <ele>34.2</ele>
        <time>2015-11-11T21:32:07Z</time>
      </trkpt>
      <trkpt lat="48.86886" lon="2.34971">
        <ele>34</ele>
        <time>2015-11-11T21:32:11Z</time>
      </trkpt>
      <trkpt lat="48.86898" lon="2.34995">
        <ele>33.8</ele>
        <time>2015-11-11T21:32:15Z</time>
      </trkpt>
      <trkpt lat="48.86899" lon="2.35003">
        <ele>33.8</ele>
        <time>2015-11-11T21:32:16Z</time>
      </trkpt>
      <trkpt lat="48.86911" lon="2.35027">
        <ele>36</ele>
        <time>2015-11-11T21:32:20Z</time>
      </trkpt>
      <trkpt lat="48.86917" lon="2.35046">
        <ele>36.8</ele>
        <time>2015-11-11T21:32:23Z</time>
      </trkpt>
      <trkpt lat="48.8692" lon="2.35076">
        <ele>36</ele>
        <time>2015-11-11T21:32:27Z</time>
      </trkpt>
      <trkpt lat="48.86922" lon="2.3509">
        <ele>35.8</ele>
        <time>2015-11-11T21:32:29Z</time>
      </trkpt>
      <trkpt lat="48.86927" lon="2.35119">
        <ele>34.6</ele>
        <time>2015-11-11T21:32:33Z</time>
      </trkpt>
      <trkpt lat="48.86927" lon="2.35139">
        <ele>33.4</ele>
        <time>2015-11-11T21:32:36Z</time>
      </trkpt>
      <trkpt lat="48.86934" lon="2.35165">
        <ele>33.2</ele>
        <time>2015-11-11T21:32:40Z</time>
      </trkpt>
      <trkpt lat="48.86939" lon="2.35194">
        <ele>33.6</ele>
        <time>2015-11-11T21:32:44Z</time>
      </trkpt>
      <trkpt lat="48.86937" lon="2.35203">
        <ele>33.2</ele>
        <time>2015-11-11T21:32:45Z</time>
      </trkpt>
      <trkpt lat="48.86939" lon="2.3523">
        <ele>33.8</ele>
        <time>2015-11-11T21:32:49Z</time>
      </trkpt>
      <trkpt lat="48.86939" lon="2.35243">
        <ele>35.2</ele>
        <time>2015-11-11T21:32:52Z</time>
      </trkpt>
      <trkpt lat="48.86937" lon="2.35247">
        <ele>35.4</ele>
        <time>2015-11-11T21:32:54Z</time>
      </trkpt>
      <trkpt lat="48.86932" lon="2.35247">
        <ele>37</ele>
        <time>2015-11-11T21:32:58Z</time>
      </trkpt>
      <trkpt lat="48.86925" lon="2.35254">
        <ele>38.6</ele>
        <time>2015-11-11T21:33:03Z</time>
      </trkpt>
      <trkpt lat="48.86923" lon="2.35259">
        <ele>39</ele>
        <time>2015-11-11T21:33:04Z</time>
      </trkpt>
      <trkpt lat="48.86912" lon="2.35283">
        <ele>39.6</ele>
        <time>2015-11-11T21:33:10Z</time>
      </trkpt>
      <trkpt lat="48.86906" lon="2.35313">
        <ele>40</ele>
        <time>2015-11-11T21:33:17Z</time>
      </trkpt>
      <trkpt lat="48.86902" lon="2.3534">
        <ele>40.2</ele>
        <time>2015-11-11T21:33:23Z</time>
      </trkpt>
      <trkpt lat="48.86902" lon="2.35372">
        <ele>40.6</ele>
        <time>2015-11-11T21:33:29Z</time>
      </trkpt>
      <trkpt lat="48.86901" lon="2.35385">
        <ele>40.8</ele>
        <time>2015-11-11T21:33:34Z</time>
      </trkpt>
      <trkpt lat="48.8689" lon="2.35403">
        <ele>41.8</ele>
        <time>2015-11-11T21:33:43Z</time>
      </trkpt>
      <trkpt lat="48.86876" lon="2.35417">
        <ele>43.8</ele>
        <time>2015-11-11T21:33:49Z</time>
      </trkpt>
      <trkpt lat="48.86866" lon="2.35443">
        <ele>45.2</ele>
        <time>2015-11-11T21:33:55Z</time>
      </trkpt>
      <trkpt lat="48.8686" lon="2.35473">
        <ele>45</ele>
        <time>2015-11-11T21:34:02Z</time>
      </trkpt>
      <trkpt lat="48.8686" lon="2.35508">
        <ele>44.2</ele>
        <time>2015-11-11T21:34:10Z</time>
      </trkpt>
      <trkpt lat="48.86866" lon="2.35518">
        <ele>43.6</ele>
        <time>2015-11-11T21:34:14Z</time>
      </trkpt>
      <trkpt lat="48.86867" lon="2.35521">
        <ele>43</ele>
        <time>2015-11-11T21:34:16Z</time>
      </trkpt>
      <trkpt lat="48.86866" lon="2.35529">
        <ele>43.8</ele>
        <time>2015-11-11T21:34:23Z</time>
      </trkpt>
      <trkpt lat="48.86854" lon="2.35537">
        <ele>44.2</ele>
        <time>2015-11-11T21:34:31Z</time>
      </trkpt>
      <trkpt lat="48.86836" lon="2.35527">
        <ele>44</ele>
        <time>2015-11-11T21:34:38Z</time>
      </trkpt>
      <trkpt lat="48.86819" lon="2.35516">
        <ele>43.4</ele>
        <time>2015-11-11T21:34:44Z</time>
      </trkpt>
      <trkpt lat="48.86801" lon="2.35509">
        <ele>42.6</ele>
        <time>2015-11-11T21:34:51Z</time>
      </trkpt>
      <trkpt lat="48.8678" lon="2.35496">
        <ele>42.2</ele>
        <time>2015-11-11T21:34:58Z</time>
      </trkpt>
      <trkpt lat="48.86761" lon="2.35485">
        <ele>42.2</ele>
        <time>2015-11-11T21:35:03Z</time>
      </trkpt>
      <trkpt lat="48.86742" lon="2.35475">
        <ele>40</ele>
        <time>2015-11-11T21:35:06Z</time>
      </trkpt>
      <trkpt lat="48.86723" lon="2.35462">
        <ele>38.8</ele>
        <time>2015-11-11T21:35:10Z</time>
      </trkpt>
      <trkpt lat="48.86707" lon="2.35449">
        <ele>39.2</ele>
        <time>2015-11-11T21:35:14Z</time>
      </trkpt>
      <trkpt lat="48.8669" lon="2.35438">
        <ele>39.6</ele>
        <time>2015-11-11T21:35:18Z</time>
      </trkpt>
      <trkpt lat="48.86673" lon="2.35426">
        <ele>39.2</ele>
        <time>2015-11-11T21:35:22Z</time>
      </trkpt>
      <trkpt lat="48.86657" lon="2.35416">
        <ele>39.2</ele>
        <time>2015-11-11T21:35:26Z</time>
      </trkpt>
      <trkpt lat="48.86638" lon="2.35404">
        <ele>40</ele>
        <time>2015-11-11T21:35:31Z</time>
      </trkpt>
      <trkpt lat="48.86634" lon="2.35403">
        <ele>40.2</ele>
        <time>2015-11-11T21:35:32Z</time>
      </trkpt>
      <trkpt lat="48.86614" lon="2.35393">
        <ele>42.2</ele>
        <time>2015-11-11T21:35:38Z</time>
      </trkpt>
      <trkpt lat="48.86608" lon="2.35388">
        <ele>40.4</ele>
        <time>2015-11-11T21:35:41Z</time>
      </trkpt>
      <trkpt lat="48.86591" lon="2.35401">
        <ele>39.2</ele>
        <time>2015-11-11T21:35:49Z</time>
      </trkpt>
      <trkpt lat="48.8658" lon="2.35427">
        <ele>39.8</ele>
        <time>2015-11-11T21:35:55Z</time>
      </trkpt>
      <trkpt lat="48.86576" lon="2.35455">
        <ele>38.8</ele>
        <time>2015-11-11T21:36:00Z</time>
      </trkpt>
      <trkpt lat="48.8657" lon="2.35484">
        <ele>37.8</ele>
        <time>2015-11-11T21:36:05Z</time>
      </trkpt>
      <trkpt lat="48.86565" lon="2.35516">
        <ele>37.4</ele>
        <time>2015-11-11T21:36:10Z</time>
      </trkpt>
      <trkpt lat="48.86559" lon="2.35547">
        <ele>38</ele>
        <time>2015-11-11T21:36:15Z</time>
      </trkpt>
      <trkpt lat="48.86553" lon="2.35575">
        <ele>35.6</ele>
        <time>2015-11-11T21:36:21Z</time>
      </trkpt>
      <trkpt lat="48.86551" lon="2.35605">
        <ele>35.2</ele>
        <time>2015-11-11T21:36:43Z</time>
      </trkpt>
      <trkpt lat="48.86545" lon="2.35634">
        <ele>35.2</ele>
        <time>2015-11-11T21:36:49Z</time>
      </trkpt>
      <trkpt lat="48.8654" lon="2.35665">
        <ele>35</ele>
        <time>2015-11-11T21:36:54Z</time>
      </trkpt>
      <trkpt lat="48.86533" lon="2.35697">
        <ele>35</ele>
        <time>2015-11-11T21:36:59Z</time>
      </trkpt>
      <trkpt lat="48.86531" lon="2.35704">
        <ele>35.4</ele>
        <time>2015-11-11T21:37:00Z</time>
      </trkpt>
      <trkpt lat="48.86524" lon="2.35733">
        <ele>36.4</ele>
        <time>2015-11-11T21:37:04Z</time>
      </trkpt>
      <trkpt lat="48.86515" lon="2.35761">
        <ele>37.4</ele>
        <time>2015-11-11T21:37:08Z</time>
      </trkpt>
      <trkpt lat="48.86514" lon="2.35768">
        <ele>37.6</ele>
        <time>2015-11-11T21:37:09Z</time>
      </trkpt>
      <trkpt lat="48.86507" lon="2.35796">
        <ele>38</ele>
        <time>2015-11-11T21:37:13Z</time>
      </trkpt>
      <trkpt lat="48.86499" lon="2.35822">
        <ele>38</ele>
        <time>2015-11-11T21:37:17Z</time>
      </trkpt>
      <trkpt lat="48.86491" lon="2.35848">
        <ele>37.2</ele>
        <time>2015-11-11T21:37:21Z</time>
      </trkpt>
      <trkpt lat="48.86484" lon="2.35875">
        <ele>36.4</ele>
        <time>2015-11-11T21:37:25Z</time>
      </trkpt>
      <trkpt lat="48.86478" lon="2.35901">
        <ele>36</ele>
        <time>2015-11-11T21:37:29Z</time>
      </trkpt>
      <trkpt lat="48.86472" lon="2.35925">
        <ele>33.8</ele>
        <time>2015-11-11T21:37:33Z</time>
      </trkpt>
      <trkpt lat="48.86465" lon="2.35954">
        <ele>30.8</ele>
        <time>2015-11-11T21:37:38Z</time>
      </trkpt>
      <trkpt lat="48.86459" lon="2.35969">
        <ele>30.6</ele>
        <time>2015-11-11T21:37:41Z</time>
      </trkpt>
      <trkpt lat="48.86445" lon="2.3599">
        <ele>30.2</ele>
        <time>2015-11-11T21:37:46Z</time>
      </trkpt>
      <trkpt lat="48.86433" lon="2.36011">
        <ele>31.4</ele>
        <time>2015-11-11T21:37:50Z</time>
      </trkpt>
      <trkpt lat="48.86424" lon="2.36025">
        <ele>31.8</ele>
        <time>2015-11-11T21:37:53Z</time>
      </trkpt>
      <trkpt lat="48.86411" lon="2.36046">
        <ele>32.4</ele>
        <time>2015-11-11T21:37:57Z</time>
      </trkpt>
      <trkpt lat="48.86399" lon="2.36068">
        <ele>33.8</ele>
        <time>2015-11-11T21:38:01Z</time>
      </trkpt>
      <trkpt lat="48.86387" lon="2.36088">
        <ele>35</ele>
        <time>2015-11-11T21:38:05Z</time>
      </trkpt>
      <trkpt lat="48.86378" lon="2.36103">
        <ele>35.2</ele>
        <time>2015-11-11T21:38:08Z</time>
      </trkpt>
      <trkpt lat="48.86365" lon="2.36125">
        <ele>35</ele>
        <time>2015-11-11T21:38:16Z</time>
      </trkpt>
      <trkpt lat="48.8636" lon="2.36132">
        <ele>35.2</ele>
        <time>2015-11-11T21:38:18Z</time>
      </trkpt>
      <trkpt lat="48.86345" lon="2.36151">
        <ele>34.4</ele>
        <time>2015-11-11T21:38:24Z</time>
      </trkpt>
      <trkpt lat="48.86329" lon="2.36165">
        <ele>35.2</ele>
        <time>2015-11-11T21:38:29Z</time>
      </trkpt>
      <trkpt lat="48.86315" lon="2.36185">
        <ele>35.6</ele>
        <time>2015-11-11T21:38:34Z</time>
      </trkpt>
      <trkpt lat="48.863" lon="2.36206">
        <ele>35.4</ele>
        <time>2015-11-11T21:38:39Z</time>
      </trkpt>
      <trkpt lat="48.86286" lon="2.36226">
        <ele>35.8</ele>
        <time>2015-11-11T21:38:44Z</time>
      </trkpt>
      <trkpt lat="48.86276" lon="2.36252">
        <ele>36.2</ele>
        <time>2015-11-11T21:38:49Z</time>
      </trkpt>
      <trkpt lat="48.86266" lon="2.36277">
        <ele>36</ele>
        <time>2015-11-11T21:38:54Z</time>
      </trkpt>
      <trkpt lat="48.86253" lon="2.36304">
        <ele>36</ele>
        <time>2015-11-11T21:38:59Z</time>
      </trkpt>
      <trkpt lat="48.8624" lon="2.36331">
        <ele>35.4</ele>
        <time>2015-11-11T21:39:04Z</time>
      </trkpt>
      <trkpt lat="48.86228" lon="2.36354">
        <ele>35.6</ele>
        <time>2015-11-11T21:39:08Z</time>
      </trkpt>
      <trkpt lat="48.86227" lon="2.3636">
        <ele>35.6</ele>
        <time>2015-11-11T21:39:09Z</time>
      </trkpt>
      <trkpt lat="48.86213" lon="2.36385">
        <ele>35.6</ele>
        <time>2015-11-11T21:39:14Z</time>
      </trkpt>
      <trkpt lat="48.862" lon="2.36404">
        <ele>35</ele>
        <time>2015-11-11T21:39:18Z</time>
      </trkpt>
      <trkpt lat="48.86193" lon="2.36419">
        <ele>33.6</ele>
        <time>2015-11-11T21:39:21Z</time>
      </trkpt>
      <trkpt lat="48.86189" lon="2.36436">
        <ele>33.4</ele>
        <time>2015-11-11T21:39:25Z</time>
      </trkpt>
      <trkpt lat="48.86188" lon="2.36447">
        <ele>34.8</ele>
        <time>2015-11-11T21:39:28Z</time>
      </trkpt>
      <trkpt lat="48.86175" lon="2.36454">
        <ele>34.2</ele>
        <time>2015-11-11T21:39:33Z</time>
      </trkpt>
      <trkpt lat="48.86155" lon="2.36455">
        <ele>33.4</ele>
        <time>2015-11-11T21:39:39Z</time>
      </trkpt>
      <trkpt lat="48.86135" lon="2.36456">
        <ele>32.4</ele>
        <time>2015-11-11T21:39:44Z</time>
      </trkpt>
      <trkpt lat="48.86113" lon="2.36458">
        <ele>32.4</ele>
        <time>2015-11-11T21:39:49Z</time>
      </trkpt>
      <trkpt lat="48.86095" lon="2.36459">
        <ele>32.4</ele>
        <time>2015-11-11T21:39:53Z</time>
      </trkpt>
      <trkpt lat="48.86077" lon="2.36458">
        <ele>32.2</ele>
        <time>2015-11-11T21:39:57Z</time>
      </trkpt>
      <trkpt lat="48.86059" lon="2.36458">
        <ele>31.2</ele>
        <time>2015-11-11T21:40:01Z</time>
      </trkpt>
      <trkpt lat="48.8604" lon="2.36458">
        <ele>30.2</ele>
        <time>2015-11-11T21:40:05Z</time>
      </trkpt>
      <trkpt lat="48.86021" lon="2.3646">
        <ele>29</ele>
        <time>2015-11-11T21:40:09Z</time>
      </trkpt>
      <trkpt lat="48.85999" lon="2.36459">
        <ele>30.4</ele>
        <time>2015-11-11T21:40:13Z</time>
      </trkpt>
      <trkpt lat="48.85978" lon="2.36457">
        <ele>30.6</ele>
        <time>2015-11-11T21:40:17Z</time>
      </trkpt>
      <trkpt lat="48.85958" lon="2.36456">
        <ele>30.4</ele>
        <time>2015-11-11T21:40:21Z</time>
      </trkpt>
      <trkpt lat="48.85936" lon="2.36457">
        <ele>31.2</ele>
        <time>2015-11-11T21:40:25Z</time>
      </trkpt>
      <trkpt lat="48.85915" lon="2.36457">
        <ele>30.6</ele>
        <time>2015-11-11T21:40:29Z</time>
      </trkpt>
      <trkpt lat="48.85892" lon="2.36454">
        <ele>31.6</ele>
        <time>2015-11-11T21:40:33Z</time>
      </trkpt>
      <trkpt lat="48.85869" lon="2.36452">
        <ele>31.4</ele>
        <time>2015-11-11T21:40:37Z</time>
      </trkpt>
      <trkpt lat="48.85847" lon="2.36451">
        <ele>30.6</ele>
        <time>2015-11-11T21:40:41Z</time>
      </trkpt>
      <trkpt lat="48.85826" lon="2.3645">
        <ele>31.2</ele>
        <time>2015-11-11T21:40:45Z</time>
      </trkpt>
      <trkpt lat="48.85807" lon="2.3645">
        <ele>31.2</ele>
        <time>2015-11-11T21:40:49Z</time>
      </trkpt>
      <trkpt lat="48.85787" lon="2.36451">
        <ele>31</ele>
        <time>2015-11-11T21:40:53Z</time>
      </trkpt>
      <trkpt lat="48.85767" lon="2.36452">
        <ele>29</ele>
        <time>2015-11-11T21:40:57Z</time>
      </trkpt>
      <trkpt lat="48.85746" lon="2.36453">
        <ele>26.8</ele>
        <time>2015-11-11T21:41:01Z</time>
      </trkpt>
      <trkpt lat="48.85727" lon="2.36452">
        <ele>25.4</ele>
        <time>2015-11-11T21:41:05Z</time>
      </trkpt>
      <trkpt lat="48.85707" lon="2.36452">
        <ele>24.4</ele>
        <time>2015-11-11T21:41:09Z</time>
      </trkpt>
      <trkpt lat="48.85686" lon="2.36454">
        <ele>24</ele>
        <time>2015-11-11T21:41:14Z</time>
      </trkpt>
      <trkpt lat="48.85674" lon="2.36457">
        <ele>23.6</ele>
        <time>2015-11-11T21:41:18Z</time>
      </trkpt>
      <trkpt lat="48.85664" lon="2.36454">
        <ele>24.8</ele>
        <time>2015-11-11T21:41:22Z</time>
      </trkpt>
      <trkpt lat="48.85661" lon="2.36453">
        <ele>25.6</ele>
        <time>2015-11-11T21:41:23Z</time>
      </trkpt>
      <trkpt lat="48.85652" lon="2.36454">
        <ele>28.8</ele>
        <time>2015-11-11T21:41:27Z</time>
      </trkpt>
      <trkpt lat="48.8564" lon="2.36478">
        <ele>28.8</ele>
        <time>2015-11-11T21:41:33Z</time>
      </trkpt>
      <trkpt lat="48.85637" lon="2.36494">
        <ele>27.2</ele>
        <time>2015-11-11T21:41:36Z</time>
      </trkpt>
      <trkpt lat="48.8563" lon="2.36522">
        <ele>27</ele>
        <time>2015-11-11T21:41:41Z</time>
      </trkpt>
      <trkpt lat="48.85626" lon="2.36552">
        <ele>28</ele>
        <time>2015-11-11T21:41:46Z</time>
      </trkpt>
      <trkpt lat="48.8562" lon="2.36585">
        <ele>30.4</ele>
        <time>2015-11-11T21:41:51Z</time>
      </trkpt>
      <trkpt lat="48.85617" lon="2.36597">
        <ele>30.6</ele>
        <time>2015-11-11T21:41:53Z</time>
      </trkpt>
      <trkpt lat="48.85612" lon="2.36628">
        <ele>32.2</ele>
        <time>2015-11-11T21:41:58Z</time>
      </trkpt>
      <trkpt lat="48.85607" lon="2.36657">
        <ele>33</ele>
        <time>2015-11-11T21:42:03Z</time>
      </trkpt>
      <trkpt lat="48.85606" lon="2.36664">
        <ele>33.4</ele>
        <time>2015-11-11T21:42:04Z</time>
      </trkpt>
      <trkpt lat="48.85603" lon="2.36694">
        <ele>34.8</ele>
        <time>2015-11-11T21:42:09Z</time>
      </trkpt>
      <trkpt lat="48.85599" lon="2.36716">
        <ele>35.2</ele>
        <time>2015-11-11T21:42:13Z</time>
      </trkpt>
      <trkpt lat="48.85595" lon="2.36735">
        <ele>35.6</ele>
        <time>2015-11-11T21:42:17Z</time>
      </trkpt>
      <trkpt lat="48.85589" lon="2.36762">
        <ele>34.4</ele>
        <time>2015-11-11T21:42:23Z</time>
      </trkpt>
      <trkpt lat="48.8558" lon="2.36788">
        <ele>35.6</ele>
        <time>2015-11-11T21:42:28Z</time>
      </trkpt>
      <trkpt lat="48.85576" lon="2.36811">
        <ele>36.6</ele>
        <time>2015-11-11T21:42:32Z</time>
      </trkpt>
      <trkpt lat="48.85577" lon="2.36829">
        <ele>38</ele>
        <time>2015-11-11T21:42:37Z</time>
      </trkpt>
      <trkpt lat="48.85579" lon="2.36833">
        <ele>37.8</ele>
        <time>2015-11-11T21:42:39Z</time>
      </trkpt>
      <trkpt lat="48.85566" lon="2.36842">
        <ele>40.2</ele>
        <time>2015-11-11T21:42:56Z</time>
      </trkpt>
      <trkpt lat="48.85547" lon="2.36849">
        <ele>41.8</ele>
        <time>2015-11-11T21:43:02Z</time>
      </trkpt>
      <trkpt lat="48.85527" lon="2.36853">
        <ele>44</ele>
        <time>2015-11-11T21:43:07Z</time>
      </trkpt>
      <trkpt lat="48.85507" lon="2.3686">
        <ele>46.8</ele>
        <time>2015-11-11T21:43:12Z</time>
      </trkpt>
      <trkpt lat="48.85488" lon="2.36866">
        <ele>49</ele>
        <time>2015-11-11T21:43:16Z</time>
      </trkpt>
      <trkpt lat="48.85467" lon="2.36868">
        <ele>47.4</ele>
        <time>2015-11-11T21:43:20Z</time>
      </trkpt>
      <trkpt lat="48.85448" lon="2.36873">
        <ele>46.4</ele>
        <time>2015-11-11T21:43:24Z</time>
      </trkpt>
      <trkpt lat="48.85427" lon="2.36878">
        <ele>45.2</ele>
        <time>2015-11-11T21:43:28Z</time>
      </trkpt>
      <trkpt lat="48.85406" lon="2.36881">
        <ele>41</ele>
        <time>2015-11-11T21:43:32Z</time>
      </trkpt>
      <trkpt lat="48.85402" lon="2.36881">
        <ele>40.6</ele>
        <time>2015-11-11T21:43:33Z</time>
      </trkpt>
      <trkpt lat="48.85395" lon="2.3688">
        <ele>40</ele>
        <time>2015-11-11T21:43:35Z</time>
      </trkpt>
      <trkpt lat="48.85378" lon="2.36885">
        <ele>39.8</ele>
        <time>2015-11-11T21:43:43Z</time>
      </trkpt>
      <trkpt lat="48.85376" lon="2.36886">
        <ele>39.8</ele>
        <time>2015-11-11T21:43:44Z</time>
      </trkpt>
      <trkpt lat="48.85367" lon="2.36893">
        <ele>41.2</ele>
        <time>2015-11-11T21:43:51Z</time>
      </trkpt>
      <trkpt lat="48.85364" lon="2.36919">
        <ele>44</ele>
        <time>2015-11-11T21:44:07Z</time>
      </trkpt>
      <trkpt lat="48.85363" lon="2.36927">
        <ele>44.2</ele>
        <time>2015-11-11T21:44:10Z</time>
      </trkpt>
      <trkpt lat="48.85361" lon="2.3695">
        <ele>44</ele>
        <time>2015-11-11T21:44:20Z</time>
      </trkpt>
      <trkpt lat="48.85349" lon="2.36974">
        <ele>43</ele>
        <time>2015-11-11T21:44:35Z</time>
      </trkpt>
      <trkpt lat="48.85341" lon="2.36989">
        <ele>41.6</ele>
        <time>2015-11-11T21:44:42Z</time>
      </trkpt>
      <trkpt lat="48.85332" lon="2.37001">
        <ele>40.8</ele>
        <time>2015-11-11T21:45:05Z</time>
      </trkpt>
      <trkpt lat="48.85323" lon="2.37004">
        <ele>40.2</ele>
        <time>2015-11-11T21:45:13Z</time>
      </trkpt>
      <trkpt lat="48.85305" lon="2.36995">
        <ele>40.4</ele>
        <time>2015-11-11T21:45:20Z</time>
      </trkpt>
      <trkpt lat="48.85288" lon="2.36982">
        <ele>41</ele>
        <time>2015-11-11T21:45:27Z</time>
      </trkpt>
      <trkpt lat="48.85272" lon="2.36969">
        <ele>38.8</ele>
        <time>2015-11-11T21:45:35Z</time>
      </trkpt>
      <trkpt lat="48.85271" lon="2.36965">
        <ele>38.2</ele>
        <time>2015-11-11T21:45:37Z</time>
      </trkpt>
      <trkpt lat="48.85272" lon="2.36963">
        <ele>37.6</ele>
        <time>2015-11-11T21:45:39Z</time>
      </trkpt>
      <trkpt lat="48.85272" lon="2.36962">
        <ele>37.4</ele>
        <time>2015-11-11T21:45:40Z</time>
      </trkpt>
    </trkseg>
  </trk>
</gpx>